<?xml version='1.0' encoding='UTF-8'?><gpx version="1.1" creator="JPX - https://github.com/jenetics/jpx" xmlns="http://www.topografix.com/GPX/1/1"><trk><trkseg><trkpt lat="36.88494057453483" lon="15.078946242755228"><ele>97.99999999999999</ele><time>2026-04-04T11:02:30.001Z</time></trkpt><trkpt lat="36.88499866605469" lon="15.078874106037837"><ele>98.0</ele><time>2026-04-04T11:03:42.02Z</time></trkpt><trkpt lat="36.88492832621193" lon="15.078867633511566"><ele>98.0</ele><time>2026-04-04T11:03:43Z</time></trkpt><trkpt lat="36.88483068122429" lon="15.078869460154674"><ele>98.0</ele><time>2026-04-04T11:03:51Z</time></trkpt><trkpt lat="36.88476699101056" lon="15.078828001797657"><ele>97.99999999999999</ele><time>2026-04-04T11:05:22Z</time></trkpt><trkpt lat="36.884706893614485" lon="15.078763461155939"><ele>98.0</ele><time>2026-04-04T11:05:24Z</time></trkpt><trkpt lat="36.884631476724785" lon="15.078673492736204"><ele>98.0</ele><time>2026-04-04T11:05:27Z</time></trkpt><trkpt lat="36.88453873734897" lon="15.078590896582021"><ele>98.0</ele><time>2026-04-04T11:05:29Z</time></trkpt><trkpt lat="36.884438860060314" lon="15.078504766016874"><ele>98.0</ele><time>2026-04-04T11:05:31Z</time></trkpt><trkpt lat="36.8843504730235" lon="15.078410000543244"><ele>98.0</ele><time>2026-04-04T11:05:33Z</time></trkpt><trkpt lat="36.88430235732425" lon="15.078357087665175"><ele>98.0</ele><time>2026-04-04T11:05:34Z</time></trkpt><trkpt lat="36.884208231212014" lon="15.078253041194037"><ele>97.60000000000001</ele><time>2026-04-04T11:05:36Z</time></trkpt><trkpt lat="36.884160836357104" lon="15.078166747263245"><ele>97.2</ele><time>2026-04-04T11:05:39Z</time></trkpt><trkpt lat="36.884167864856394" lon="15.078074748677391"><ele>96.8</ele><time>2026-04-04T11:05:42Z</time></trkpt><trkpt lat="36.88422583391409" lon="15.077891745061143"><ele>96.4</ele><time>2026-04-04T11:05:45Z</time></trkpt><trkpt lat="36.88425481909114" lon="15.077788679045483"><ele>96.0</ele><time>2026-04-04T11:05:47Z</time></trkpt><trkpt lat="36.884273804376626" lon="15.077633662201038"><ele>96.0</ele><time>2026-04-04T11:05:49Z</time></trkpt><trkpt lat="36.884303825165375" lon="15.077502283863732"><ele>96.0</ele><time>2026-04-04T11:05:51Z</time></trkpt><trkpt lat="36.884287929730526" lon="15.07741560236412"><ele>96.0</ele><time>2026-04-04T11:05:53Z</time></trkpt><trkpt lat="36.884330384107" lon="15.077321591085228"><ele>96.0</ele><time>2026-04-04T11:05:56Z</time></trkpt><trkpt lat="36.88440165697727" lon="15.077298081380793"><ele>96.0</ele><time>2026-04-04T11:05:58Z</time></trkpt><trkpt lat="36.884429095313536" lon="15.077220162521215"><ele>96.0</ele><time>2026-04-04T11:06:01Z</time></trkpt><trkpt lat="36.88452967299496" lon="15.077178518664658"><ele>95.57142857142857</ele><time>2026-04-04T11:06:03Z</time></trkpt><trkpt lat="36.88459026693355" lon="15.077155139565832"><ele>95.14285714285714</ele><time>2026-04-04T11:06:04Z</time></trkpt><trkpt lat="36.88465368272742" lon="15.07712801829933"><ele>94.71428571428572</ele><time>2026-04-04T11:06:05Z</time></trkpt><trkpt lat="36.88471924134354" lon="15.077095703877758"><ele>94.28571428571428</ele><time>2026-04-04T11:06:06Z</time></trkpt><trkpt lat="36.884790270670514" lon="15.077068706362331"><ele>93.85714285714286</ele><time>2026-04-04T11:06:07Z</time></trkpt><trkpt lat="36.884862397197615" lon="15.077031767848386"><ele>93.42857142857143</ele><time>2026-04-04T11:06:08Z</time></trkpt><trkpt lat="36.88493113242813" lon="15.076988832797342"><ele>93.0</ele><time>2026-04-04T11:06:09Z</time></trkpt><trkpt lat="36.88501501215662" lon="15.076951007995799"><ele>93.0</ele><time>2026-04-04T11:06:10Z</time></trkpt><trkpt lat="36.885092469073804" lon="15.076921014159964"><ele>93.0</ele><time>2026-04-04T11:06:11Z</time></trkpt><trkpt lat="36.88515632675832" lon="15.076899636265804"><ele>93.0</ele><time>2026-04-04T11:06:12Z</time></trkpt><trkpt lat="36.88526815856788" lon="15.076863314509627"><ele>93.0</ele><time>2026-04-04T11:06:14Z</time></trkpt><trkpt lat="36.88534239021388" lon="15.076818883177834"><ele>93.0</ele><time>2026-04-04T11:06:16Z</time></trkpt><trkpt lat="36.88542002519741" lon="15.076787268713547"><ele>93.0</ele><time>2026-04-04T11:06:18Z</time></trkpt><trkpt lat="36.88552039793299" lon="15.076747684942317"><ele>93.5</ele><time>2026-04-04T11:06:20Z</time></trkpt><trkpt lat="36.885629785130675" lon="15.076687238994653"><ele>94.0</ele><time>2026-04-04T11:06:22Z</time></trkpt><trkpt lat="36.88570214061872" lon="15.076654213029666"><ele>94.5</ele><time>2026-04-04T11:06:23Z</time></trkpt><trkpt lat="36.885778561467426" lon="15.076628356827475"><ele>95.0</ele><time>2026-04-04T11:06:24Z</time></trkpt><trkpt lat="36.885849392441216" lon="15.076600233771183"><ele>95.5</ele><time>2026-04-04T11:06:25Z</time></trkpt><trkpt lat="36.88593219071367" lon="15.076567901959095"><ele>96.0</ele><time>2026-04-04T11:06:26Z</time></trkpt><trkpt lat="36.88599714425377" lon="15.07653995925703"><ele>97.4</ele><time>2026-04-04T11:06:27Z</time></trkpt><trkpt lat="36.886109701854764" lon="15.076506554084801"><ele>98.8</ele><time>2026-04-04T11:06:29Z</time></trkpt><trkpt lat="36.88619488813141" lon="15.076480058749677"><ele>100.2</ele><time>2026-04-04T11:06:31Z</time></trkpt><trkpt lat="36.88629861639911" lon="15.076479654028269"><ele>101.60000000000001</ele><time>2026-04-04T11:06:33Z</time></trkpt><trkpt lat="36.8863766887096" lon="15.07642660468158"><ele>103.0</ele><time>2026-04-04T11:06:34Z</time></trkpt><trkpt lat="36.88646353202917" lon="15.076383801863766"><ele>103.00000000000001</ele><time>2026-04-04T11:06:36Z</time></trkpt><trkpt lat="36.886582781613164" lon="15.076333553630949"><ele>103.0</ele><time>2026-04-04T11:06:38Z</time></trkpt><trkpt lat="36.88664217792676" lon="15.076302724000005"><ele>103.0</ele><time>2026-04-04T11:06:39Z</time></trkpt><trkpt lat="36.886710761876664" lon="15.076281134106194"><ele>103.0</ele><time>2026-04-04T11:06:40Z</time></trkpt><trkpt lat="36.886773380279465" lon="15.076260715164416"><ele>103.00000000000001</ele><time>2026-04-04T11:06:41Z</time></trkpt><trkpt lat="36.886889808021884" lon="15.076248256277495"><ele>103.0</ele><time>2026-04-04T11:06:43Z</time></trkpt><trkpt lat="36.886989572829" lon="15.07622620097317"><ele>103.2</ele><time>2026-04-04T11:06:45Z</time></trkpt><trkpt lat="36.88708444461449" lon="15.076217864032685"><ele>103.4</ele><time>2026-04-04T11:06:47Z</time></trkpt><trkpt lat="36.887185782621955" lon="15.07620292686026"><ele>103.60000000000001</ele><time>2026-04-04T11:06:49Z</time></trkpt><trkpt lat="36.88729691288515" lon="15.076187192335338"><ele>103.80000000000001</ele><time>2026-04-04T11:06:51Z</time></trkpt><trkpt lat="36.88740964500168" lon="15.076162401694981"><ele>104.0</ele><time>2026-04-04T11:06:53Z</time></trkpt><trkpt lat="36.88748446297301" lon="15.076145091766511"><ele>104.0</ele><time>2026-04-04T11:06:55Z</time></trkpt><trkpt lat="36.887549012033595" lon="15.076133905836521"><ele>104.0</ele><time>2026-04-04T11:06:57Z</time></trkpt><trkpt lat="36.88776914170892" lon="15.076082401165127"><ele>104.0</ele><time>2026-04-04T11:07:07Z</time></trkpt><trkpt lat="36.887880177085464" lon="15.076042536382936"><ele>104.0</ele><time>2026-04-04T11:07:09Z</time></trkpt><trkpt lat="36.88789909132007" lon="15.075927649436858"><ele>104.33333333333333</ele><time>2026-04-04T11:07:11Z</time></trkpt><trkpt lat="36.88789581160896" lon="15.075836955881078"><ele>104.66666666666666</ele><time>2026-04-04T11:07:12Z</time></trkpt><trkpt lat="36.88791155885517" lon="15.075746474340418"><ele>105.0</ele><time>2026-04-04T11:07:13Z</time></trkpt><trkpt lat="36.88793439831216" lon="15.075589242975022"><ele>105.33333333333334</ele><time>2026-04-04T11:07:15Z</time></trkpt><trkpt lat="36.887941298451715" lon="15.075503311104418"><ele>105.66666666666667</ele><time>2026-04-04T11:07:16Z</time></trkpt><trkpt lat="36.88795971784892" lon="15.075419101624135"><ele>106.0</ele><time>2026-04-04T11:07:17Z</time></trkpt><trkpt lat="36.88797915708875" lon="15.075333256845887"><ele>105.8</ele><time>2026-04-04T11:07:18Z</time></trkpt><trkpt lat="36.888006528232246" lon="15.075218524211612"><ele>105.6</ele><time>2026-04-04T11:07:20Z</time></trkpt><trkpt lat="36.8880451911046" lon="15.075086852169056"><ele>105.4</ele><time>2026-04-04T11:07:22Z</time></trkpt><trkpt lat="36.888068864949695" lon="15.074986858820116"><ele>105.2</ele><time>2026-04-04T11:07:23Z</time></trkpt><trkpt lat="36.88809321243115" lon="15.074890507127451"><ele>105.0</ele><time>2026-04-04T11:07:24Z</time></trkpt><trkpt lat="36.888116642155765" lon="15.07479482772587"><ele>105.0</ele><time>2026-04-04T11:07:25Z</time></trkpt><trkpt lat="36.8881029686239" lon="15.074683523932567"><ele>105.0</ele><time>2026-04-04T11:07:26Z</time></trkpt><trkpt lat="36.88815235910104" lon="15.074600020293046"><ele>105.0</ele><time>2026-04-04T11:07:27Z</time></trkpt><trkpt lat="36.88821727472192" lon="15.07447905045045"><ele>105.0</ele><time>2026-04-04T11:07:29Z</time></trkpt><trkpt lat="36.88823292134247" lon="15.074384307146342"><ele>105.0</ele><time>2026-04-04T11:07:33Z</time></trkpt><trkpt lat="36.888258802767496" lon="15.074279086375617"><ele>105.0</ele><time>2026-04-04T11:07:37Z</time></trkpt><trkpt lat="36.88827173611626" lon="15.074168954320703"><ele>105.0</ele><time>2026-04-04T11:07:39Z</time></trkpt><trkpt lat="36.8883064580386" lon="15.074015641835803"><ele>105.0</ele><time>2026-04-04T11:07:41Z</time></trkpt><trkpt lat="36.88832908473374" lon="15.0739181574614"><ele>105.0</ele><time>2026-04-04T11:07:42Z</time></trkpt><trkpt lat="36.88835785169034" lon="15.073787521805466"><ele>105.0</ele><time>2026-04-04T11:07:43Z</time></trkpt><trkpt lat="36.888380440769645" lon="15.07370061402963"><ele>104.2</ele><time>2026-04-04T11:07:44Z</time></trkpt><trkpt lat="36.88840593209575" lon="15.073591509691319"><ele>103.4</ele><time>2026-04-04T11:07:45Z</time></trkpt><trkpt lat="36.88843207131617" lon="15.07347636328327"><ele>102.6</ele><time>2026-04-04T11:07:46Z</time></trkpt><trkpt lat="36.88845936172817" lon="15.073353976044555"><ele>101.8</ele><time>2026-04-04T11:07:47Z</time></trkpt><trkpt lat="36.88849371625274" lon="15.073224630013161"><ele>101.0</ele><time>2026-04-04T11:07:48Z</time></trkpt><trkpt lat="36.88852205580853" lon="15.07309161187075"><ele>101.0</ele><time>2026-04-04T11:07:49Z</time></trkpt><trkpt lat="36.888561046157605" lon="15.072968341437177"><ele>101.0</ele><time>2026-04-04T11:07:50Z</time></trkpt><trkpt lat="36.8885875956945" lon="15.072853674592862"><ele>101.0</ele><time>2026-04-04T11:07:51Z</time></trkpt><trkpt lat="36.88860558181488" lon="15.072736503637445"><ele>101.0</ele><time>2026-04-04T11:07:52Z</time></trkpt><trkpt lat="36.888631557178684" lon="15.072640913414324"><ele>101.0</ele><time>2026-04-04T11:07:53Z</time></trkpt><trkpt lat="36.88865504420555" lon="15.07254793246192"><ele>100.99999999999999</ele><time>2026-04-04T11:07:54Z</time></trkpt><trkpt lat="36.88867475568006" lon="15.07244760169968"><ele>101.0</ele><time>2026-04-04T11:07:55Z</time></trkpt><trkpt lat="36.888704898706735" lon="15.072362810842234"><ele>101.0</ele><time>2026-04-04T11:07:56Z</time></trkpt><trkpt lat="36.88872701398314" lon="15.072271428618427"><ele>101.0</ele><time>2026-04-04T11:07:57Z</time></trkpt><trkpt lat="36.888742098962624" lon="15.072161946317717"><ele>100.99999999999999</ele><time>2026-04-04T11:07:58Z</time></trkpt><trkpt lat="36.88877636020382" lon="15.072075721279703"><ele>101.0</ele><time>2026-04-04T11:07:59Z</time></trkpt><trkpt lat="36.8888152348767" lon="15.0720031459038"><ele>100.99999999999999</ele><time>2026-04-04T11:08:00Z</time></trkpt><trkpt lat="36.888852377786066" lon="15.071937125580762"><ele>101.0</ele><time>2026-04-04T11:08:01Z</time></trkpt><trkpt lat="36.8889110999466" lon="15.071799306338683"><ele>101.0</ele><time>2026-04-04T11:08:03Z</time></trkpt><trkpt lat="36.88893415749863" lon="15.071725125671987"><ele>101.0</ele><time>2026-04-04T11:08:04Z</time></trkpt><trkpt lat="36.88896922029132" lon="15.071605528894226"><ele>100.99999999999999</ele><time>2026-04-04T11:08:06Z</time></trkpt><trkpt lat="36.88899959394353" lon="15.071514460289782"><ele>101.0</ele><time>2026-04-04T11:08:09Z</time></trkpt><trkpt lat="36.88901678115459" lon="15.071423339702038"><ele>100.99999999999999</ele><time>2026-04-04T11:08:19Z</time></trkpt><trkpt lat="36.889053833006095" lon="15.07130884640345"><ele>101.0</ele><time>2026-04-04T11:08:22Z</time></trkpt><trkpt lat="36.889089353236706" lon="15.071222343379945"><ele>101.0</ele><time>2026-04-04T11:08:24Z</time></trkpt><trkpt lat="36.88912267128314" lon="15.071133993093158"><ele>101.0</ele><time>2026-04-04T11:08:27Z</time></trkpt><trkpt lat="36.889127621733834" lon="15.071029115549337"><ele>100.99999999999999</ele><time>2026-04-04T11:08:29Z</time></trkpt><trkpt lat="36.88916940793401" lon="15.070920658849845"><ele>101.0</ele><time>2026-04-04T11:08:31Z</time></trkpt><trkpt lat="36.88920975814555" lon="15.070812833325878"><ele>100.6</ele><time>2026-04-04T11:08:33Z</time></trkpt><trkpt lat="36.889234548979545" lon="15.07069736331971"><ele>100.19999999999999</ele><time>2026-04-04T11:08:35Z</time></trkpt><trkpt lat="36.88926252961709" lon="15.07057438402064"><ele>99.80000000000001</ele><time>2026-04-04T11:08:37Z</time></trkpt><trkpt lat="36.889313680803" lon="15.07047495819068"><ele>99.4</ele><time>2026-04-04T11:08:39Z</time></trkpt><trkpt lat="36.88934400970975" lon="15.07036147026445"><ele>99.0</ele><time>2026-04-04T11:08:41Z</time></trkpt><trkpt lat="36.889371920753824" lon="15.070242536495932"><ele>100.5</ele><time>2026-04-04T11:08:43Z</time></trkpt><trkpt lat="36.88941609002585" lon="15.070142427407305"><ele>102.0</ele><time>2026-04-04T11:08:45Z</time></trkpt><trkpt lat="36.889433811428184" lon="15.070054637269083"><ele>103.5</ele><time>2026-04-04T11:08:47Z</time></trkpt><trkpt lat="36.889467425284295" lon="15.06998536826139"><ele>105.0</ele><time>2026-04-04T11:08:49Z</time></trkpt><trkpt lat="36.88949318251209" lon="15.069899713125837"><ele>106.5</ele><time>2026-04-04T11:08:51Z</time></trkpt><trkpt lat="36.88954849116734" lon="15.069769637287614"><ele>108.0</ele><time>2026-04-04T11:08:53Z</time></trkpt><trkpt lat="36.889571865297576" lon="15.069696084215726"><ele>108.0</ele><time>2026-04-04T11:08:54Z</time></trkpt><trkpt lat="36.88960473775243" lon="15.06962227255919"><ele>108.0</ele><time>2026-04-04T11:08:55Z</time></trkpt><trkpt lat="36.88961716435973" lon="15.069482172734885"><ele>108.0</ele><time>2026-04-04T11:08:57Z</time></trkpt><trkpt lat="36.889647882891516" lon="15.06936190656029"><ele>108.0</ele><time>2026-04-04T11:08:59Z</time></trkpt><trkpt lat="36.88966944017054" lon="15.06927395311579"><ele>108.0</ele><time>2026-04-04T11:09:01Z</time></trkpt><trkpt lat="36.88970192109865" lon="15.06919396213801"><ele>108.0</ele><time>2026-04-04T11:09:03Z</time></trkpt><trkpt lat="36.88973084284644" lon="15.069082179601807"><ele>108.0</ele><time>2026-04-04T11:09:05Z</time></trkpt><trkpt lat="36.88978526382319" lon="15.06897147570641"><ele>108.00000000000001</ele><time>2026-04-04T11:09:07Z</time></trkpt><trkpt lat="36.8898202891721" lon="15.06884542594548"><ele>108.00000000000001</ele><time>2026-04-04T11:09:09Z</time></trkpt><trkpt lat="36.88985024289571" lon="15.068709437120166"><ele>108.0</ele><time>2026-04-04T11:09:11Z</time></trkpt><trkpt lat="36.88987134640671" lon="15.068559979996124"><ele>108.0</ele><time>2026-04-04T11:09:13Z</time></trkpt><trkpt lat="36.88991226226948" lon="15.068441624023045"><ele>108.0</ele><time>2026-04-04T11:09:15Z</time></trkpt><trkpt lat="36.88990458565445" lon="15.068360987357767"><ele>108.0</ele><time>2026-04-04T11:09:16Z</time></trkpt><trkpt lat="36.889932265004056" lon="15.068265359531152"><ele>108.0</ele><time>2026-04-04T11:09:18Z</time></trkpt><trkpt lat="36.88998294377384" lon="15.068194339667418"><ele>108.0</ele><time>2026-04-04T11:09:21Z</time></trkpt><trkpt lat="36.890027738697356" lon="15.068090417531456"><ele>108.0</ele><time>2026-04-04T11:09:23Z</time></trkpt><trkpt lat="36.8900178683657" lon="15.067998971511141"><ele>108.0</ele><time>2026-04-04T11:09:25Z</time></trkpt><trkpt lat="36.89002742005123" lon="15.067919625713143"><ele>108.5</ele><time>2026-04-04T11:09:27Z</time></trkpt><trkpt lat="36.890051888143205" lon="15.067815489026424"><ele>109.0</ele><time>2026-04-04T11:09:28Z</time></trkpt><trkpt lat="36.89009701990828" lon="15.067690338572932"><ele>109.5</ele><time>2026-04-04T11:09:30Z</time></trkpt><trkpt lat="36.89013196768007" lon="15.067595676003318"><ele>110.0</ele><time>2026-04-04T11:09:32Z</time></trkpt><trkpt lat="36.89015741208377" lon="15.067513177989296"><ele>110.5</ele><time>2026-04-04T11:09:34Z</time></trkpt><trkpt lat="36.890168820295024" lon="15.067430483561134"><ele>111.0</ele><time>2026-04-04T11:09:39Z</time></trkpt><trkpt lat="36.89021860849704" lon="15.067345755084109"><ele>111.0</ele><time>2026-04-04T11:09:41Z</time></trkpt><trkpt lat="36.890255588537734" lon="15.06725826646408"><ele>111.0</ele><time>2026-04-04T11:09:42Z</time></trkpt><trkpt lat="36.890270919711725" lon="15.067147713468971"><ele>111.0</ele><time>2026-04-04T11:09:43Z</time></trkpt><trkpt lat="36.89029958825828" lon="15.067036966977888"><ele>111.0</ele><time>2026-04-04T11:09:44Z</time></trkpt><trkpt lat="36.89033871308434" lon="15.066907838979994"><ele>111.0</ele><time>2026-04-04T11:09:45Z</time></trkpt><trkpt lat="36.890367954063215" lon="15.066776911090187"><ele>111.0</ele><time>2026-04-04T11:09:46Z</time></trkpt><trkpt lat="36.890403830522466" lon="15.066640797481293"><ele>111.0</ele><time>2026-04-04T11:09:47Z</time></trkpt><trkpt lat="36.89044505633252" lon="15.066509451053827"><ele>111.0</ele><time>2026-04-04T11:09:48Z</time></trkpt><trkpt lat="36.89047898665332" lon="15.06638755004462"><ele>111.0</ele><time>2026-04-04T11:09:49Z</time></trkpt><trkpt lat="36.890497805039665" lon="15.066283495924514"><ele>111.0</ele><time>2026-04-04T11:09:50Z</time></trkpt><trkpt lat="36.89053914592247" lon="15.066210422173246"><ele>110.8</ele><time>2026-04-04T11:09:51Z</time></trkpt><trkpt lat="36.890562196613494" lon="15.066085173514834"><ele>110.6</ele><time>2026-04-04T11:09:53Z</time></trkpt><trkpt lat="36.890579576465505" lon="15.065993328918887"><ele>110.4</ele><time>2026-04-04T11:09:54Z</time></trkpt><trkpt lat="36.890618765029814" lon="15.065883602848581"><ele>110.2</ele><time>2026-04-04T11:09:55Z</time></trkpt><trkpt lat="36.89063376826228" lon="15.065738831202163"><ele>110.0</ele><time>2026-04-04T11:09:56Z</time></trkpt><trkpt lat="36.89065527324414" lon="15.065645609843553"><ele>109.4</ele><time>2026-04-04T11:09:57Z</time></trkpt><trkpt lat="36.890696668187225" lon="15.06554529900219"><ele>108.8</ele><time>2026-04-04T11:09:58Z</time></trkpt><trkpt lat="36.89075361146044" lon="15.065442835554133"><ele>108.19999999999999</ele><time>2026-04-04T11:10:00Z</time></trkpt><trkpt lat="36.890766241586654" lon="15.065349795035157"><ele>107.6</ele><time>2026-04-04T11:10:02Z</time></trkpt><trkpt lat="36.89080173042641" lon="15.065238530955858"><ele>107.0</ele><time>2026-04-04T11:10:04Z</time></trkpt><trkpt lat="36.89080764073497" lon="15.065125246415343"><ele>107.0</ele><time>2026-04-04T11:10:06Z</time></trkpt><trkpt lat="36.89083294257583" lon="15.064981283010145"><ele>106.99999999999999</ele><time>2026-04-04T11:10:08Z</time></trkpt><trkpt lat="36.89084677674637" lon="15.064849944988305"><ele>106.99999999999999</ele><time>2026-04-04T11:10:10Z</time></trkpt><trkpt lat="36.89087517459169" lon="15.06473611458754"><ele>107.0</ele><time>2026-04-04T11:10:12Z</time></trkpt><trkpt lat="36.89088318126496" lon="15.064640196834004"><ele>107.0</ele><time>2026-04-04T11:10:14Z</time></trkpt><trkpt lat="36.89091319365695" lon="15.06454068337497"><ele>106.39999999999999</ele><time>2026-04-04T11:10:17Z</time></trkpt><trkpt lat="36.890913406888416" lon="15.064442682023333"><ele>105.79999999999998</ele><time>2026-04-04T11:10:19Z</time></trkpt><trkpt lat="36.89092866556986" lon="15.064320970730375"><ele>105.2</ele><time>2026-04-04T11:10:21Z</time></trkpt><trkpt lat="36.89093538083375" lon="15.064195194306544"><ele>104.6</ele><time>2026-04-04T11:10:23Z</time></trkpt><trkpt lat="36.890952499635276" lon="15.064071477975162"><ele>104.0</ele><time>2026-04-04T11:10:25Z</time></trkpt><trkpt lat="36.890958804345374" lon="15.06395968276546"><ele>103.16666666666666</ele><time>2026-04-04T11:10:27Z</time></trkpt><trkpt lat="36.89098084340758" lon="15.0638624413686"><ele>102.33333333333333</ele><time>2026-04-04T11:10:30Z</time></trkpt><trkpt lat="36.89099637953341" lon="15.063756266245132"><ele>101.5</ele><time>2026-04-04T11:10:33Z</time></trkpt><trkpt lat="36.89102029206002" lon="15.063662344470414"><ele>100.66666666666666</ele><time>2026-04-04T11:10:37Z</time></trkpt><trkpt lat="36.89100306585572" lon="15.063568689386855"><ele>99.83333333333333</ele><time>2026-04-04T11:10:39Z</time></trkpt><trkpt lat="36.89092908790938" lon="15.063441561666684"><ele>99.0</ele><time>2026-04-04T11:10:41Z</time></trkpt><trkpt lat="36.89088804383161" lon="15.063370639064047"><ele>97.80000000000001</ele><time>2026-04-04T11:10:42Z</time></trkpt><trkpt lat="36.89082034945346" lon="15.063241468784508"><ele>96.60000000000001</ele><time>2026-04-04T11:10:44Z</time></trkpt><trkpt lat="36.890758373339914" lon="15.06311657933318"><ele>95.4</ele><time>2026-04-04T11:10:46Z</time></trkpt><trkpt lat="36.890727216382786" lon="15.063044522312003"><ele>94.2</ele><time>2026-04-04T11:10:47Z</time></trkpt><trkpt lat="36.8906775031066" lon="15.062966166018832"><ele>93.0</ele><time>2026-04-04T11:10:49Z</time></trkpt><trkpt lat="36.89067755376975" lon="15.062883167393055"><ele>93.0</ele><time>2026-04-04T11:10:52Z</time></trkpt><trkpt lat="36.890634572400316" lon="15.062782380144228"><ele>93.0</ele><time>2026-04-04T11:10:55Z</time></trkpt><trkpt lat="36.89065954509711" lon="15.06266525204168"><ele>93.0</ele><time>2026-04-04T11:10:57Z</time></trkpt><trkpt lat="36.89070526448005" lon="15.062607151338334"><ele>93.0</ele><time>2026-04-04T11:10:58Z</time></trkpt><trkpt lat="36.89077500611889" lon="15.06255053448976"><ele>93.0</ele><time>2026-04-04T11:10:59Z</time></trkpt><trkpt lat="36.890871203209706" lon="15.06249941212445"><ele>93.0</ele><time>2026-04-04T11:11:00Z</time></trkpt><trkpt lat="36.890964220993084" lon="15.062441842352806"><ele>93.60000000000001</ele><time>2026-04-04T11:11:01Z</time></trkpt><trkpt lat="36.8910528762183" lon="15.062391658946947"><ele>94.2</ele><time>2026-04-04T11:11:02Z</time></trkpt><trkpt lat="36.89113856036167" lon="15.062331847521433"><ele>94.8</ele><time>2026-04-04T11:11:03Z</time></trkpt><trkpt lat="36.89123818474325" lon="15.062281866183904"><ele>95.4</ele><time>2026-04-04T11:11:04Z</time></trkpt><trkpt lat="36.89132667574347" lon="15.062229830187936"><ele>96.0</ele><time>2026-04-04T11:11:05Z</time></trkpt><trkpt lat="36.891381446157055" lon="15.062123380013277"><ele>96.0</ele><time>2026-04-04T11:11:06Z</time></trkpt><trkpt lat="36.891463939039596" lon="15.06209279713936"><ele>96.0</ele><time>2026-04-04T11:11:07Z</time></trkpt><trkpt lat="36.89155528607089" lon="15.062054597548556"><ele>96.0</ele><time>2026-04-04T11:11:08Z</time></trkpt><trkpt lat="36.89163791962748" lon="15.062012435115152"><ele>96.0</ele><time>2026-04-04T11:11:09Z</time></trkpt><trkpt lat="36.89170171307163" lon="15.061956151974167"><ele>96.0</ele><time>2026-04-04T11:11:10Z</time></trkpt><trkpt lat="36.891758960376" lon="15.06191788427901"><ele>96.0</ele><time>2026-04-04T11:11:11Z</time></trkpt><trkpt lat="36.89185839383711" lon="15.06185608978598"><ele>96.0</ele><time>2026-04-04T11:11:13Z</time></trkpt><trkpt lat="36.89195136985302" lon="15.0617918577777"><ele>96.0</ele><time>2026-04-04T11:11:15Z</time></trkpt><trkpt lat="36.89201317894053" lon="15.061746713104112"><ele>96.0</ele><time>2026-04-04T11:11:17Z</time></trkpt><trkpt lat="36.892095710787125" lon="15.061684064791958"><ele>96.0</ele><time>2026-04-04T11:11:20Z</time></trkpt><trkpt lat="36.89218705261045" lon="15.061625720812623"><ele>96.0</ele><time>2026-04-04T11:11:22Z</time></trkpt><trkpt lat="36.892274465016534" lon="15.061593499048367"><ele>96.0</ele><time>2026-04-04T11:11:24Z</time></trkpt><trkpt lat="36.89236468175994" lon="15.061549288201078"><ele>96.0</ele><time>2026-04-04T11:11:26Z</time></trkpt><trkpt lat="36.89250057211121" lon="15.061511632602581"><ele>96.0</ele><time>2026-04-04T11:11:28Z</time></trkpt><trkpt lat="36.89262881365826" lon="15.06149676575788"><ele>96.0</ele><time>2026-04-04T11:11:29Z</time></trkpt><trkpt lat="36.89273282628765" lon="15.061473484487097"><ele>97.0</ele><time>2026-04-04T11:11:30Z</time></trkpt><trkpt lat="36.89284399479045" lon="15.061508538440492"><ele>98.0</ele><time>2026-04-04T11:11:31Z</time></trkpt><trkpt lat="36.89299906571167" lon="15.061547336904423"><ele>99.0</ele><time>2026-04-04T11:11:32Z</time></trkpt><trkpt lat="36.89312749758558" lon="15.061612772270987"><ele>100.0</ele><time>2026-04-04T11:11:33Z</time></trkpt><trkpt lat="36.893257087947546" lon="15.061690898927361"><ele>103.66666666666667</ele><time>2026-04-04T11:11:34Z</time></trkpt><trkpt lat="36.8933959742755" lon="15.061758898851123"><ele>107.33333333333334</ele><time>2026-04-04T11:11:35Z</time></trkpt><trkpt lat="36.893548859846945" lon="15.061818519472968"><ele>111.0</ele><time>2026-04-04T11:11:36Z</time></trkpt><trkpt lat="36.89372256619159" lon="15.061887611747506"><ele>111.0</ele><time>2026-04-04T11:11:37Z</time></trkpt><trkpt lat="36.89387490149712" lon="15.06192424797228"><ele>111.0</ele><time>2026-04-04T11:11:38Z</time></trkpt><trkpt lat="36.89399954785986" lon="15.061959672527"><ele>111.0</ele><time>2026-04-04T11:11:39Z</time></trkpt><trkpt lat="36.894123988057835" lon="15.061980120749627"><ele>111.0</ele><time>2026-04-04T11:11:40Z</time></trkpt><trkpt lat="36.894228373311456" lon="15.062002461960184"><ele>110.83333333333333</ele><time>2026-04-04T11:11:41Z</time></trkpt><trkpt lat="36.894307625482504" lon="15.062022779414132"><ele>110.66666666666666</ele><time>2026-04-04T11:11:42Z</time></trkpt><trkpt lat="36.89437802568171" lon="15.062061737509557"><ele>110.5</ele><time>2026-04-04T11:11:44Z</time></trkpt><trkpt lat="36.89446128486283" lon="15.062148435613349"><ele>110.33333333333333</ele><time>2026-04-04T11:11:46Z</time></trkpt><trkpt lat="36.89451648187354" lon="15.062204053904265"><ele>110.16666666666666</ele><time>2026-04-04T11:11:47Z</time></trkpt><trkpt lat="36.89458423179195" lon="15.062211609895746"><ele>110.0</ele><time>2026-04-04T11:11:48Z</time></trkpt><trkpt lat="36.89464240083176" lon="15.062160357143343"><ele>110.0</ele><time>2026-04-04T11:11:49Z</time></trkpt><trkpt lat="36.89469206099479" lon="15.062070266125826"><ele>110.0</ele><time>2026-04-04T11:11:50Z</time></trkpt><trkpt lat="36.894759405600745" lon="15.061988836989455"><ele>110.0</ele><time>2026-04-04T11:11:51Z</time></trkpt><trkpt lat="36.894865091354816" lon="15.061948837371554"><ele>110.0</ele><time>2026-04-04T11:11:52Z</time></trkpt><trkpt lat="36.895001485274335" lon="15.061926637648302"><ele>110.0</ele><time>2026-04-04T11:11:53Z</time></trkpt><trkpt lat="36.895142920109215" lon="15.061904926791584"><ele>110.0</ele><time>2026-04-04T11:11:54Z</time></trkpt><trkpt lat="36.895279090068954" lon="15.061892102706073"><ele>110.0</ele><time>2026-04-04T11:11:55Z</time></trkpt><trkpt lat="36.8953949630577" lon="15.06188326194811"><ele>110.0</ele><time>2026-04-04T11:11:56Z</time></trkpt><trkpt lat="36.89550067397292" lon="15.061864773496852"><ele>110.0</ele><time>2026-04-04T11:11:57Z</time></trkpt><trkpt lat="36.89561287388722" lon="15.06182702463751"><ele>110.0</ele><time>2026-04-04T11:11:58Z</time></trkpt><trkpt lat="36.895737637221174" lon="15.061766122361806"><ele>110.0</ele><time>2026-04-04T11:11:59Z</time></trkpt><trkpt lat="36.89586855022082" lon="15.061751917204747"><ele>110.0</ele><time>2026-04-04T11:12:00Z</time></trkpt><trkpt lat="36.89606205483211" lon="15.061744739443593"><ele>109.0</ele><time>2026-04-04T11:12:01Z</time></trkpt><trkpt lat="36.896292757378376" lon="15.061780597974153"><ele>108.0</ele><time>2026-04-04T11:12:02Z</time></trkpt><trkpt lat="36.896522448873725" lon="15.061821910653746"><ele>113.5</ele><time>2026-04-04T11:12:03Z</time></trkpt><trkpt lat="36.89675512289345" lon="15.06185719129657"><ele>119.0</ele><time>2026-04-04T11:12:04Z</time></trkpt><trkpt lat="36.89698272012" lon="15.061856439171983"><ele>119.0</ele><time>2026-04-04T11:12:05Z</time></trkpt><trkpt lat="36.897177873368236" lon="15.061862841098778"><ele>119.0</ele><time>2026-04-04T11:12:06Z</time></trkpt><trkpt lat="36.89735502155833" lon="15.061888882247185"><ele>119.0</ele><time>2026-04-04T11:12:07Z</time></trkpt><trkpt lat="36.89754530705666" lon="15.061898846573415"><ele>122.33333333333333</ele><time>2026-04-04T11:12:08Z</time></trkpt><trkpt lat="36.897748368940036" lon="15.061890462233311"><ele>125.66666666666666</ele><time>2026-04-04T11:12:09Z</time></trkpt><trkpt lat="36.89791270236524" lon="15.061921693423423"><ele>129.0</ele><time>2026-04-04T11:12:10Z</time></trkpt><trkpt lat="36.898106646510335" lon="15.061941879588893"><ele>129.0</ele><time>2026-04-04T11:12:11Z</time></trkpt><trkpt lat="36.89828798016744" lon="15.062009539977412"><ele>129.0</ele><time>2026-04-04T11:12:12Z</time></trkpt><trkpt lat="36.898483068806584" lon="15.06201758441998"><ele>129.0</ele><time>2026-04-04T11:12:13Z</time></trkpt><trkpt lat="36.89872268146289" lon="15.062033243890985"><ele>130.33333333333334</ele><time>2026-04-04T11:12:14Z</time></trkpt><trkpt lat="36.8989319854761" lon="15.062014464918523"><ele>131.66666666666669</ele><time>2026-04-04T11:12:15Z</time></trkpt><trkpt lat="36.899128388182135" lon="15.06196701516669"><ele>133.0</ele><time>2026-04-04T11:12:16Z</time></trkpt><trkpt lat="36.89932077698835" lon="15.061907407781458"><ele>134.0</ele><time>2026-04-04T11:12:17Z</time></trkpt><trkpt lat="36.89948339730772" lon="15.061767571065499"><ele>135.0</ele><time>2026-04-04T11:12:18Z</time></trkpt><trkpt lat="36.89963305349099" lon="15.061620932341786"><ele>136.0</ele><time>2026-04-04T11:12:19Z</time></trkpt><trkpt lat="36.89977615145414" lon="15.061428449653354"><ele>136.66666666666669</ele><time>2026-04-04T11:12:20Z</time></trkpt><trkpt lat="36.8999055360442" lon="15.061210541346458"><ele>137.33333333333334</ele><time>2026-04-04T11:12:21Z</time></trkpt><trkpt lat="36.90007174522178" lon="15.061068206418343"><ele>138.0</ele><time>2026-04-04T11:12:22Z</time></trkpt><trkpt lat="36.900239594739126" lon="15.060937755263279"><ele>135.33333333333334</ele><time>2026-04-04T11:12:23Z</time></trkpt><trkpt lat="36.90041775286622" lon="15.060824003816057"><ele>132.66666666666669</ele><time>2026-04-04T11:12:24Z</time></trkpt><trkpt lat="36.900588441200966" lon="15.060680842175849"><ele>130.0</ele><time>2026-04-04T11:12:25Z</time></trkpt><trkpt lat="36.90077928007837" lon="15.060530618012343"><ele>132.0</ele><time>2026-04-04T11:12:26Z</time></trkpt><trkpt lat="36.90098325497033" lon="15.060401210788395"><ele>134.0</ele><time>2026-04-04T11:12:27Z</time></trkpt><trkpt lat="36.90117681593582" lon="15.060279236209823"><ele>136.0</ele><time>2026-04-04T11:12:28Z</time></trkpt><trkpt lat="36.901376295523015" lon="15.0600643827822"><ele>136.0</ele><time>2026-04-04T11:12:29Z</time></trkpt><trkpt lat="36.90156984327102" lon="15.05995592524589"><ele>136.0</ele><time>2026-04-04T11:12:30Z</time></trkpt><trkpt lat="36.901758762579334" lon="15.059807743088493"><ele>136.0</ele><time>2026-04-04T11:12:31Z</time></trkpt><trkpt lat="36.901931395995355" lon="15.059622155071565"><ele>134.66666666666669</ele><time>2026-04-04T11:12:32Z</time></trkpt><trkpt lat="36.90209210903511" lon="15.059439610610095"><ele>133.33333333333334</ele><time>2026-04-04T11:12:33Z</time></trkpt><trkpt lat="36.902249719087706" lon="15.059301209684348"><ele>132.0</ele><time>2026-04-04T11:12:34Z</time></trkpt><trkpt lat="36.902405396360855" lon="15.059142684711405"><ele>130.66666666666666</ele><time>2026-04-04T11:12:35Z</time></trkpt><trkpt lat="36.902551978331836" lon="15.058967018108552"><ele>129.33333333333331</ele><time>2026-04-04T11:12:36Z</time></trkpt><trkpt lat="36.90271719320372" lon="15.058788867109094"><ele>128.0</ele><time>2026-04-04T11:12:37Z</time></trkpt><trkpt lat="36.90290031777695" lon="15.058614338884258"><ele>128.0</ele><time>2026-04-04T11:12:38Z</time></trkpt><trkpt lat="36.90301994803044" lon="15.058413327273449"><ele>128.0</ele><time>2026-04-04T11:12:39Z</time></trkpt><trkpt lat="36.90312071639939" lon="15.058198366368254"><ele>128.0</ele><time>2026-04-04T11:12:40Z</time></trkpt><trkpt lat="36.90322574010509" lon="15.057950637831409"><ele>123.0</ele><time>2026-04-04T11:12:41Z</time></trkpt><trkpt lat="36.9033198937541" lon="15.057622302406267"><ele>118.0</ele><time>2026-04-04T11:12:42Z</time></trkpt><trkpt lat="36.903392233173975" lon="15.057386708751844"><ele>118.0</ele><time>2026-04-04T11:12:43Z</time></trkpt><trkpt lat="36.90347195224084" lon="15.057162891980855"><ele>118.0</ele><time>2026-04-04T11:12:44Z</time></trkpt><trkpt lat="36.90356498779827" lon="15.056921069703973"><ele>118.0</ele><time>2026-04-04T11:12:45Z</time></trkpt><trkpt lat="36.903663427629645" lon="15.056676225292282"><ele>116.33333333333334</ele><time>2026-04-04T11:12:46Z</time></trkpt><trkpt lat="36.90376554214948" lon="15.05644455670184"><ele>114.66666666666666</ele><time>2026-04-04T11:12:47Z</time></trkpt><trkpt lat="36.90386513399168" lon="15.056217733641232"><ele>113.0</ele><time>2026-04-04T11:12:48Z</time></trkpt><trkpt lat="36.90393850520627" lon="15.0559801699405"><ele>112.33333333333333</ele><time>2026-04-04T11:12:49Z</time></trkpt><trkpt lat="36.90400771415017" lon="15.055720362940349"><ele>111.66666666666666</ele><time>2026-04-04T11:12:50Z</time></trkpt><trkpt lat="36.90407762263097" lon="15.055479307141951"><ele>111.0</ele><time>2026-04-04T11:12:51Z</time></trkpt><trkpt lat="36.904134707777565" lon="15.055233652591594"><ele>111.0</ele><time>2026-04-04T11:12:52Z</time></trkpt><trkpt lat="36.90418856415323" lon="15.054957935047543"><ele>111.0</ele><time>2026-04-04T11:12:53Z</time></trkpt><trkpt lat="36.90426998086341" lon="15.054712192677467"><ele>111.0</ele><time>2026-04-04T11:12:54Z</time></trkpt><trkpt lat="36.90437212733602" lon="15.05449471100998"><ele>111.33333333333334</ele><time>2026-04-04T11:12:55Z</time></trkpt><trkpt lat="36.904504851761175" lon="15.05429998327986"><ele>111.66666666666667</ele><time>2026-04-04T11:12:56Z</time></trkpt><trkpt lat="36.904669999105636" lon="15.05414057194443"><ele>112.0</ele><time>2026-04-04T11:12:57Z</time></trkpt><trkpt lat="36.90482228421348" lon="15.053974152457638"><ele>112.0</ele><time>2026-04-04T11:12:58Z</time></trkpt><trkpt lat="36.90497395577119" lon="15.053780121830256"><ele>112.0</ele><time>2026-04-04T11:12:59Z</time></trkpt><trkpt lat="36.905117209329156" lon="15.053580829783796"><ele>112.0</ele><time>2026-04-04T11:13:00Z</time></trkpt><trkpt lat="36.90527684397596" lon="15.053363532181413"><ele>113.5</ele><time>2026-04-04T11:13:01Z</time></trkpt><trkpt lat="36.90543487946726" lon="15.053149537747004"><ele>115.0</ele><time>2026-04-04T11:13:02Z</time></trkpt><trkpt lat="36.9055878122276" lon="15.05294788002059"><ele>115.0</ele><time>2026-04-04T11:13:03Z</time></trkpt><trkpt lat="36.90574045969166" lon="15.05273788562189"><ele>115.0</ele><time>2026-04-04T11:13:04Z</time></trkpt><trkpt lat="36.90588444516653" lon="15.05253754800993"><ele>115.0</ele><time>2026-04-04T11:13:05Z</time></trkpt><trkpt lat="36.90603262458258" lon="15.052337050880942"><ele>118.0</ele><time>2026-04-04T11:13:06Z</time></trkpt><trkpt lat="36.90618315591066" lon="15.052137742078136"><ele>121.0</ele><time>2026-04-04T11:13:07Z</time></trkpt><trkpt lat="36.90633197396348" lon="15.051949324447179"><ele>124.0</ele><time>2026-04-04T11:13:08Z</time></trkpt><trkpt lat="36.90647870949386" lon="15.051774322227889"><ele>125.33333333333334</ele><time>2026-04-04T11:13:09Z</time></trkpt><trkpt lat="36.906605559010664" lon="15.051603747617753"><ele>126.66666666666666</ele><time>2026-04-04T11:13:10Z</time></trkpt><trkpt lat="36.90673746961013" lon="15.051424766608296"><ele>128.0</ele><time>2026-04-04T11:13:11Z</time></trkpt><trkpt lat="36.90687444607116" lon="15.051231277786332"><ele>132.66666666666666</ele><time>2026-04-04T11:13:12Z</time></trkpt><trkpt lat="36.90697091213849" lon="15.051028020754922"><ele>137.33333333333334</ele><time>2026-04-04T11:13:13Z</time></trkpt><trkpt lat="36.90702390728368" lon="15.050813524637197"><ele>142.0</ele><time>2026-04-04T11:13:14Z</time></trkpt><trkpt lat="36.90705175359902" lon="15.050570633349382"><ele>143.25</ele><time>2026-04-04T11:13:15Z</time></trkpt><trkpt lat="36.907082170445946" lon="15.050340067689902"><ele>144.5</ele><time>2026-04-04T11:13:16Z</time></trkpt><trkpt lat="36.90710848395772" lon="15.050171419877865"><ele>145.75</ele><time>2026-04-04T11:13:17Z</time></trkpt><trkpt lat="36.90712544988643" lon="15.05005093584264"><ele>147.0</ele><time>2026-04-04T11:13:18Z</time></trkpt><trkpt lat="36.907113371628746" lon="15.049965429862551"><ele>147.0</ele><time>2026-04-04T11:13:19Z</time></trkpt><trkpt lat="36.90711504828825" lon="15.049878001267674"><ele>147.0</ele><time>2026-04-04T11:13:21Z</time></trkpt><trkpt lat="36.907215893959226" lon="15.049929732093815"><ele>147.0</ele><time>2026-04-04T11:14:55Z</time></trkpt><trkpt lat="36.90725339985657" lon="15.050054273528694"><ele>147.0</ele><time>2026-04-04T11:14:57Z</time></trkpt><trkpt lat="36.907336957310264" lon="15.050089234185979"><ele>147.0</ele><time>2026-04-04T11:14:59Z</time></trkpt><trkpt lat="36.90743987339465" lon="15.050035527600077"><ele>146.79999999999998</ele><time>2026-04-04T11:15:01Z</time></trkpt><trkpt lat="36.907494609769124" lon="15.04994905587117"><ele>146.6</ele><time>2026-04-04T11:15:02Z</time></trkpt><trkpt lat="36.907551735313845" lon="15.049869922111371"><ele>146.39999999999998</ele><time>2026-04-04T11:15:03Z</time></trkpt><trkpt lat="36.907609609548636" lon="15.049785368917563"><ele>146.2</ele><time>2026-04-04T11:15:04Z</time></trkpt><trkpt lat="36.90767168155558" lon="15.049702530825892"><ele>146.0</ele><time>2026-04-04T11:15:05Z</time></trkpt><trkpt lat="36.907748775391866" lon="15.04959579616036"><ele>150.0</ele><time>2026-04-04T11:15:06Z</time></trkpt><trkpt lat="36.9078230833336" lon="15.049475688481625"><ele>154.0</ele><time>2026-04-04T11:15:07Z</time></trkpt><trkpt lat="36.907932392259944" lon="15.04935036436197"><ele>158.0</ele><time>2026-04-04T11:15:08Z</time></trkpt><trkpt lat="36.90804948421857" lon="15.049194526216127"><ele>162.0</ele><time>2026-04-04T11:15:09Z</time></trkpt><trkpt lat="36.90816812023978" lon="15.049045008445987"><ele>162.0</ele><time>2026-04-04T11:15:10Z</time></trkpt><trkpt lat="36.908272746281874" lon="15.048895999807975"><ele>162.0</ele><time>2026-04-04T11:15:11Z</time></trkpt><trkpt lat="36.90836215180805" lon="15.048730507270744"><ele>162.0</ele><time>2026-04-04T11:15:12Z</time></trkpt><trkpt lat="36.9084360822758" lon="15.048596788596846"><ele>162.0</ele><time>2026-04-04T11:15:13Z</time></trkpt><trkpt lat="36.90849424278672" lon="15.048500488461082"><ele>164.8</ele><time>2026-04-04T11:15:14Z</time></trkpt><trkpt lat="36.90856869079512" lon="15.048418223477256"><ele>167.6</ele><time>2026-04-04T11:15:15Z</time></trkpt><trkpt lat="36.90865696643114" lon="15.04836070695151"><ele>170.4</ele><time>2026-04-04T11:15:16Z</time></trkpt><trkpt lat="36.90875092477098" lon="15.048299933964284"><ele>173.20000000000002</ele><time>2026-04-04T11:15:17Z</time></trkpt><trkpt lat="36.90886186311293" lon="15.048242197649808"><ele>176.0</ele><time>2026-04-04T11:15:18Z</time></trkpt><trkpt lat="36.90896028661535" lon="15.048182420398119"><ele>176.0</ele><time>2026-04-04T11:15:19Z</time></trkpt><trkpt lat="36.90906638607811" lon="15.048110381716144"><ele>176.0</ele><time>2026-04-04T11:15:20Z</time></trkpt><trkpt lat="36.90916774977345" lon="15.048037464655525"><ele>176.0</ele><time>2026-04-04T11:15:21Z</time></trkpt><trkpt lat="36.90926679139437" lon="15.047972155332994"><ele>176.0</ele><time>2026-04-04T11:15:22Z</time></trkpt><trkpt lat="36.90937693431236" lon="15.04791606685594"><ele>180.0</ele><time>2026-04-04T11:15:23Z</time></trkpt><trkpt lat="36.90948982757805" lon="15.04787030317792"><ele>184.0</ele><time>2026-04-04T11:15:24Z</time></trkpt><trkpt lat="36.90960034719807" lon="15.047830501040648"><ele>188.0</ele><time>2026-04-04T11:15:25Z</time></trkpt><trkpt lat="36.909707793689854" lon="15.04779756598316"><ele>192.0</ele><time>2026-04-04T11:15:26Z</time></trkpt><trkpt lat="36.909819771287516" lon="15.047789150882869"><ele>192.0</ele><time>2026-04-04T11:15:27Z</time></trkpt><trkpt lat="36.90993739081177" lon="15.047815956197832"><ele>192.0</ele><time>2026-04-04T11:15:28Z</time></trkpt><trkpt lat="36.91004761037014" lon="15.047822524768822"><ele>192.0</ele><time>2026-04-04T11:15:29Z</time></trkpt><trkpt lat="36.91016294948401" lon="15.04779603964855"><ele>192.0</ele><time>2026-04-04T11:15:30Z</time></trkpt><trkpt lat="36.91028381701473" lon="15.047765884059944"><ele>194.75</ele><time>2026-04-04T11:15:31Z</time></trkpt><trkpt lat="36.91041027299174" lon="15.047753743312226"><ele>197.5</ele><time>2026-04-04T11:15:32Z</time></trkpt><trkpt lat="36.910544212756776" lon="15.047722874995909"><ele>200.25</ele><time>2026-04-04T11:15:33Z</time></trkpt><trkpt lat="36.91065307999623" lon="15.04770637636724"><ele>203.0</ele><time>2026-04-04T11:15:34Z</time></trkpt><trkpt lat="36.91076191891728" lon="15.04770774591677"><ele>203.0</ele><time>2026-04-04T11:15:35Z</time></trkpt><trkpt lat="36.91089038861348" lon="15.04774087927563"><ele>203.0</ele><time>2026-04-04T11:15:36Z</time></trkpt><trkpt lat="36.91102962444303" lon="15.047793725084333"><ele>203.0</ele><time>2026-04-04T11:15:37Z</time></trkpt><trkpt lat="36.9111555648089" lon="15.047850708866683"><ele>203.0</ele><time>2026-04-04T11:15:38Z</time></trkpt><trkpt lat="36.91128261822652" lon="15.04793532044181"><ele>206.0</ele><time>2026-04-04T11:15:39Z</time></trkpt><trkpt lat="36.91139244485528" lon="15.048011871937696"><ele>209.0</ele><time>2026-04-04T11:15:40Z</time></trkpt><trkpt lat="36.9114872958307" lon="15.048056490496828"><ele>212.0</ele><time>2026-04-04T11:15:41Z</time></trkpt><trkpt lat="36.911597236610234" lon="15.048075990436564"><ele>215.0</ele><time>2026-04-04T11:15:42Z</time></trkpt><trkpt lat="36.91170963668259" lon="15.048083233841217"><ele>220.2</ele><time>2026-04-04T11:15:43Z</time></trkpt><trkpt lat="36.91181906921834" lon="15.048073117569531"><ele>225.4</ele><time>2026-04-04T11:15:44Z</time></trkpt><trkpt lat="36.911905568110335" lon="15.048041671704175"><ele>230.60000000000002</ele><time>2026-04-04T11:15:45Z</time></trkpt><trkpt lat="36.91198863222947" lon="15.047977489308016"><ele>235.8</ele><time>2026-04-04T11:15:46Z</time></trkpt><trkpt lat="36.91207700303713" lon="15.04790236078319"><ele>241.0</ele><time>2026-04-04T11:15:47Z</time></trkpt><trkpt lat="36.91216146403987" lon="15.047845240137631"><ele>240.99999999999997</ele><time>2026-04-04T11:15:48Z</time></trkpt><trkpt lat="36.91222606175236" lon="15.047795735045765"><ele>241.0</ele><time>2026-04-04T11:15:49Z</time></trkpt><trkpt lat="36.912268379781224" lon="15.04771765719238"><ele>241.0</ele><time>2026-04-04T11:15:50Z</time></trkpt><trkpt lat="36.91229206310888" lon="15.047634286979694"><ele>241.0</ele><time>2026-04-04T11:15:51Z</time></trkpt><trkpt lat="36.91229897628181" lon="15.047531649186487"><ele>240.99999999999997</ele><time>2026-04-04T11:15:52Z</time></trkpt><trkpt lat="36.91228887802392" lon="15.047414294184673"><ele>241.0</ele><time>2026-04-04T11:15:53Z</time></trkpt><trkpt lat="36.9122709768208" lon="15.047287006807181"><ele>239.0</ele><time>2026-04-04T11:15:54Z</time></trkpt><trkpt lat="36.912262079367245" lon="15.047157788538858"><ele>237.00000000000003</ele><time>2026-04-04T11:15:55Z</time></trkpt><trkpt lat="36.91227402824729" lon="15.047061356333504"><ele>235.00000000000003</ele><time>2026-04-04T11:15:56Z</time></trkpt><trkpt lat="36.91231468843647" lon="15.046987553567654"><ele>233.0</ele><time>2026-04-04T11:15:57Z</time></trkpt><trkpt lat="36.91237467992633" lon="15.046908462587435"><ele>231.0</ele><time>2026-04-04T11:15:58Z</time></trkpt><trkpt lat="36.91246415789362" lon="15.046824092645688"><ele>231.0</ele><time>2026-04-04T11:15:59Z</time></trkpt><trkpt lat="36.91257065650762" lon="15.046738987222902"><ele>231.0</ele><time>2026-04-04T11:16:00Z</time></trkpt><trkpt lat="36.91266558982013" lon="15.046643182535352"><ele>231.0</ele><time>2026-04-04T11:16:01Z</time></trkpt><trkpt lat="36.91271102125263" lon="15.046528128143805"><ele>231.0</ele><time>2026-04-04T11:16:02Z</time></trkpt><trkpt lat="36.912721537612335" lon="15.046402537776094"><ele>237.8</ele><time>2026-04-04T11:16:03Z</time></trkpt><trkpt lat="36.91271482596501" lon="15.046277791736209"><ele>244.60000000000002</ele><time>2026-04-04T11:16:04Z</time></trkpt><trkpt lat="36.91271790646557" lon="15.046174858741482"><ele>251.4</ele><time>2026-04-04T11:16:05Z</time></trkpt><trkpt lat="36.912752087287885" lon="15.0461058719817"><ele>258.2</ele><time>2026-04-04T11:16:06Z</time></trkpt><trkpt lat="36.91285469367771" lon="15.046102475229521"><ele>265.0</ele><time>2026-04-04T11:16:08Z</time></trkpt><trkpt lat="36.912969792582764" lon="15.046141579916656"><ele>265.0</ele><time>2026-04-04T11:16:10Z</time></trkpt><trkpt lat="36.913043234540694" lon="15.046162827660403"><ele>265.0</ele><time>2026-04-04T11:16:11Z</time></trkpt><trkpt lat="36.9131404790571" lon="15.046194939803348"><ele>265.0</ele><time>2026-04-04T11:16:12Z</time></trkpt><trkpt lat="36.91325326186877" lon="15.046236817539748"><ele>265.0</ele><time>2026-04-04T11:16:13Z</time></trkpt><trkpt lat="36.9133778005852" lon="15.04626191164286"><ele>265.0</ele><time>2026-04-04T11:16:14Z</time></trkpt><trkpt lat="36.91351323848026" lon="15.046294444393281"><ele>264.0</ele><time>2026-04-04T11:16:15Z</time></trkpt><trkpt lat="36.91365703520028" lon="15.046333194837704"><ele>263.0</ele><time>2026-04-04T11:16:16Z</time></trkpt><trkpt lat="36.91381457249267" lon="15.046371906050878"><ele>262.0</ele><time>2026-04-04T11:16:17Z</time></trkpt><trkpt lat="36.913967958387474" lon="15.04644583667728"><ele>262.0</ele><time>2026-04-04T11:16:18Z</time></trkpt><trkpt lat="36.9141223466408" lon="15.046520540258918"><ele>262.0</ele><time>2026-04-04T11:16:19Z</time></trkpt><trkpt lat="36.914275163741344" lon="15.046582407224493"><ele>262.0</ele><time>2026-04-04T11:16:20Z</time></trkpt><trkpt lat="36.914409735683144" lon="15.04662546463816"><ele>265.25</ele><time>2026-04-04T11:16:21Z</time></trkpt><trkpt lat="36.91456114292436" lon="15.046663385832703"><ele>268.5</ele><time>2026-04-04T11:16:22Z</time></trkpt><trkpt lat="36.91469172769772" lon="15.04671356745751"><ele>271.75</ele><time>2026-04-04T11:16:23Z</time></trkpt><trkpt lat="36.91481752198861" lon="15.046766626123073"><ele>275.0</ele><time>2026-04-04T11:16:24Z</time></trkpt><trkpt lat="36.91492735467665" lon="15.046810994845146"><ele>275.0</ele><time>2026-04-04T11:16:25Z</time></trkpt><trkpt lat="36.915035126235615" lon="15.04685055016633"><ele>275.0</ele><time>2026-04-04T11:16:26Z</time></trkpt><trkpt lat="36.91514564149135" lon="15.046895563116534"><ele>275.0</ele><time>2026-04-04T11:16:27Z</time></trkpt><trkpt lat="36.91525501552294" lon="15.046936704580459"><ele>275.0</ele><time>2026-04-04T11:16:28Z</time></trkpt><trkpt lat="36.915363480790816" lon="15.046975691170994"><ele>276.25</ele><time>2026-04-04T11:16:29Z</time></trkpt><trkpt lat="36.91547852940097" lon="15.047025599360813"><ele>277.5</ele><time>2026-04-04T11:16:30Z</time></trkpt><trkpt lat="36.91559442580933" lon="15.047082258727313"><ele>278.75</ele><time>2026-04-04T11:16:31Z</time></trkpt><trkpt lat="36.91571442165841" lon="15.04712005261335"><ele>280.0</ele><time>2026-04-04T11:16:32Z</time></trkpt><trkpt lat="36.915830801570806" lon="15.047167438697713"><ele>276.0</ele><time>2026-04-04T11:16:33Z</time></trkpt><trkpt lat="36.91593785846804" lon="15.047226033553596"><ele>272.0</ele><time>2026-04-04T11:16:34Z</time></trkpt><trkpt lat="36.91604813062836" lon="15.047288370558032"><ele>268.0</ele><time>2026-04-04T11:16:35Z</time></trkpt><trkpt lat="36.91615500882611" lon="15.047344671228403"><ele>264.0</ele><time>2026-04-04T11:16:36Z</time></trkpt><trkpt lat="36.9162544781207" lon="15.047376984745922"><ele>264.0</ele><time>2026-04-04T11:16:37Z</time></trkpt><trkpt lat="36.91635243750983" lon="15.047388553007703"><ele>264.0</ele><time>2026-04-04T11:16:38Z</time></trkpt><trkpt lat="36.91645261107791" lon="15.04739765158372"><ele>264.0</ele><time>2026-04-04T11:16:39Z</time></trkpt><trkpt lat="36.91655598726417" lon="15.047423768202243"><ele>264.0</ele><time>2026-04-04T11:16:40Z</time></trkpt><trkpt lat="36.91667664584009" lon="15.047463819302921"><ele>264.0</ele><time>2026-04-04T11:16:41Z</time></trkpt><trkpt lat="36.91679646085168" lon="15.04750434964678"><ele>265.75</ele><time>2026-04-04T11:16:42Z</time></trkpt><trkpt lat="36.91691751851043" lon="15.04755336636579"><ele>267.5</ele><time>2026-04-04T11:16:43Z</time></trkpt><trkpt lat="36.917041918222" lon="15.047604712671923"><ele>269.25</ele><time>2026-04-04T11:16:44Z</time></trkpt><trkpt lat="36.91715499769941" lon="15.04767687622471"><ele>271.0</ele><time>2026-04-04T11:16:45Z</time></trkpt><trkpt lat="36.91726750142609" lon="15.047762174711744"><ele>271.0</ele><time>2026-04-04T11:16:46Z</time></trkpt><trkpt lat="36.917382250970746" lon="15.04786263480159"><ele>271.0</ele><time>2026-04-04T11:16:47Z</time></trkpt><trkpt lat="36.91749495037697" lon="15.047968120610031"><ele>271.0</ele><time>2026-04-04T11:16:48Z</time></trkpt><trkpt lat="36.91759525095441" lon="15.0480747859601"><ele>271.0</ele><time>2026-04-04T11:16:49Z</time></trkpt><trkpt lat="36.917688735591156" lon="15.048199162415262"><ele>273.0</ele><time>2026-04-04T11:16:50Z</time></trkpt><trkpt lat="36.91778408788463" lon="15.048306042281597"><ele>275.0</ele><time>2026-04-04T11:16:51Z</time></trkpt><trkpt lat="36.91789946680461" lon="15.048384775469607"><ele>277.0</ele><time>2026-04-04T11:16:52Z</time></trkpt><trkpt lat="36.91803320904673" lon="15.048444681287428"><ele>279.0</ele><time>2026-04-04T11:16:53Z</time></trkpt><trkpt lat="36.91817972827236" lon="15.048509378942134"><ele>279.0</ele><time>2026-04-04T11:16:54Z</time></trkpt><trkpt lat="36.91833627323385" lon="15.048569278567326"><ele>279.0</ele><time>2026-04-04T11:16:55Z</time></trkpt><trkpt lat="36.91848035113197" lon="15.048620972748251"><ele>279.0</ele><time>2026-04-04T11:16:56Z</time></trkpt><trkpt lat="36.918604168756715" lon="15.048679543047193"><ele>279.0</ele><time>2026-04-04T11:16:57Z</time></trkpt><trkpt lat="36.91871316181" lon="15.048736042486219"><ele>279.0</ele><time>2026-04-04T11:16:58Z</time></trkpt><trkpt lat="36.918839670328815" lon="15.048798409855793"><ele>279.0</ele><time>2026-04-04T11:16:59Z</time></trkpt><trkpt lat="36.91898943800604" lon="15.048816455645795"><ele>279.0</ele><time>2026-04-04T11:17:00Z</time></trkpt><trkpt lat="36.91911620866698" lon="15.04886092959043"><ele>279.0</ele><time>2026-04-04T11:17:01Z</time></trkpt><trkpt lat="36.91925976831231" lon="15.048907323401131"><ele>278.25</ele><time>2026-04-04T11:17:02Z</time></trkpt><trkpt lat="36.919389765187056" lon="15.04893216344999"><ele>277.5</ele><time>2026-04-04T11:17:03Z</time></trkpt><trkpt lat="36.91952127473114" lon="15.04895592982465"><ele>276.75</ele><time>2026-04-04T11:17:04Z</time></trkpt><trkpt lat="36.91965041202379" lon="15.048975406052394"><ele>276.0</ele><time>2026-04-04T11:17:05Z</time></trkpt><trkpt lat="36.919773838940316" lon="15.04901334096718"><ele>276.0</ele><time>2026-04-04T11:17:06Z</time></trkpt><trkpt lat="36.91987912221649" lon="15.04907372415595"><ele>276.0</ele><time>2026-04-04T11:17:07Z</time></trkpt><trkpt lat="36.91996861565682" lon="15.049131818329654"><ele>276.0</ele><time>2026-04-04T11:17:08Z</time></trkpt><trkpt lat="36.920030534704296" lon="15.04917560999899"><ele>276.0</ele><time>2026-04-04T11:17:09Z</time></trkpt><trkpt lat="36.92006929416028" lon="15.0492406807409"><ele>276.0</ele><time>2026-04-04T11:17:10Z</time></trkpt><trkpt lat="36.92007787504763" lon="15.049332474121655"><ele>276.0</ele><time>2026-04-04T11:17:11Z</time></trkpt><trkpt lat="36.920176404336274" lon="15.049439472558278"><ele>278.8</ele><time>2026-04-04T11:17:13Z</time></trkpt><trkpt lat="36.920267762001956" lon="15.049472461600116"><ele>281.6</ele><time>2026-04-04T11:17:14Z</time></trkpt><trkpt lat="36.92036401587722" lon="15.049509866975983"><ele>284.4</ele><time>2026-04-04T11:17:15Z</time></trkpt><trkpt lat="36.920466442226704" lon="15.049565116940876"><ele>287.2</ele><time>2026-04-04T11:17:16Z</time></trkpt><trkpt lat="36.92057599552374" lon="15.049596571437293"><ele>290.0</ele><time>2026-04-04T11:17:17Z</time></trkpt><trkpt lat="36.92069222871217" lon="15.049610994346402"><ele>290.0</ele><time>2026-04-04T11:17:18Z</time></trkpt><trkpt lat="36.920801517653864" lon="15.049603451345837"><ele>290.0</ele><time>2026-04-04T11:17:19Z</time></trkpt><trkpt lat="36.920909785483836" lon="15.049596663204811"><ele>290.0</ele><time>2026-04-04T11:17:20Z</time></trkpt><trkpt lat="36.92100768146805" lon="15.04960342937336"><ele>290.0</ele><time>2026-04-04T11:17:21Z</time></trkpt><trkpt lat="36.9210957129612" lon="15.049624189507169"><ele>290.0</ele><time>2026-04-04T11:17:22Z</time></trkpt><trkpt lat="36.92118891827935" lon="15.04965721232666"><ele>289.8</ele><time>2026-04-04T11:17:23Z</time></trkpt><trkpt lat="36.92128957649311" lon="15.049686563377449"><ele>289.6</ele><time>2026-04-04T11:17:24Z</time></trkpt><trkpt lat="36.92139837153164" lon="15.049723737884731"><ele>289.4</ele><time>2026-04-04T11:17:25Z</time></trkpt><trkpt lat="36.92150964999647" lon="15.04975356836208"><ele>289.2</ele><time>2026-04-04T11:17:26Z</time></trkpt><trkpt lat="36.92162089128448" lon="15.049782367237704"><ele>289.0</ele><time>2026-04-04T11:17:27Z</time></trkpt><trkpt lat="36.92173582943675" lon="15.049821191813022"><ele>289.59999999999997</ele><time>2026-04-04T11:17:28Z</time></trkpt><trkpt lat="36.92185051533387" lon="15.049866276936307"><ele>290.2</ele><time>2026-04-04T11:17:29Z</time></trkpt><trkpt lat="36.92196001910051" lon="15.049913924855318"><ele>290.79999999999995</ele><time>2026-04-04T11:17:30Z</time></trkpt><trkpt lat="36.922043226385185" lon="15.049928637040441"><ele>291.4</ele><time>2026-04-04T11:17:31Z</time></trkpt><trkpt lat="36.92213515749222" lon="15.049942468114539"><ele>292.0</ele><time>2026-04-04T11:17:32Z</time></trkpt><trkpt lat="36.92223788094878" lon="15.049932194735879"><ele>292.0</ele><time>2026-04-04T11:17:33Z</time></trkpt><trkpt lat="36.92235724624688" lon="15.049953650570162"><ele>292.0</ele><time>2026-04-04T11:17:34Z</time></trkpt><trkpt lat="36.922464684985044" lon="15.049985028556804"><ele>292.0</ele><time>2026-04-04T11:17:35Z</time></trkpt><trkpt lat="36.92257985952511" lon="15.050000859615285"><ele>292.0</ele><time>2026-04-04T11:17:36Z</time></trkpt><trkpt lat="36.92270456674298" lon="15.049975838575444"><ele>293.25</ele><time>2026-04-04T11:17:37Z</time></trkpt><trkpt lat="36.92284451270538" lon="15.049964858541848"><ele>294.5</ele><time>2026-04-04T11:17:38Z</time></trkpt><trkpt lat="36.92295359242925" lon="15.049952969337376"><ele>295.75</ele><time>2026-04-04T11:17:39Z</time></trkpt><trkpt lat="36.92307071118685" lon="15.049934483615475"><ele>297.0</ele><time>2026-04-04T11:17:40Z</time></trkpt><trkpt lat="36.92318117714325" lon="15.049945944608988"><ele>297.0</ele><time>2026-04-04T11:17:41Z</time></trkpt><trkpt lat="36.92324987975931" lon="15.049929094363357"><ele>297.0</ele><time>2026-04-04T11:17:42Z</time></trkpt><trkpt lat="36.923322472408586" lon="15.049865608347858"><ele>297.0</ele><time>2026-04-04T11:17:43Z</time></trkpt><trkpt lat="36.923396826094105" lon="15.0497862517376"><ele>297.0</ele><time>2026-04-04T11:17:44Z</time></trkpt><trkpt lat="36.9234564558643" lon="15.049705049870424"><ele>297.0</ele><time>2026-04-04T11:17:45Z</time></trkpt><trkpt lat="36.9235077878607" lon="15.049603207514858"><ele>297.0</ele><time>2026-04-04T11:17:46Z</time></trkpt><trkpt lat="36.92355500748571" lon="15.04948857743902"><ele>295.8</ele><time>2026-04-04T11:17:47Z</time></trkpt><trkpt lat="36.92360734119491" lon="15.049375101680706"><ele>294.6</ele><time>2026-04-04T11:17:48Z</time></trkpt><trkpt lat="36.92366603974376" lon="15.049252193041744"><ele>293.40000000000003</ele><time>2026-04-04T11:17:49Z</time></trkpt><trkpt lat="36.92372774467138" lon="15.049164456961911"><ele>292.2</ele><time>2026-04-04T11:17:50Z</time></trkpt><trkpt lat="36.9237883128893" lon="15.049093391640016"><ele>291.0</ele><time>2026-04-04T11:17:51Z</time></trkpt><trkpt lat="36.92386259140514" lon="15.048997118894516"><ele>290.5</ele><time>2026-04-04T11:17:52Z</time></trkpt><trkpt lat="36.92391910496862" lon="15.04892295247605"><ele>290.0</ele><time>2026-04-04T11:17:53Z</time></trkpt><trkpt lat="36.92398208261503" lon="15.048869848839171"><ele>289.5</ele><time>2026-04-04T11:17:54Z</time></trkpt><trkpt lat="36.92405786644075" lon="15.048840741744582"><ele>289.0</ele><time>2026-04-04T11:17:55Z</time></trkpt><trkpt lat="36.92412626672174" lon="15.048823090187966"><ele>288.5</ele><time>2026-04-04T11:17:56Z</time></trkpt><trkpt lat="36.924202732263275" lon="15.048829921059056"><ele>288.0</ele><time>2026-04-04T11:17:57Z</time></trkpt><trkpt lat="36.92431579657471" lon="15.048807945354943"><ele>288.0</ele><time>2026-04-04T11:17:59Z</time></trkpt><trkpt lat="36.92442562865234" lon="15.048779722846618"><ele>288.0</ele><time>2026-04-04T11:18:00Z</time></trkpt><trkpt lat="36.92453878445606" lon="15.048744716136078"><ele>288.0</ele><time>2026-04-04T11:18:01Z</time></trkpt><trkpt lat="36.924631853271535" lon="15.04872537385569"><ele>288.0</ele><time>2026-04-04T11:18:02Z</time></trkpt><trkpt lat="36.924710947509446" lon="15.048705546692169"><ele>288.0</ele><time>2026-04-04T11:18:03Z</time></trkpt><trkpt lat="36.924792910913375" lon="15.048698315259017"><ele>288.0</ele><time>2026-04-04T11:18:04Z</time></trkpt><trkpt lat="36.92486783280307" lon="15.04869622701606"><ele>288.0</ele><time>2026-04-04T11:18:05Z</time></trkpt><trkpt lat="36.92494065613251" lon="15.04868903356044"><ele>288.0</ele><time>2026-04-04T11:18:06Z</time></trkpt><trkpt lat="36.92501763072725" lon="15.048683594354147"><ele>288.0</ele><time>2026-04-04T11:18:07Z</time></trkpt><trkpt lat="36.92510013411624" lon="15.048695838736249"><ele>288.0</ele><time>2026-04-04T11:18:08Z</time></trkpt><trkpt lat="36.925208952154094" lon="15.048760755734591"><ele>288.0</ele><time>2026-04-04T11:18:09Z</time></trkpt><trkpt lat="36.92533424176991" lon="15.048805752101583"><ele>290.0</ele><time>2026-04-04T11:18:10Z</time></trkpt><trkpt lat="36.92546871866651" lon="15.04878411265747"><ele>292.0</ele><time>2026-04-04T11:18:11Z</time></trkpt><trkpt lat="36.925630599301776" lon="15.048704322205676"><ele>294.0</ele><time>2026-04-04T11:18:12Z</time></trkpt><trkpt lat="36.92580540234519" lon="15.04861105768198"><ele>296.0</ele><time>2026-04-04T11:18:13Z</time></trkpt><trkpt lat="36.925950167125976" lon="15.04853887360208"><ele>298.0</ele><time>2026-04-04T11:18:14Z</time></trkpt><trkpt lat="36.92607482320951" lon="15.048474799727622"><ele>300.0</ele><time>2026-04-04T11:18:15Z</time></trkpt><trkpt lat="36.92617583069355" lon="15.048435443765708"><ele>302.0</ele><time>2026-04-04T11:18:16Z</time></trkpt><trkpt lat="36.926273910071956" lon="15.048397927544325"><ele>302.0</ele><time>2026-04-04T11:18:17Z</time></trkpt><trkpt lat="36.926352975794465" lon="15.048355978567228"><ele>302.0</ele><time>2026-04-04T11:18:18Z</time></trkpt><trkpt lat="36.92644037107715" lon="15.048314834827389"><ele>302.0</ele><time>2026-04-04T11:18:19Z</time></trkpt><trkpt lat="36.92651861482692" lon="15.048252920532493"><ele>302.0</ele><time>2026-04-04T11:18:20Z</time></trkpt><trkpt lat="36.926599060197184" lon="15.04818737807541"><ele>302.0</ele><time>2026-04-04T11:18:21Z</time></trkpt><trkpt lat="36.92668511714038" lon="15.048122575568474"><ele>300.8</ele><time>2026-04-04T11:18:22Z</time></trkpt><trkpt lat="36.92677118999012" lon="15.048050739186904"><ele>299.6</ele><time>2026-04-04T11:18:23Z</time></trkpt><trkpt lat="36.92685704425003" lon="15.04797440088164"><ele>298.40000000000003</ele><time>2026-04-04T11:18:24Z</time></trkpt><trkpt lat="36.92694968105408" lon="15.047899486579666"><ele>297.2</ele><time>2026-04-04T11:18:25Z</time></trkpt><trkpt lat="36.92703185109271" lon="15.047822774067445"><ele>296.0</ele><time>2026-04-04T11:18:26Z</time></trkpt><trkpt lat="36.927104693421164" lon="15.047745564092967"><ele>296.0</ele><time>2026-04-04T11:18:27Z</time></trkpt><trkpt lat="36.92718225910478" lon="15.047684289468505"><ele>296.0</ele><time>2026-04-04T11:18:28Z</time></trkpt><trkpt lat="36.927252935952566" lon="15.047615535989058"><ele>296.0</ele><time>2026-04-04T11:18:29Z</time></trkpt><trkpt lat="36.92732806325243" lon="15.04753486965857"><ele>296.0</ele><time>2026-04-04T11:18:30Z</time></trkpt><trkpt lat="36.92739282527179" lon="15.047477473912283"><ele>296.0</ele><time>2026-04-04T11:18:31Z</time></trkpt><trkpt lat="36.927472902331786" lon="15.047437862315228"><ele>296.0</ele><time>2026-04-04T11:18:32Z</time></trkpt><trkpt lat="36.927548974659736" lon="15.047418871701883"><ele>296.1666666666667</ele><time>2026-04-04T11:18:33Z</time></trkpt><trkpt lat="36.927634447118514" lon="15.047398939104347"><ele>296.33333333333337</ele><time>2026-04-04T11:18:34Z</time></trkpt><trkpt lat="36.927709444591144" lon="15.047381508673734"><ele>296.5</ele><time>2026-04-04T11:18:35Z</time></trkpt><trkpt lat="36.927777804578994" lon="15.047390178375045"><ele>296.6666666666667</ele><time>2026-04-04T11:18:37Z</time></trkpt><trkpt lat="36.927862502812616" lon="15.047419195140543"><ele>296.8333333333333</ele><time>2026-04-04T11:18:39Z</time></trkpt><trkpt lat="36.92796746412356" lon="15.047467697111884"><ele>297.0</ele><time>2026-04-04T11:18:41Z</time></trkpt><trkpt lat="36.92809601971949" lon="15.04749931389815"><ele>297.0</ele><time>2026-04-04T11:18:43Z</time></trkpt><trkpt lat="36.92818887159973" lon="15.047515894877725"><ele>297.0</ele><time>2026-04-04T11:18:45Z</time></trkpt><trkpt lat="36.92827455380003" lon="15.047502038779374"><ele>297.0</ele><time>2026-04-04T11:18:47Z</time></trkpt><trkpt lat="36.928402792469946" lon="15.047475851850354"><ele>297.0</ele><time>2026-04-04T11:18:49Z</time></trkpt><trkpt lat="36.928478734299816" lon="15.047463332760774"><ele>297.0</ele><time>2026-04-04T11:18:50Z</time></trkpt><trkpt lat="36.92857342383212" lon="15.047463904312561"><ele>297.4</ele><time>2026-04-04T11:18:52Z</time></trkpt><trkpt lat="36.92863937827695" lon="15.047488188540393"><ele>297.79999999999995</ele><time>2026-04-04T11:18:54Z</time></trkpt><trkpt lat="36.92869754232146" lon="15.047520759337576"><ele>298.2</ele><time>2026-04-04T11:18:57Z</time></trkpt><trkpt lat="36.92878072475998" lon="15.04759247532533"><ele>298.59999999999997</ele><time>2026-04-04T11:18:59Z</time></trkpt><trkpt lat="36.92889285348761" lon="15.047633772330643"><ele>299.0</ele><time>2026-04-04T11:19:01Z</time></trkpt><trkpt lat="36.92900092174151" lon="15.047683743160132"><ele>299.0</ele><time>2026-04-04T11:19:03Z</time></trkpt><trkpt lat="36.929070236768716" lon="15.04771888064521"><ele>299.0</ele><time>2026-04-04T11:19:04Z</time></trkpt><trkpt lat="36.92914596625961" lon="15.047754485248994"><ele>299.0</ele><time>2026-04-04T11:19:05Z</time></trkpt><trkpt lat="36.929214497888005" lon="15.047777718161907"><ele>299.0</ele><time>2026-04-04T11:19:06Z</time></trkpt><trkpt lat="36.92928007215094" lon="15.047794810797203"><ele>299.0</ele><time>2026-04-04T11:19:07Z</time></trkpt><trkpt lat="36.929350737821785" lon="15.04781120898221"><ele>299.0</ele><time>2026-04-04T11:19:08Z</time></trkpt><trkpt lat="36.929472574296035" lon="15.047854867671862"><ele>300.33333333333337</ele><time>2026-04-04T11:19:10Z</time></trkpt><trkpt lat="36.92953838557187" lon="15.047859706179485"><ele>301.6666666666667</ele><time>2026-04-04T11:19:11Z</time></trkpt><trkpt lat="36.92960120621378" lon="15.047882476300899"><ele>303.0</ele><time>2026-04-04T11:19:12Z</time></trkpt><trkpt lat="36.92972960582068" lon="15.047922982140488"><ele>304.3333333333333</ele><time>2026-04-04T11:19:14Z</time></trkpt><trkpt lat="36.92980422410892" lon="15.047968483704585"><ele>305.66666666666663</ele><time>2026-04-04T11:19:15Z</time></trkpt><trkpt lat="36.929876664898885" lon="15.047971365396098"><ele>307.0</ele><time>2026-04-04T11:19:16Z</time></trkpt><trkpt lat="36.9299717596697" lon="15.048023323091758"><ele>306.75</ele><time>2026-04-04T11:19:18Z</time></trkpt><trkpt lat="36.93009863981481" lon="15.04802664392872"><ele>306.5</ele><time>2026-04-04T11:19:20Z</time></trkpt><trkpt lat="36.93020201242705" lon="15.04806464618077"><ele>306.25</ele><time>2026-04-04T11:19:22Z</time></trkpt><trkpt lat="36.930326126146326" lon="15.048020054039071"><ele>306.0</ele><time>2026-04-04T11:19:25Z</time></trkpt><trkpt lat="36.930426934799115" lon="15.048032617480974"><ele>306.0</ele><time>2026-04-04T11:19:27Z</time></trkpt><trkpt lat="36.930544406283474" lon="15.048056291588583"><ele>306.0</ele><time>2026-04-04T11:19:29Z</time></trkpt><trkpt lat="36.93060340334104" lon="15.047994170727048"><ele>306.0</ele><time>2026-04-04T11:19:30Z</time></trkpt><trkpt lat="36.93070245273628" lon="15.047925013623843"><ele>306.0</ele><time>2026-04-04T11:19:32Z</time></trkpt><trkpt lat="36.93078698367058" lon="15.047878944529886"><ele>306.0</ele><time>2026-04-04T11:19:34Z</time></trkpt><trkpt lat="36.93085172555954" lon="15.047841051207365"><ele>306.6666666666667</ele><time>2026-04-04T11:19:36Z</time></trkpt><trkpt lat="36.93090852778927" lon="15.047793471209653"><ele>307.3333333333333</ele><time>2026-04-04T11:19:38Z</time></trkpt><trkpt lat="36.930964922473834" lon="15.04764976877649"><ele>308.0</ele><time>2026-04-04T11:19:42Z</time></trkpt><trkpt lat="36.93102849791052" lon="15.047597228833544"><ele>308.66666666666663</ele><time>2026-04-04T11:19:44Z</time></trkpt><trkpt lat="36.93108033235861" lon="15.04754712976142"><ele>309.3333333333333</ele><time>2026-04-04T11:19:46Z</time></trkpt><trkpt lat="36.931135060865756" lon="15.047480759403593"><ele>310.0</ele><time>2026-04-04T11:19:48Z</time></trkpt><trkpt lat="36.93121432439162" lon="15.047409520900837"><ele>310.0</ele><time>2026-04-04T11:19:50Z</time></trkpt><trkpt lat="36.93130660279986" lon="15.04737277815742"><ele>310.0</ele><time>2026-04-04T11:19:52Z</time></trkpt><trkpt lat="36.93139612625036" lon="15.047366070142688"><ele>310.0</ele><time>2026-04-04T11:19:54Z</time></trkpt><trkpt lat="36.93150221202429" lon="15.047351153219815"><ele>310.0</ele><time>2026-04-04T11:19:57Z</time></trkpt><trkpt lat="36.931559344679506" lon="15.047313635210806"><ele>310.0</ele><time>2026-04-04T11:20:13Z</time></trkpt><trkpt lat="36.931625204619" lon="15.047302711712634"><ele>310.0</ele><time>2026-04-04T11:20:16Z</time></trkpt><trkpt lat="36.931696391081864" lon="15.047285947180368"><ele>310.8333333333333</ele><time>2026-04-04T11:20:40Z</time></trkpt><trkpt lat="36.931778100059255" lon="15.047264932932682"><ele>311.66666666666663</ele><time>2026-04-04T11:20:46Z</time></trkpt><trkpt lat="36.93184126344654" lon="15.047284692804185"><ele>312.5</ele><time>2026-04-04T11:20:48Z</time></trkpt><trkpt lat="36.931920687511905" lon="15.047285432235102"><ele>313.3333333333333</ele><time>2026-04-04T11:20:50Z</time></trkpt><trkpt lat="36.9320276943904" lon="15.047285220852403"><ele>314.1666666666667</ele><time>2026-04-04T11:20:53Z</time></trkpt><trkpt lat="36.93213128943835" lon="15.047283948254844"><ele>315.0</ele><time>2026-04-04T11:20:56Z</time></trkpt><trkpt lat="36.932204187466525" lon="15.047278192086008"><ele>315.0</ele><time>2026-04-04T11:21:00Z</time></trkpt><trkpt lat="36.93227225822906" lon="15.047270426100765"><ele>315.0</ele><time>2026-04-04T11:21:02Z</time></trkpt><trkpt lat="36.932362215663524" lon="15.047256079505692"><ele>315.0</ele><time>2026-04-04T11:21:05Z</time></trkpt><trkpt lat="36.932427054198655" lon="15.047211027305885"><ele>315.0</ele><time>2026-04-04T11:21:07Z</time></trkpt><trkpt lat="36.932499559479055" lon="15.047227396401837"><ele>315.0</ele><time>2026-04-04T11:21:09Z</time></trkpt><trkpt lat="36.932576356853836" lon="15.047214000101826"><ele>315.0</ele><time>2026-04-04T11:21:12Z</time></trkpt><trkpt lat="36.932638262709176" lon="15.047185760753885"><ele>315.8333333333333</ele><time>2026-04-04T11:21:14Z</time></trkpt><trkpt lat="36.9327244218768" lon="15.0472002424527"><ele>316.6666666666667</ele><time>2026-04-04T11:21:16Z</time></trkpt><trkpt lat="36.93280356776634" lon="15.047234027767528"><ele>317.5</ele><time>2026-04-04T11:21:18Z</time></trkpt><trkpt lat="36.9328725709243" lon="15.047265726031252"><ele>318.33333333333337</ele><time>2026-04-04T11:21:20Z</time></trkpt><trkpt lat="36.93295750770492" lon="15.047296001195075"><ele>319.1666666666667</ele><time>2026-04-04T11:21:22Z</time></trkpt><trkpt lat="36.93299332269976" lon="15.047379036115935"><ele>320.0</ele><time>2026-04-04T11:21:25Z</time></trkpt><trkpt lat="36.93304364699479" lon="15.047429955573099"><ele>320.83333333333337</ele><time>2026-04-04T11:21:27Z</time></trkpt><trkpt lat="36.93310707267489" lon="15.04748943171483"><ele>321.6666666666667</ele><time>2026-04-04T11:21:29Z</time></trkpt><trkpt lat="36.933151162730695" lon="15.047550775874964"><ele>322.5</ele><time>2026-04-04T11:21:31Z</time></trkpt><trkpt lat="36.93320648885524" lon="15.047594974551526"><ele>323.3333333333333</ele><time>2026-04-04T11:21:33Z</time></trkpt><trkpt lat="36.93325062957545" lon="15.047682474328441"><ele>324.16666666666663</ele><time>2026-04-04T11:21:37Z</time></trkpt><trkpt lat="36.9332999457005" lon="15.047758137031986"><ele>325.0</ele><time>2026-04-04T11:21:39Z</time></trkpt><trkpt lat="36.933393270794255" lon="15.047812836435691"><ele>325.0</ele><time>2026-04-04T11:21:41Z</time></trkpt><trkpt lat="36.93348928893775" lon="15.047873476344886"><ele>325.0</ele><time>2026-04-04T11:21:43Z</time></trkpt><trkpt lat="36.93356752863939" lon="15.047932777042236"><ele>325.0</ele><time>2026-04-04T11:21:45Z</time></trkpt><trkpt lat="36.933660091897366" lon="15.04801228924232"><ele>325.0</ele><time>2026-04-04T11:21:47Z</time></trkpt><trkpt lat="36.93372452042062" lon="15.048059671243688"><ele>325.0</ele><time>2026-04-04T11:21:49Z</time></trkpt><trkpt lat="36.933798017090446" lon="15.048109367238338"><ele>325.0</ele><time>2026-04-04T11:21:51Z</time></trkpt><trkpt lat="36.93386835829698" lon="15.048133953429659"><ele>325.0</ele><time>2026-04-04T11:23:04Z</time></trkpt><trkpt lat="36.93394586566493" lon="15.048164394415087"><ele>325.0</ele><time>2026-04-04T11:23:06Z</time></trkpt><trkpt lat="36.93405106926676" lon="15.048188019620422"><ele>325.0</ele><time>2026-04-04T11:23:08Z</time></trkpt><trkpt lat="36.934119049344396" lon="15.04819301537429"><ele>325.0</ele><time>2026-04-04T11:23:09Z</time></trkpt><trkpt lat="36.934207410000084" lon="15.048190178676796"><ele>325.0</ele><time>2026-04-04T11:23:10Z</time></trkpt><trkpt lat="36.9343056379773" lon="15.048191433730171"><ele>325.25</ele><time>2026-04-04T11:23:11Z</time></trkpt><trkpt lat="36.934421063430584" lon="15.048189918324713"><ele>325.5</ele><time>2026-04-04T11:23:12Z</time></trkpt><trkpt lat="36.9345367741823" lon="15.048210088210837"><ele>325.75</ele><time>2026-04-04T11:23:13Z</time></trkpt><trkpt lat="36.93465862460104" lon="15.048224358378384"><ele>326.0</ele><time>2026-04-04T11:23:14Z</time></trkpt><trkpt lat="36.93478151631898" lon="15.048236690412208"><ele>326.0</ele><time>2026-04-04T11:23:15Z</time></trkpt><trkpt lat="36.93490283374415" lon="15.048251524020328"><ele>326.0</ele><time>2026-04-04T11:23:16Z</time></trkpt><trkpt lat="36.935025745655835" lon="15.048284309394921"><ele>326.0</ele><time>2026-04-04T11:23:17Z</time></trkpt><trkpt lat="36.935150464773955" lon="15.048332432245422"><ele>326.0</ele><time>2026-04-04T11:23:18Z</time></trkpt><trkpt lat="36.93526288199716" lon="15.048393029108547"><ele>326.5</ele><time>2026-04-04T11:23:19Z</time></trkpt><trkpt lat="36.93536421879613" lon="15.048469113659998"><ele>327.0</ele><time>2026-04-04T11:23:20Z</time></trkpt><trkpt lat="36.93545310296998" lon="15.048561910586892"><ele>327.5</ele><time>2026-04-04T11:23:21Z</time></trkpt><trkpt lat="36.935550355879684" lon="15.04863244905375"><ele>328.0</ele><time>2026-04-04T11:23:22Z</time></trkpt><trkpt lat="36.935668870772616" lon="15.048682532381113"><ele>328.0</ele><time>2026-04-04T11:23:23Z</time></trkpt><trkpt lat="36.93577701930512" lon="15.048708511413892"><ele>328.0</ele><time>2026-04-04T11:23:24Z</time></trkpt><trkpt lat="36.93585363236235" lon="15.0487129409227"><ele>328.0</ele><time>2026-04-04T11:23:25Z</time></trkpt><trkpt lat="36.9359511789461" lon="15.04872209208132"><ele>328.0</ele><time>2026-04-04T11:23:27Z</time></trkpt><trkpt lat="36.93602895714097" lon="15.048644213544852"><ele>328.0</ele><time>2026-04-04T11:23:29Z</time></trkpt><trkpt lat="36.93606550724701" lon="15.048564414549974"><ele>328.0</ele><time>2026-04-04T11:23:30Z</time></trkpt><trkpt lat="36.936092363289006" lon="15.04847471251776"><ele>328.0</ele><time>2026-04-04T11:23:31Z</time></trkpt><trkpt lat="36.93613264357806" lon="15.048400033475117"><ele>328.0</ele><time>2026-04-04T11:23:32Z</time></trkpt><trkpt lat="36.936171734769175" lon="15.048331089352493"><ele>328.0</ele><time>2026-04-04T11:23:33Z</time></trkpt><trkpt lat="36.936212790642756" lon="15.048257770132752"><ele>328.0</ele><time>2026-04-04T11:23:34Z</time></trkpt><trkpt lat="36.93627383914851" lon="15.048133417991462"><ele>328.0</ele><time>2026-04-04T11:23:36Z</time></trkpt><trkpt lat="36.93632650149097" lon="15.048006771490838"><ele>328.0</ele><time>2026-04-04T11:23:38Z</time></trkpt><trkpt lat="36.93639682558165" lon="15.047901510649725"><ele>328.0</ele><time>2026-04-04T11:23:40Z</time></trkpt><trkpt lat="36.936449493409434" lon="15.047784347577423"><ele>328.0</ele><time>2026-04-04T11:23:42Z</time></trkpt><trkpt lat="36.93649594273137" lon="15.047728623975356"><ele>328.0</ele><time>2026-04-04T11:23:43Z</time></trkpt><trkpt lat="36.9365422348008" lon="15.047671609518344"><ele>328.0</ele><time>2026-04-04T11:23:44Z</time></trkpt><trkpt lat="36.936580801362766" lon="15.047599083470997"><ele>328.0</ele><time>2026-04-04T11:23:45Z</time></trkpt><trkpt lat="36.93663264525104" lon="15.047515114471759"><ele>328.59999999999997</ele><time>2026-04-04T11:23:46Z</time></trkpt><trkpt lat="36.93669282028714" lon="15.047414858134434"><ele>329.2</ele><time>2026-04-04T11:23:47Z</time></trkpt><trkpt lat="36.93676168834268" lon="15.047312174404249"><ele>329.8</ele><time>2026-04-04T11:23:48Z</time></trkpt><trkpt lat="36.93684806035728" lon="15.047231018010109"><ele>330.4</ele><time>2026-04-04T11:23:49Z</time></trkpt><trkpt lat="36.936939164428225" lon="15.047136935093503"><ele>331.0</ele><time>2026-04-04T11:23:50Z</time></trkpt><trkpt lat="36.937041846291436" lon="15.047045304640747"><ele>332.0</ele><time>2026-04-04T11:23:51Z</time></trkpt><trkpt lat="36.93713031661724" lon="15.046963941383689"><ele>333.0</ele><time>2026-04-04T11:23:52Z</time></trkpt><trkpt lat="36.93720697391764" lon="15.046880411363537"><ele>334.0</ele><time>2026-04-04T11:23:53Z</time></trkpt><trkpt lat="36.93729481502703" lon="15.046815565370435"><ele>335.0</ele><time>2026-04-04T11:23:54Z</time></trkpt><trkpt lat="36.93739762796521" lon="15.04676738761393"><ele>336.0</ele><time>2026-04-04T11:23:55Z</time></trkpt><trkpt lat="36.93749538025542" lon="15.046698784281595"><ele>337.4</ele><time>2026-04-04T11:23:56Z</time></trkpt><trkpt lat="36.937570499176694" lon="15.046591777763325"><ele>338.8</ele><time>2026-04-04T11:23:57Z</time></trkpt><trkpt lat="36.937646265152736" lon="15.04648867397923"><ele>340.2</ele><time>2026-04-04T11:23:58Z</time></trkpt><trkpt lat="36.93772294138276" lon="15.046421572102465"><ele>341.59999999999997</ele><time>2026-04-04T11:23:59Z</time></trkpt><trkpt lat="36.93780706660286" lon="15.04638782538051"><ele>343.0</ele><time>2026-04-04T11:24:00Z</time></trkpt><trkpt lat="36.937897758286326" lon="15.046375263797632"><ele>343.0</ele><time>2026-04-04T11:24:01Z</time></trkpt><trkpt lat="36.937978283071104" lon="15.046408011400931"><ele>343.0</ele><time>2026-04-04T11:24:02Z</time></trkpt><trkpt lat="36.9380609548506" lon="15.04644646487566"><ele>343.0</ele><time>2026-04-04T11:24:03Z</time></trkpt><trkpt lat="36.938173440040714" lon="15.046458402615976"><ele>343.0</ele><time>2026-04-04T11:24:04Z</time></trkpt><trkpt lat="36.938291716404656" lon="15.046443422109741"><ele>343.0</ele><time>2026-04-04T11:24:05Z</time></trkpt><trkpt lat="36.938429016587456" lon="15.046414723503442"><ele>343.5</ele><time>2026-04-04T11:24:06Z</time></trkpt><trkpt lat="36.93856411796175" lon="15.046382492287757"><ele>344.0</ele><time>2026-04-04T11:24:07Z</time></trkpt><trkpt lat="36.93870757109654" lon="15.046336758665385"><ele>344.5</ele><time>2026-04-04T11:24:08Z</time></trkpt><trkpt lat="36.938863270353906" lon="15.046299614083916"><ele>345.0</ele><time>2026-04-04T11:24:09Z</time></trkpt><trkpt lat="36.939033802626696" lon="15.046274916446269"><ele>345.0</ele><time>2026-04-04T11:24:10Z</time></trkpt><trkpt lat="36.93920346633246" lon="15.046257648902477"><ele>345.0</ele><time>2026-04-04T11:24:11Z</time></trkpt><trkpt lat="36.93936699806769" lon="15.046214501049457"><ele>345.0</ele><time>2026-04-04T11:24:12Z</time></trkpt><trkpt lat="36.93952562121726" lon="15.046128536581644"><ele>343.3333333333333</ele><time>2026-04-04T11:24:13Z</time></trkpt><trkpt lat="36.939696720503605" lon="15.046026933305688"><ele>341.66666666666663</ele><time>2026-04-04T11:24:14Z</time></trkpt><trkpt lat="36.93988488590276" lon="15.045935929047243"><ele>340.0</ele><time>2026-04-04T11:24:15Z</time></trkpt><trkpt lat="36.940077642198986" lon="15.045839649298069"><ele>342.0</ele><time>2026-04-04T11:24:16Z</time></trkpt><trkpt lat="36.94026050919049" lon="15.045757219563413"><ele>344.0</ele><time>2026-04-04T11:24:17Z</time></trkpt><trkpt lat="36.940425932582585" lon="15.04568259095084"><ele>346.0</ele><time>2026-04-04T11:24:18Z</time></trkpt><trkpt lat="36.94059601219809" lon="15.045618797251784"><ele>346.0</ele><time>2026-04-04T11:24:19Z</time></trkpt><trkpt lat="36.940771855829404" lon="15.045571776520898"><ele>346.0</ele><time>2026-04-04T11:24:20Z</time></trkpt><trkpt lat="36.94094913066465" lon="15.04551804972628"><ele>346.0</ele><time>2026-04-04T11:24:21Z</time></trkpt><trkpt lat="36.94109703750839" lon="15.045434897214983"><ele>343.3333333333333</ele><time>2026-04-04T11:24:22Z</time></trkpt><trkpt lat="36.94124267594151" lon="15.045319442103551"><ele>340.6666666666667</ele><time>2026-04-04T11:24:23Z</time></trkpt><trkpt lat="36.94139544537917" lon="15.045187035289208"><ele>338.0</ele><time>2026-04-04T11:24:24Z</time></trkpt><trkpt lat="36.941544472274366" lon="15.04505738621869"><ele>337.33333333333337</ele><time>2026-04-04T11:24:25Z</time></trkpt><trkpt lat="36.941689561538674" lon="15.044905704788844"><ele>336.6666666666667</ele><time>2026-04-04T11:24:26Z</time></trkpt><trkpt lat="36.94181911101392" lon="15.044730719687342"><ele>336.0</ele><time>2026-04-04T11:24:27Z</time></trkpt><trkpt lat="36.941937098147775" lon="15.044543291335517"><ele>336.0</ele><time>2026-04-04T11:24:28Z</time></trkpt><trkpt lat="36.942058005122405" lon="15.044333936432645"><ele>336.0</ele><time>2026-04-04T11:24:29Z</time></trkpt><trkpt lat="36.942176334260594" lon="15.044168765316096"><ele>336.0</ele><time>2026-04-04T11:24:30Z</time></trkpt><trkpt lat="36.9422822405024" lon="15.043999586681002"><ele>337.6666666666667</ele><time>2026-04-04T11:24:31Z</time></trkpt><trkpt lat="36.94237919248587" lon="15.043805730359367"><ele>339.33333333333337</ele><time>2026-04-04T11:24:32Z</time></trkpt><trkpt lat="36.942435885376234" lon="15.04357001859337"><ele>341.0</ele><time>2026-04-04T11:24:33Z</time></trkpt><trkpt lat="36.94250448233649" lon="15.043372587622528"><ele>341.0</ele><time>2026-04-04T11:24:34Z</time></trkpt><trkpt lat="36.94260033162108" lon="15.043178229189666"><ele>341.0</ele><time>2026-04-04T11:24:35Z</time></trkpt><trkpt lat="36.94269619270587" lon="15.04301985072617"><ele>341.0</ele><time>2026-04-04T11:24:36Z</time></trkpt><trkpt lat="36.94277500568929" lon="15.042856697170357"><ele>341.0</ele><time>2026-04-04T11:24:37Z</time></trkpt><trkpt lat="36.942899344355226" lon="15.042754074125835"><ele>341.0</ele><time>2026-04-04T11:24:38Z</time></trkpt><trkpt lat="36.942996445713874" lon="15.042632485198057"><ele>341.0</ele><time>2026-04-04T11:24:39Z</time></trkpt><trkpt lat="36.943102564800945" lon="15.042522508589917"><ele>341.0</ele><time>2026-04-04T11:24:40Z</time></trkpt><trkpt lat="36.94321945460543" lon="15.042421164584178"><ele>341.75</ele><time>2026-04-04T11:24:41Z</time></trkpt><trkpt lat="36.9433444305455" lon="15.042334849136202"><ele>342.5</ele><time>2026-04-04T11:24:42Z</time></trkpt><trkpt lat="36.94347228358885" lon="15.042239346091165"><ele>343.25</ele><time>2026-04-04T11:24:43Z</time></trkpt><trkpt lat="36.943605372678725" lon="15.042146335579599"><ele>344.0</ele><time>2026-04-04T11:24:44Z</time></trkpt><trkpt lat="36.94377513479328" lon="15.042071101257177"><ele>344.0</ele><time>2026-04-04T11:24:45Z</time></trkpt><trkpt lat="36.94393432598252" lon="15.041972609031752"><ele>344.0</ele><time>2026-04-04T11:24:46Z</time></trkpt><trkpt lat="36.944063381279705" lon="15.041880782505602"><ele>344.0</ele><time>2026-04-04T11:24:47Z</time></trkpt><trkpt lat="36.94418855876573" lon="15.04178367368958"><ele>342.33333333333337</ele><time>2026-04-04T11:24:48Z</time></trkpt><trkpt lat="36.94430791107834" lon="15.04166190302358"><ele>340.6666666666667</ele><time>2026-04-04T11:24:49Z</time></trkpt><trkpt lat="36.94444661683991" lon="15.0415147581091"><ele>339.0</ele><time>2026-04-04T11:24:50Z</time></trkpt><trkpt lat="36.944532314468205" lon="15.041357813767833"><ele>342.3333333333333</ele><time>2026-04-04T11:24:51Z</time></trkpt><trkpt lat="36.944624479215506" lon="15.041221152366523"><ele>345.66666666666663</ele><time>2026-04-04T11:24:52Z</time></trkpt><trkpt lat="36.944737199169225" lon="15.041092920142724"><ele>349.0</ele><time>2026-04-04T11:24:53Z</time></trkpt><trkpt lat="36.944865279979204" lon="15.040937860031566"><ele>349.66666666666663</ele><time>2026-04-04T11:24:54Z</time></trkpt><trkpt lat="36.944993448988726" lon="15.040788200585443"><ele>350.3333333333333</ele><time>2026-04-04T11:24:55Z</time></trkpt><trkpt lat="36.94514549776794" lon="15.040631172866192"><ele>351.0</ele><time>2026-04-04T11:24:56Z</time></trkpt><trkpt lat="36.945298875252284" lon="15.040504828829798"><ele>351.0</ele><time>2026-04-04T11:24:57Z</time></trkpt><trkpt lat="36.945417628701314" lon="15.040402533661913"><ele>351.0</ele><time>2026-04-04T11:24:58Z</time></trkpt><trkpt lat="36.94556032108854" lon="15.040286240693673"><ele>351.0</ele><time>2026-04-04T11:24:59Z</time></trkpt><trkpt lat="36.94571383206544" lon="15.040155627573347"><ele>351.0</ele><time>2026-04-04T11:25:00Z</time></trkpt><trkpt lat="36.945861191153504" lon="15.040021379729184"><ele>351.0</ele><time>2026-04-04T11:25:01Z</time></trkpt><trkpt lat="36.94599652601849" lon="15.03989121392014"><ele>351.0</ele><time>2026-04-04T11:25:02Z</time></trkpt><trkpt lat="36.94613924055303" lon="15.039798076252337"><ele>350.6666666666667</ele><time>2026-04-04T11:25:03Z</time></trkpt><trkpt lat="36.946290975482064" lon="15.039713149039402"><ele>350.33333333333337</ele><time>2026-04-04T11:25:04Z</time></trkpt><trkpt lat="36.9464460141405" lon="15.039626744935239"><ele>350.0</ele><time>2026-04-04T11:25:05Z</time></trkpt><trkpt lat="36.94658996824475" lon="15.039530348234898"><ele>346.33333333333337</ele><time>2026-04-04T11:25:06Z</time></trkpt><trkpt lat="36.94673700370757" lon="15.039458692112067"><ele>342.6666666666667</ele><time>2026-04-04T11:25:07Z</time></trkpt><trkpt lat="36.94689763819457" lon="15.039365982718207"><ele>339.0</ele><time>2026-04-04T11:25:08Z</time></trkpt><trkpt lat="36.947059714751845" lon="15.039250710128078"><ele>339.0</ele><time>2026-04-04T11:25:09Z</time></trkpt><trkpt lat="36.94719731903168" lon="15.039223974229627"><ele>339.0</ele><time>2026-04-04T11:25:10Z</time></trkpt><trkpt lat="36.94731300407703" lon="15.039135291112991"><ele>339.0</ele><time>2026-04-04T11:25:11Z</time></trkpt><trkpt lat="36.9474128980733" lon="15.03902455025665"><ele>339.0</ele><time>2026-04-04T11:25:12Z</time></trkpt><trkpt lat="36.947514284799844" lon="15.03892502947662"><ele>340.25</ele><time>2026-04-04T11:25:13Z</time></trkpt><trkpt lat="36.94764915290311" lon="15.038847273925127"><ele>341.5</ele><time>2026-04-04T11:25:14Z</time></trkpt><trkpt lat="36.94777564287213" lon="15.038803220243615"><ele>342.75</ele><time>2026-04-04T11:25:15Z</time></trkpt><trkpt lat="36.94792095495242" lon="15.038742840445567"><ele>344.0</ele><time>2026-04-04T11:25:16Z</time></trkpt><trkpt lat="36.94804273985824" lon="15.038703821382121"><ele>344.0</ele><time>2026-04-04T11:25:17Z</time></trkpt><trkpt lat="36.948152036752354" lon="15.038664474332009"><ele>344.0</ele><time>2026-04-04T11:25:18Z</time></trkpt><trkpt lat="36.948279576056514" lon="15.038655659697232"><ele>344.0</ele><time>2026-04-04T11:25:19Z</time></trkpt><trkpt lat="36.94842185127221" lon="15.038666329657167"><ele>344.0</ele><time>2026-04-04T11:25:20Z</time></trkpt><trkpt lat="36.94856255106158" lon="15.038684260200023"><ele>344.0</ele><time>2026-04-04T11:25:21Z</time></trkpt><trkpt lat="36.94870819089384" lon="15.038706497219666"><ele>344.0</ele><time>2026-04-04T11:25:22Z</time></trkpt><trkpt lat="36.94886861475125" lon="15.038749636711351"><ele>344.0</ele><time>2026-04-04T11:25:23Z</time></trkpt><trkpt lat="36.948997757879376" lon="15.038812176596304"><ele>344.0</ele><time>2026-04-04T11:25:24Z</time></trkpt><trkpt lat="36.94911960794907" lon="15.038843155926886"><ele>344.6666666666667</ele><time>2026-04-04T11:25:25Z</time></trkpt><trkpt lat="36.94921638533209" lon="15.038887705538107"><ele>345.33333333333337</ele><time>2026-04-04T11:25:26Z</time></trkpt><trkpt lat="36.94930240960406" lon="15.038924481993327"><ele>346.0</ele><time>2026-04-04T11:25:27Z</time></trkpt><trkpt lat="36.94937866184111" lon="15.038933666677636"><ele>346.6666666666667</ele><time>2026-04-04T11:25:28Z</time></trkpt><trkpt lat="36.94945643607834" lon="15.038900048364718"><ele>347.3333333333333</ele><time>2026-04-04T11:25:30Z</time></trkpt><trkpt lat="36.94951652898477" lon="15.038952182358893"><ele>348.0</ele><time>2026-04-04T11:25:35Z</time></trkpt><trkpt lat="36.949609591221645" lon="15.038944112760628"><ele>348.0</ele><time>2026-04-04T11:25:50Z</time></trkpt><trkpt lat="36.94968958828315" lon="15.038957850679024"><ele>348.0</ele><time>2026-04-04T11:25:55Z</time></trkpt><trkpt lat="36.94975923050387" lon="15.039003854966836"><ele>348.0</ele><time>2026-04-04T11:25:57Z</time></trkpt><trkpt lat="36.949850068033676" lon="15.039069841967935"><ele>348.0</ele><time>2026-04-04T11:26:00Z</time></trkpt><trkpt lat="36.94992656786018" lon="15.039108969452112"><ele>348.0</ele><time>2026-04-04T11:26:02Z</time></trkpt><trkpt lat="36.94999438797814" lon="15.039101182349178"><ele>348.0</ele><time>2026-04-04T11:26:05Z</time></trkpt><trkpt lat="36.95005880014018" lon="15.039093608771624"><ele>348.1428571428571</ele><time>2026-04-04T11:26:08Z</time></trkpt><trkpt lat="36.95013466185161" lon="15.039099627256265"><ele>348.2857142857143</ele><time>2026-04-04T11:26:11Z</time></trkpt><trkpt lat="36.95022252752155" lon="15.03911105583241"><ele>348.42857142857144</ele><time>2026-04-04T11:26:14Z</time></trkpt><trkpt lat="36.95029738832851" lon="15.039148936831712"><ele>348.57142857142856</ele><time>2026-04-04T11:26:19Z</time></trkpt><trkpt lat="36.950356587849235" lon="15.039177845501532"><ele>348.7142857142857</ele><time>2026-04-04T11:26:24Z</time></trkpt><trkpt lat="36.950422143078185" lon="15.039157872162392"><ele>348.85714285714283</ele><time>2026-04-04T11:26:37Z</time></trkpt><trkpt lat="36.95048482594605" lon="15.039199454571493"><ele>349.0</ele><time>2026-04-04T11:29:21Z</time></trkpt><trkpt lat="36.95055176995621" lon="15.039218521515407"><ele>349.0</ele><time>2026-04-04T11:29:25Z</time></trkpt><trkpt lat="36.950637589058125" lon="15.039211219124843"><ele>349.0</ele><time>2026-04-04T11:30:45Z</time></trkpt><trkpt lat="36.95071880310453" lon="15.039203110632112"><ele>349.0</ele><time>2026-04-04T11:30:49Z</time></trkpt><trkpt lat="36.950780801199464" lon="15.03922251396596"><ele>349.0</ele><time>2026-04-04T11:30:52Z</time></trkpt><trkpt lat="36.950870637967206" lon="15.039257488786497"><ele>349.0</ele><time>2026-04-04T11:30:55Z</time></trkpt><trkpt lat="36.95090070723207" lon="15.039329321254524"><ele>349.0</ele><time>2026-04-04T11:30:57Z</time></trkpt><trkpt lat="36.95094754029292" lon="15.03925489630559"><ele>349.3333333333333</ele><time>2026-04-04T11:32:38Z</time></trkpt><trkpt lat="36.95097858157538" lon="15.039178054847435"><ele>349.66666666666663</ele><time>2026-04-04T11:43:46Z</time></trkpt><trkpt lat="36.951033816355626" lon="15.039063814638737"><ele>350.0</ele><time>2026-04-04T11:43:49Z</time></trkpt><trkpt lat="36.950973822166254" lon="15.039038673131902"><ele>350.3333333333333</ele><time>2026-04-04T11:43:52Z</time></trkpt><trkpt lat="36.95089399041311" lon="15.039001433421209"><ele>350.6666666666667</ele><time>2026-04-04T11:43:55Z</time></trkpt><trkpt lat="36.95083451895307" lon="15.038968501609203"><ele>351.0</ele><time>2026-04-04T11:43:58Z</time></trkpt><trkpt lat="36.95076264556538" lon="15.038939588933165"><ele>351.00000000000006</ele><time>2026-04-04T11:44:02Z</time></trkpt><trkpt lat="36.950681410063225" lon="15.038946410040896"><ele>351.0</ele><time>2026-04-04T11:44:04Z</time></trkpt><trkpt lat="36.95061503929282" lon="15.038975676031875"><ele>351.0</ele><time>2026-04-04T11:44:06Z</time></trkpt><trkpt lat="36.95053920568099" lon="15.038999449519356"><ele>351.0</ele><time>2026-04-04T11:44:10Z</time></trkpt><trkpt lat="36.95048921967209" lon="15.038948770566478"><ele>351.0</ele><time>2026-04-04T11:44:12Z</time></trkpt><trkpt lat="36.9504438690971" lon="15.038879356834306"><ele>351.00000000000006</ele><time>2026-04-04T11:44:14Z</time></trkpt><trkpt lat="36.950384911854805" lon="15.03882055772952"><ele>351.0</ele><time>2026-04-04T11:44:16Z</time></trkpt><trkpt lat="36.950334271362685" lon="15.038753782948731"><ele>351.0</ele><time>2026-04-04T11:44:18Z</time></trkpt><trkpt lat="36.95025590817153" lon="15.038709799606599"><ele>351.0</ele><time>2026-04-04T11:44:21Z</time></trkpt><trkpt lat="36.95019844448818" lon="15.038661683085023"><ele>351.0</ele><time>2026-04-04T11:44:29Z</time></trkpt><trkpt lat="36.950118328082745" lon="15.03863654497671"><ele>351.0</ele><time>2026-04-04T11:44:33Z</time></trkpt><trkpt lat="36.95005330585712" lon="15.038608192580208"><ele>351.0</ele><time>2026-04-04T11:44:35Z</time></trkpt><trkpt lat="36.94997719893058" lon="15.038650014448804"><ele>351.0</ele><time>2026-04-04T11:44:38Z</time></trkpt><trkpt lat="36.94991640883016" lon="15.038678520880296"><ele>350.5</ele><time>2026-04-04T11:44:42Z</time></trkpt><trkpt lat="36.949832048243714" lon="15.038711173323165"><ele>350.0</ele><time>2026-04-04T11:44:46Z</time></trkpt><trkpt lat="36.94974414916361" lon="15.038732481870298"><ele>349.5</ele><time>2026-04-04T11:44:50Z</time></trkpt><trkpt lat="36.94968928036601" lon="15.038779980020717"><ele>349.0</ele><time>2026-04-04T11:44:53Z</time></trkpt><trkpt lat="36.94963336777293" lon="15.038827428455923"><ele>348.5</ele><time>2026-04-04T11:44:59Z</time></trkpt><trkpt lat="36.949616472086404" lon="15.03895917720932"><ele>348.0</ele><time>2026-04-04T11:45:06Z</time></trkpt><trkpt lat="36.94963030972421" lon="15.039097720711014"><ele>347.6666666666667</ele><time>2026-04-04T11:45:08Z</time></trkpt><trkpt lat="36.949632183790236" lon="15.039186627107005"><ele>347.3333333333333</ele><time>2026-04-04T11:45:09Z</time></trkpt><trkpt lat="36.949613823869605" lon="15.039287563473001"><ele>347.0</ele><time>2026-04-04T11:45:10Z</time></trkpt><trkpt lat="36.94958820218907" lon="15.039384991930756"><ele>346.66666666666663</ele><time>2026-04-04T11:45:11Z</time></trkpt><trkpt lat="36.949559815731824" lon="15.039465075172938"><ele>346.3333333333333</ele><time>2026-04-04T11:45:12Z</time></trkpt><trkpt lat="36.9495730000773" lon="15.039612278956666"><ele>346.0</ele><time>2026-04-04T11:45:14Z</time></trkpt><trkpt lat="36.94964932836145" lon="15.039735494955726"><ele>346.0</ele><time>2026-04-04T11:45:16Z</time></trkpt><trkpt lat="36.94969080707396" lon="15.03980658170056"><ele>346.0</ele><time>2026-04-04T11:45:17Z</time></trkpt><trkpt lat="36.94973344270052" lon="15.039903357582016"><ele>346.0</ele><time>2026-04-04T11:45:18Z</time></trkpt><trkpt lat="36.949778175165534" lon="15.040017785720392"><ele>346.0</ele><time>2026-04-04T11:45:19Z</time></trkpt><trkpt lat="36.949822751008035" lon="15.040123842212893"><ele>346.0</ele><time>2026-04-04T11:45:20Z</time></trkpt><trkpt lat="36.9498583919734" lon="15.040210026157597"><ele>346.0</ele><time>2026-04-04T11:45:21Z</time></trkpt><trkpt lat="36.94988815861402" lon="15.040285081126873"><ele>346.6</ele><time>2026-04-04T11:45:22Z</time></trkpt><trkpt lat="36.94993699720178" lon="15.040409100357316"><ele>347.20000000000005</ele><time>2026-04-04T11:45:24Z</time></trkpt><trkpt lat="36.949981157535355" lon="15.040527921247062"><ele>347.79999999999995</ele><time>2026-04-04T11:45:26Z</time></trkpt><trkpt lat="36.95001112268647" lon="15.040605271296512"><ele>348.4</ele><time>2026-04-04T11:45:27Z</time></trkpt><trkpt lat="36.9500403330993" lon="15.040704058454923"><ele>349.0</ele><time>2026-04-04T11:45:28Z</time></trkpt><trkpt lat="36.95005545470097" lon="15.040813539897588"><ele>349.6</ele><time>2026-04-04T11:45:29Z</time></trkpt><trkpt lat="36.95005767423723" lon="15.0409361685191"><ele>350.2</ele><time>2026-04-04T11:45:30Z</time></trkpt><trkpt lat="36.95005916591593" lon="15.041066921871924"><ele>350.8</ele><time>2026-04-04T11:45:31Z</time></trkpt><trkpt lat="36.95006488375673" lon="15.041203323893342"><ele>351.40000000000003</ele><time>2026-04-04T11:45:32Z</time></trkpt><trkpt lat="36.95007731516769" lon="15.041341788003677"><ele>352.0</ele><time>2026-04-04T11:45:33Z</time></trkpt><trkpt lat="36.9500833596347" lon="15.041473318865298"><ele>352.0</ele><time>2026-04-04T11:45:34Z</time></trkpt><trkpt lat="36.95009814993513" lon="15.041602964552775"><ele>352.0</ele><time>2026-04-04T11:45:35Z</time></trkpt><trkpt lat="36.950101042241926" lon="15.04173318017546"><ele>352.0</ele><time>2026-04-04T11:45:36Z</time></trkpt><trkpt lat="36.950092321318365" lon="15.041864069566202"><ele>352.0</ele><time>2026-04-04T11:45:37Z</time></trkpt><trkpt lat="36.95007543071673" lon="15.041996823866922"><ele>352.0</ele><time>2026-04-04T11:45:38Z</time></trkpt><trkpt lat="36.950062500820074" lon="15.042136901307781"><ele>351.75</ele><time>2026-04-04T11:45:39Z</time></trkpt><trkpt lat="36.950050656007626" lon="15.042278084833326"><ele>351.5</ele><time>2026-04-04T11:45:40Z</time></trkpt><trkpt lat="36.95004131042376" lon="15.042420943631171"><ele>351.25</ele><time>2026-04-04T11:45:41Z</time></trkpt><trkpt lat="36.95003482522883" lon="15.042565393054842"><ele>351.0</ele><time>2026-04-04T11:45:42Z</time></trkpt><trkpt lat="36.950029258528176" lon="15.042707253272487"><ele>350.0</ele><time>2026-04-04T11:45:43Z</time></trkpt><trkpt lat="36.95002033031257" lon="15.042848189024644"><ele>349.0</ele><time>2026-04-04T11:45:44Z</time></trkpt><trkpt lat="36.95000499393886" lon="15.04298698615398"><ele>348.0</ele><time>2026-04-04T11:45:45Z</time></trkpt><trkpt lat="36.9499877558094" lon="15.043123719289364"><ele>347.0</ele><time>2026-04-04T11:45:46Z</time></trkpt><trkpt lat="36.94997774887456" lon="15.043260619132317"><ele>346.0</ele><time>2026-04-04T11:45:47Z</time></trkpt><trkpt lat="36.949971718263086" lon="15.043401385902287"><ele>345.5</ele><time>2026-04-04T11:45:48Z</time></trkpt><trkpt lat="36.94997143530208" lon="15.043543013346111"><ele>345.0</ele><time>2026-04-04T11:45:49Z</time></trkpt><trkpt lat="36.94998033050393" lon="15.043681651480217"><ele>344.5</ele><time>2026-04-04T11:45:50Z</time></trkpt><trkpt lat="36.9499866263787" lon="15.043821412101591"><ele>344.0</ele><time>2026-04-04T11:45:51Z</time></trkpt><trkpt lat="36.94999183628368" lon="15.04396522656667"><ele>344.0</ele><time>2026-04-04T11:45:52Z</time></trkpt><trkpt lat="36.94999333847957" lon="15.044101907390633"><ele>344.0</ele><time>2026-04-04T11:45:53Z</time></trkpt><trkpt lat="36.94998803726439" lon="15.044230042901482"><ele>344.0</ele><time>2026-04-04T11:45:54Z</time></trkpt><trkpt lat="36.94998138039587" lon="15.044343185294943"><ele>344.0</ele><time>2026-04-04T11:45:55Z</time></trkpt><trkpt lat="36.94997831124226" lon="15.044453438419911"><ele>344.0</ele><time>2026-04-04T11:45:56Z</time></trkpt><trkpt lat="36.94997728864764" lon="15.044550017397654"><ele>344.5</ele><time>2026-04-04T11:45:57Z</time></trkpt><trkpt lat="36.949977634274255" lon="15.044633379991302"><ele>345.0</ele><time>2026-04-04T11:45:58Z</time></trkpt><trkpt lat="36.94996962558009" lon="15.044749439927243"><ele>345.5</ele><time>2026-04-04T11:46:00Z</time></trkpt><trkpt lat="36.94999823633069" lon="15.044839639084543"><ele>346.0</ele><time>2026-04-04T11:46:03Z</time></trkpt><trkpt lat="36.950068328024855" lon="15.044852279084875"><ele>346.5</ele><time>2026-04-04T11:46:05Z</time></trkpt><trkpt lat="36.950137675705506" lon="15.044843444600877"><ele>347.0</ele><time>2026-04-04T11:46:07Z</time></trkpt><trkpt lat="36.950229870147545" lon="15.044819016573891"><ele>348.0</ele><time>2026-04-04T11:46:09Z</time></trkpt><trkpt lat="36.95032723342868" lon="15.044814991558855"><ele>349.0</ele><time>2026-04-04T11:46:11Z</time></trkpt><trkpt lat="36.95042206401021" lon="15.044807182294653"><ele>350.0</ele><time>2026-04-04T11:46:13Z</time></trkpt><trkpt lat="36.950515951399844" lon="15.044821895514627"><ele>351.0</ele><time>2026-04-04T11:46:15Z</time></trkpt><trkpt lat="36.950603037281255" lon="15.0448227531868"><ele>352.0</ele><time>2026-04-04T11:46:17Z</time></trkpt><trkpt lat="36.950690238406224" lon="15.04485240536716"><ele>352.0</ele><time>2026-04-04T11:46:19Z</time></trkpt><trkpt lat="36.95076639755253" lon="15.044797735827567"><ele>352.0</ele><time>2026-04-04T11:46:21Z</time></trkpt><trkpt lat="36.950804435679174" lon="15.044695546469873"><ele>352.0</ele><time>2026-04-04T11:46:23Z</time></trkpt><trkpt lat="36.9508685554217" lon="15.044611390962961"><ele>352.0</ele><time>2026-04-04T11:46:25Z</time></trkpt><trkpt lat="36.95091343849964" lon="15.044527929034071"><ele>352.0</ele><time>2026-04-04T11:46:27Z</time></trkpt><trkpt lat="36.95097846865211" lon="15.04446656890818"><ele>352.0</ele><time>2026-04-04T11:46:29Z</time></trkpt><trkpt lat="36.95103106790667" lon="15.044396257076862"><ele>354.0</ele><time>2026-04-04T11:46:31Z</time></trkpt><trkpt lat="36.95104772264714" lon="15.04431572123708"><ele>356.0</ele><time>2026-04-04T11:46:33Z</time></trkpt><trkpt lat="36.951045213038945" lon="15.044205523673842"><ele>358.0</ele><time>2026-04-04T11:46:35Z</time></trkpt><trkpt lat="36.95107372891177" lon="15.044060395997935"><ele>360.0</ele><time>2026-04-04T11:46:37Z</time></trkpt><trkpt lat="36.95112284621368" lon="15.04394112222451"><ele>362.0</ele><time>2026-04-04T11:46:39Z</time></trkpt><trkpt lat="36.951199982693865" lon="15.043860223483073"><ele>362.0</ele><time>2026-04-04T11:46:41Z</time></trkpt><trkpt lat="36.9512534418219" lon="15.04380262333368"><ele>362.0</ele><time>2026-04-04T11:46:43Z</time></trkpt><trkpt lat="36.951239671324984" lon="15.043714132890317"><ele>362.0</ele><time>2026-04-04T11:46:45Z</time></trkpt><trkpt lat="36.95121963005737" lon="15.043606495174371"><ele>362.0</ele><time>2026-04-04T11:46:47Z</time></trkpt><trkpt lat="36.95127372689586" lon="15.043554901878563"><ele>362.0</ele><time>2026-04-04T11:46:49Z</time></trkpt><trkpt lat="36.95135032810712" lon="15.043511535188083"><ele>362.0</ele><time>2026-04-04T11:46:51Z</time></trkpt><trkpt lat="36.951426965185505" lon="15.043509677735342"><ele>362.0</ele><time>2026-04-04T11:46:53Z</time></trkpt><trkpt lat="36.951475634481156" lon="15.04356077408938"><ele>362.0</ele><time>2026-04-04T11:46:56Z</time></trkpt><trkpt lat="36.9514723132115" lon="15.043646672198841"><ele>362.0</ele><time>2026-04-04T11:47:00Z</time></trkpt><trkpt lat="36.951508626193586" lon="15.043715361086239"><ele>362.0</ele><time>2026-04-04T11:47:07Z</time></trkpt><trkpt lat="36.95158069371479" lon="15.043743254094316"><ele>362.0</ele><time>2026-04-04T11:47:09Z</time></trkpt><trkpt lat="36.95162797788404" lon="15.043806827626"><ele>362.0</ele><time>2026-04-04T11:47:26Z</time></trkpt><trkpt lat="36.951637623941316" lon="15.043891473667372"><ele>362.0</ele><time>2026-04-04T12:07:29Z</time></trkpt><trkpt lat="36.951549076273814" lon="15.043963796124896"><ele>362.0</ele><time>2026-04-04T12:08:00Z</time></trkpt><trkpt lat="36.95147152933401" lon="15.043958659190505"><ele>362.0</ele><time>2026-04-04T12:08:02Z</time></trkpt><trkpt lat="36.95143173645523" lon="15.04387770713243"><ele>362.0</ele><time>2026-04-04T12:08:04Z</time></trkpt><trkpt lat="36.95136469152569" lon="15.043819039495997"><ele>362.0</ele><time>2026-04-04T12:08:07Z</time></trkpt><trkpt lat="36.95129485880114" lon="15.04379035990372"><ele>362.0</ele><time>2026-04-04T12:08:09Z</time></trkpt><trkpt lat="36.95120938385939" lon="15.04381653803984"><ele>362.0</ele><time>2026-04-04T12:08:12Z</time></trkpt><trkpt lat="36.95116344122321" lon="15.043879027640713"><ele>362.0</ele><time>2026-04-04T12:08:14Z</time></trkpt><trkpt lat="36.951106693238685" lon="15.043938041506362"><ele>362.0</ele><time>2026-04-04T12:08:16Z</time></trkpt><trkpt lat="36.9510703402858" lon="15.044016364688177"><ele>362.0</ele><time>2026-04-04T12:08:18Z</time></trkpt><trkpt lat="36.951050740388965" lon="15.04410962985151"><ele>362.0</ele><time>2026-04-04T12:08:20Z</time></trkpt><trkpt lat="36.95103715932528" lon="15.044191918670654"><ele>362.0</ele><time>2026-04-04T12:08:22Z</time></trkpt><trkpt lat="36.95103452914647" lon="15.044290044158759"><ele>362.0</ele><time>2026-04-04T12:08:25Z</time></trkpt><trkpt lat="36.95110348695322" lon="15.04421657341242"><ele>362.0</ele><time>2026-04-04T12:08:28Z</time></trkpt><trkpt lat="36.951050584056645" lon="15.04413586514568"><ele>362.0</ele><time>2026-04-04T12:08:30Z</time></trkpt><trkpt lat="36.95107508709682" lon="15.044052002198699"><ele>362.0</ele><time>2026-04-04T12:08:32Z</time></trkpt><trkpt lat="36.951122325573095" lon="15.043952070015868"><ele>362.0</ele><time>2026-04-04T12:08:34Z</time></trkpt><trkpt lat="36.95118207326094" lon="15.043853964871461"><ele>362.0</ele><time>2026-04-04T12:08:36Z</time></trkpt><trkpt lat="36.95126671426469" lon="15.043806640581751"><ele>362.0</ele><time>2026-04-04T12:08:38Z</time></trkpt><trkpt lat="36.95135266852613" lon="15.043818928138874"><ele>362.0</ele><time>2026-04-04T12:08:40Z</time></trkpt><trkpt lat="36.9514355559535" lon="15.043864698387578"><ele>362.0</ele><time>2026-04-04T12:08:42Z</time></trkpt><trkpt lat="36.95150453830038" lon="15.043957861233272"><ele>362.0</ele><time>2026-04-04T12:08:44Z</time></trkpt><trkpt lat="36.9515990325849" lon="15.044062702222822"><ele>362.0</ele><time>2026-04-04T12:08:46Z</time></trkpt><trkpt lat="36.951691964048486" lon="15.044122851392792"><ele>362.0</ele><time>2026-04-04T12:08:48Z</time></trkpt><trkpt lat="36.951788585572295" lon="15.04416071444681"><ele>362.6666666666667</ele><time>2026-04-04T12:08:50Z</time></trkpt><trkpt lat="36.9518863217584" lon="15.044178746506072"><ele>363.33333333333337</ele><time>2026-04-04T12:08:52Z</time></trkpt><trkpt lat="36.95195373956437" lon="15.044242822441193"><ele>364.0</ele><time>2026-04-04T12:08:54Z</time></trkpt><trkpt lat="36.95198451287908" lon="15.044334069325618"><ele>364.6666666666667</ele><time>2026-04-04T12:08:56Z</time></trkpt><trkpt lat="36.95199969814623" lon="15.044443855114531"><ele>365.3333333333333</ele><time>2026-04-04T12:08:58Z</time></trkpt><trkpt lat="36.95198750004339" lon="15.04453484651719"><ele>366.0</ele><time>2026-04-04T12:09:00Z</time></trkpt><trkpt lat="36.95194159024242" lon="15.044646009988925"><ele>366.0</ele><time>2026-04-04T12:09:02Z</time></trkpt><trkpt lat="36.95189578037836" lon="15.044741158984392"><ele>366.0</ele><time>2026-04-04T12:09:04Z</time></trkpt><trkpt lat="36.95187916561164" lon="15.044823174604836"><ele>366.0</ele><time>2026-04-04T12:09:06Z</time></trkpt><trkpt lat="36.951907231131756" lon="15.04489373604716"><ele>366.0</ele><time>2026-04-04T12:09:08Z</time></trkpt><trkpt lat="36.95196018795339" lon="15.044963462252403"><ele>366.0</ele><time>2026-04-04T12:09:10Z</time></trkpt><trkpt lat="36.95200540185448" lon="15.045028428112671"><ele>366.0</ele><time>2026-04-04T12:09:12Z</time></trkpt><trkpt lat="36.952059136384875" lon="15.045093937623266"><ele>366.0</ele><time>2026-04-04T12:09:14Z</time></trkpt><trkpt lat="36.95211935672713" lon="15.045178814491445"><ele>365.6666666666667</ele><time>2026-04-04T12:09:17Z</time></trkpt><trkpt lat="36.952167927525736" lon="15.045247598407355"><ele>365.3333333333333</ele><time>2026-04-04T12:09:20Z</time></trkpt><trkpt lat="36.95214486092524" lon="15.045350798057859"><ele>365.0</ele><time>2026-04-04T12:11:01Z</time></trkpt><trkpt lat="36.95208816426214" lon="15.045433850605074"><ele>364.66666666666663</ele><time>2026-04-04T12:11:06Z</time></trkpt><trkpt lat="36.952054974956965" lon="15.045506333822495"><ele>364.3333333333333</ele><time>2026-04-04T12:11:07Z</time></trkpt><trkpt lat="36.951990969251504" lon="15.045598088726777"><ele>364.0</ele><time>2026-04-04T12:11:09Z</time></trkpt><trkpt lat="36.951920536879804" lon="15.045708731072194"><ele>364.0</ele><time>2026-04-04T12:11:11Z</time></trkpt><trkpt lat="36.951883532367695" lon="15.045775116328835"><ele>364.0</ele><time>2026-04-04T12:11:12Z</time></trkpt><trkpt lat="36.951811267383846" lon="15.045900170194873"><ele>364.0</ele><time>2026-04-04T12:11:14Z</time></trkpt><trkpt lat="36.95177132459917" lon="15.045974540070311"><ele>364.0</ele><time>2026-04-04T12:11:15Z</time></trkpt><trkpt lat="36.95171731169045" lon="15.046060342909078"><ele>364.0</ele><time>2026-04-04T12:11:16Z</time></trkpt><trkpt lat="36.951661027292936" lon="15.046147854357267"><ele>364.0</ele><time>2026-04-04T12:11:17Z</time></trkpt><trkpt lat="36.951602933653305" lon="15.046237915253045"><ele>364.4</ele><time>2026-04-04T12:11:18Z</time></trkpt><trkpt lat="36.95154367199225" lon="15.04632566066595"><ele>364.79999999999995</ele><time>2026-04-04T12:11:19Z</time></trkpt><trkpt lat="36.95147983935266" lon="15.046415975884901"><ele>365.20000000000005</ele><time>2026-04-04T12:11:20Z</time></trkpt><trkpt lat="36.95140755093364" lon="15.046480712961218"><ele>365.6</ele><time>2026-04-04T12:11:21Z</time></trkpt><trkpt lat="36.95132516699736" lon="15.046535650513938"><ele>366.0</ele><time>2026-04-04T12:11:22Z</time></trkpt><trkpt lat="36.95122922674599" lon="15.04659256406391"><ele>365.8</ele><time>2026-04-04T12:11:23Z</time></trkpt><trkpt lat="36.95112833917818" lon="15.046657195967986"><ele>365.6</ele><time>2026-04-04T12:11:24Z</time></trkpt><trkpt lat="36.95102473656774" lon="15.046722018309902"><ele>365.4</ele><time>2026-04-04T12:11:25Z</time></trkpt><trkpt lat="36.9509266496862" lon="15.04678520475852"><ele>365.2</ele><time>2026-04-04T12:11:26Z</time></trkpt><trkpt lat="36.9508322390975" lon="15.04684406407563"><ele>365.0</ele><time>2026-04-04T12:11:27Z</time></trkpt><trkpt lat="36.95074170846119" lon="15.046908730947322"><ele>364.75</ele><time>2026-04-04T12:11:28Z</time></trkpt><trkpt lat="36.95063685647795" lon="15.046972104930168"><ele>364.5</ele><time>2026-04-04T12:11:29Z</time></trkpt><trkpt lat="36.9505246635181" lon="15.047037879804929"><ele>364.25</ele><time>2026-04-04T12:11:30Z</time></trkpt><trkpt lat="36.95040815682731" lon="15.047107978964894"><ele>364.0</ele><time>2026-04-04T12:11:31Z</time></trkpt><trkpt lat="36.95029111006542" lon="15.047182112620717"><ele>364.0</ele><time>2026-04-04T12:11:32Z</time></trkpt><trkpt lat="36.95017208470895" lon="15.047263235747051"><ele>364.0</ele><time>2026-04-04T12:11:33Z</time></trkpt><trkpt lat="36.95004084628615" lon="15.0473480731782"><ele>364.0</ele><time>2026-04-04T12:11:34Z</time></trkpt><trkpt lat="36.94990724003114" lon="15.04743298672625"><ele>364.0</ele><time>2026-04-04T12:11:35Z</time></trkpt><trkpt lat="36.94977064449254" lon="15.047520116167297"><ele>362.66666666666663</ele><time>2026-04-04T12:11:36Z</time></trkpt><trkpt lat="36.949634813055624" lon="15.047606283325718"><ele>361.3333333333333</ele><time>2026-04-04T12:11:37Z</time></trkpt><trkpt lat="36.949499863365965" lon="15.047689788535077"><ele>360.0</ele><time>2026-04-04T12:11:38Z</time></trkpt><trkpt lat="36.949364643084714" lon="15.047768194807269"><ele>360.0</ele><time>2026-04-04T12:11:39Z</time></trkpt><trkpt lat="36.94923070583717" lon="15.047852505448146"><ele>360.0</ele><time>2026-04-04T12:11:40Z</time></trkpt><trkpt lat="36.94909702937872" lon="15.047938384392411"><ele>360.0</ele><time>2026-04-04T12:11:41Z</time></trkpt><trkpt lat="36.94896221803857" lon="15.048024103977845"><ele>358.3333333333333</ele><time>2026-04-04T12:11:42Z</time></trkpt><trkpt lat="36.94882268507317" lon="15.04811196762904"><ele>356.66666666666663</ele><time>2026-04-04T12:11:43Z</time></trkpt><trkpt lat="36.94868223813678" lon="15.048201811732353"><ele>355.0</ele><time>2026-04-04T12:11:44Z</time></trkpt><trkpt lat="36.94854154321791" lon="15.048291298973517"><ele>356.0</ele><time>2026-04-04T12:11:45Z</time></trkpt><trkpt lat="36.94839942153689" lon="15.048381740630482"><ele>357.0</ele><time>2026-04-04T12:11:46Z</time></trkpt><trkpt lat="36.94825839884079" lon="15.048472786456239"><ele>358.0</ele><time>2026-04-04T12:11:47Z</time></trkpt><trkpt lat="36.94811827835123" lon="15.048567945714622"><ele>355.66666666666663</ele><time>2026-04-04T12:11:48Z</time></trkpt><trkpt lat="36.94796995305876" lon="15.048656027661096"><ele>353.3333333333333</ele><time>2026-04-04T12:11:49Z</time></trkpt><trkpt lat="36.947824978427896" lon="15.048743563497275"><ele>351.0</ele><time>2026-04-04T12:11:50Z</time></trkpt><trkpt lat="36.947680330487586" lon="15.048837045797658"><ele>347.6666666666667</ele><time>2026-04-04T12:11:51Z</time></trkpt><trkpt lat="36.94753565078454" lon="15.048940561849326"><ele>344.33333333333337</ele><time>2026-04-04T12:11:52Z</time></trkpt><trkpt lat="36.9473864827432" lon="15.04903237625579"><ele>341.0</ele><time>2026-04-04T12:11:53Z</time></trkpt><trkpt lat="36.947240602714636" lon="15.049118420707156"><ele>341.6666666666667</ele><time>2026-04-04T12:11:54Z</time></trkpt><trkpt lat="36.947095792922795" lon="15.049214966065176"><ele>342.3333333333333</ele><time>2026-04-04T12:11:55Z</time></trkpt><trkpt lat="36.94695055610524" lon="15.049308126148446"><ele>343.0</ele><time>2026-04-04T12:11:56Z</time></trkpt><trkpt lat="36.94680402395238" lon="15.049397370883915"><ele>341.0</ele><time>2026-04-04T12:11:57Z</time></trkpt><trkpt lat="36.94665687305955" lon="15.049488535386825"><ele>339.0</ele><time>2026-04-04T12:11:58Z</time></trkpt><trkpt lat="36.94651148816529" lon="15.049577613036066"><ele>337.0</ele><time>2026-04-04T12:11:59Z</time></trkpt><trkpt lat="36.94636625444575" lon="15.049666151626251"><ele>337.0</ele><time>2026-04-04T12:12:00Z</time></trkpt><trkpt lat="36.946222063905026" lon="15.049755620218523"><ele>337.0</ele><time>2026-04-04T12:12:01Z</time></trkpt><trkpt lat="36.94607923826303" lon="15.049847210259516"><ele>337.0</ele><time>2026-04-04T12:12:02Z</time></trkpt><trkpt lat="36.94593550651254" lon="15.049941879433412"><ele>337.66666666666663</ele><time>2026-04-04T12:12:03Z</time></trkpt><trkpt lat="36.94579228750479" lon="15.050037205532178"><ele>338.3333333333333</ele><time>2026-04-04T12:12:04Z</time></trkpt><trkpt lat="36.94565511816907" lon="15.050142930381263"><ele>339.0</ele><time>2026-04-04T12:12:05Z</time></trkpt><trkpt lat="36.94552546200556" lon="15.050276177367495"><ele>339.0</ele><time>2026-04-04T12:12:06Z</time></trkpt><trkpt lat="36.94540916233377" lon="15.050415348063174"><ele>339.0</ele><time>2026-04-04T12:12:07Z</time></trkpt><trkpt lat="36.945285314590976" lon="15.050541038535592"><ele>339.0</ele><time>2026-04-04T12:12:08Z</time></trkpt><trkpt lat="36.945159160286885" lon="15.0506742095401"><ele>335.3333333333333</ele><time>2026-04-04T12:12:09Z</time></trkpt><trkpt lat="36.94503417739106" lon="15.050797750339894"><ele>331.66666666666663</ele><time>2026-04-04T12:12:10Z</time></trkpt><trkpt lat="36.94491290009524" lon="15.05090916951314"><ele>328.0</ele><time>2026-04-04T12:12:11Z</time></trkpt><trkpt lat="36.94478441134617" lon="15.050992291485661"><ele>328.0</ele><time>2026-04-04T12:12:12Z</time></trkpt><trkpt lat="36.94464879037876" lon="15.05104194432448"><ele>328.0</ele><time>2026-04-04T12:12:13Z</time></trkpt><trkpt lat="36.94450694009798" lon="15.051045494081183"><ele>328.0</ele><time>2026-04-04T12:12:14Z</time></trkpt><trkpt lat="36.944360858826016" lon="15.051026690652437"><ele>328.0</ele><time>2026-04-04T12:12:15Z</time></trkpt><trkpt lat="36.944209610029" lon="15.051017359298838"><ele>327.66666666666663</ele><time>2026-04-04T12:12:16Z</time></trkpt><trkpt lat="36.94405377652413" lon="15.051017841244093"><ele>327.3333333333333</ele><time>2026-04-04T12:12:17Z</time></trkpt><trkpt lat="36.9438939980091" lon="15.05101832420812"><ele>327.0</ele><time>2026-04-04T12:12:18Z</time></trkpt><trkpt lat="36.94374170350817" lon="15.051012850668785"><ele>327.0</ele><time>2026-04-04T12:12:19Z</time></trkpt><trkpt lat="36.94351112891842" lon="15.050988557018648"><ele>327.0</ele><time>2026-04-04T12:12:21Z</time></trkpt><trkpt lat="36.9434236556984" lon="15.05096771103732"><ele>327.0</ele><time>2026-04-04T12:12:22Z</time></trkpt><trkpt lat="36.94336900619148" lon="15.050888613762043"><ele>327.0</ele><time>2026-04-04T12:12:23Z</time></trkpt><trkpt lat="36.94337147972105" lon="15.050743508511234"><ele>327.75</ele><time>2026-04-04T12:12:24Z</time></trkpt><trkpt lat="36.943402381171786" lon="15.05061121412963"><ele>328.5</ele><time>2026-04-04T12:12:25Z</time></trkpt><trkpt lat="36.943460626994714" lon="15.0504616556263"><ele>329.25</ele><time>2026-04-04T12:12:26Z</time></trkpt><trkpt lat="36.94352787232371" lon="15.050307376039367"><ele>330.0</ele><time>2026-04-04T12:12:27Z</time></trkpt><trkpt lat="36.94360038275091" lon="15.050151482555876"><ele>330.0</ele><time>2026-04-04T12:12:28Z</time></trkpt><trkpt lat="36.943647919465675" lon="15.05002704261104"><ele>330.0</ele><time>2026-04-04T12:12:29Z</time></trkpt><trkpt lat="36.94364898427472" lon="15.049912968666074"><ele>330.0</ele><time>2026-04-04T12:12:30Z</time></trkpt><trkpt lat="36.9436084159469" lon="15.049803835201509"><ele>330.0</ele><time>2026-04-04T12:12:31Z</time></trkpt><trkpt lat="36.94353537624889" lon="15.04973991206441"><ele>330.0</ele><time>2026-04-04T12:12:32Z</time></trkpt><trkpt lat="36.94344972426271" lon="15.049738993855433"><ele>326.4</ele><time>2026-04-04T12:12:33Z</time></trkpt><trkpt lat="36.94337173478318" lon="15.04980052040597"><ele>322.8</ele><time>2026-04-04T12:12:34Z</time></trkpt><trkpt lat="36.9433229535164" lon="15.04992190248722"><ele>319.2</ele><time>2026-04-04T12:12:35Z</time></trkpt><trkpt lat="36.9433004108645" lon="15.050064425153867"><ele>315.6</ele><time>2026-04-04T12:12:36Z</time></trkpt><trkpt lat="36.943273622328434" lon="15.050221124268633"><ele>312.0</ele><time>2026-04-04T12:12:37Z</time></trkpt><trkpt lat="36.94323010567608" lon="15.050393356415249"><ele>311.75</ele><time>2026-04-04T12:12:38Z</time></trkpt><trkpt lat="36.94318403835435" lon="15.050573128286684"><ele>311.5</ele><time>2026-04-04T12:12:39Z</time></trkpt><trkpt lat="36.943136007641776" lon="15.050754402435425"><ele>311.25</ele><time>2026-04-04T12:12:40Z</time></trkpt><trkpt lat="36.943065095717415" lon="15.050892281599122"><ele>311.0</ele><time>2026-04-04T12:12:41Z</time></trkpt><trkpt lat="36.94295940041592" lon="15.050987687495375"><ele>312.0</ele><time>2026-04-04T12:12:42Z</time></trkpt><trkpt lat="36.94281729032284" lon="15.051042006709615"><ele>313.0</ele><time>2026-04-04T12:12:43Z</time></trkpt><trkpt lat="36.94267274631075" lon="15.051098172273798"><ele>314.0</ele><time>2026-04-04T12:12:44Z</time></trkpt><trkpt lat="36.94252956858984" lon="15.051166567228726"><ele>308.33333333333337</ele><time>2026-04-04T12:12:45Z</time></trkpt><trkpt lat="36.94237877371205" lon="15.051247262941999"><ele>302.6666666666667</ele><time>2026-04-04T12:12:46Z</time></trkpt><trkpt lat="36.94222316996998" lon="15.051339133025342"><ele>297.0</ele><time>2026-04-04T12:12:47Z</time></trkpt><trkpt lat="36.94209033239933" lon="15.051413178919137"><ele>297.0</ele><time>2026-04-04T12:12:48Z</time></trkpt><trkpt lat="36.94198479102731" lon="15.051431166583688"><ele>297.0</ele><time>2026-04-04T12:12:49Z</time></trkpt><trkpt lat="36.941892979322006" lon="15.051388617352325"><ele>297.0</ele><time>2026-04-04T12:12:50Z</time></trkpt><trkpt lat="36.941841863764054" lon="15.051283117000647"><ele>297.0</ele><time>2026-04-04T12:12:51Z</time></trkpt><trkpt lat="36.94184174147557" lon="15.051159834049152"><ele>297.0</ele><time>2026-04-04T12:12:52Z</time></trkpt><trkpt lat="36.94188120738535" lon="15.051024368393833"><ele>297.0</ele><time>2026-04-04T12:12:53Z</time></trkpt><trkpt lat="36.941937854387064" lon="15.050897622198477"><ele>297.0</ele><time>2026-04-04T12:12:54Z</time></trkpt><trkpt lat="36.941981419724705" lon="15.050760913295244"><ele>297.0</ele><time>2026-04-04T12:12:55Z</time></trkpt><trkpt lat="36.942019140762454" lon="15.050608635409848"><ele>297.0</ele><time>2026-04-04T12:12:56Z</time></trkpt><trkpt lat="36.94201332341451" lon="15.050475664585909"><ele>296.2</ele><time>2026-04-04T12:12:57Z</time></trkpt><trkpt lat="36.941950934156004" lon="15.050385867066757"><ele>295.4</ele><time>2026-04-04T12:12:58Z</time></trkpt><trkpt lat="36.94185048907866" lon="15.05034232864494"><ele>294.6</ele><time>2026-04-04T12:12:59Z</time></trkpt><trkpt lat="36.94173391378066" lon="15.050341168377068"><ele>293.8</ele><time>2026-04-04T12:13:00Z</time></trkpt><trkpt lat="36.94161439362777" lon="15.05034509685674"><ele>293.0</ele><time>2026-04-04T12:13:01Z</time></trkpt><trkpt lat="36.94148825336408" lon="15.05033482965064"><ele>296.25</ele><time>2026-04-04T12:13:02Z</time></trkpt><trkpt lat="36.9413552589777" lon="15.050313816216224"><ele>299.5</ele><time>2026-04-04T12:13:03Z</time></trkpt><trkpt lat="36.94120715829617" lon="15.05029155110411"><ele>302.75</ele><time>2026-04-04T12:13:04Z</time></trkpt><trkpt lat="36.941060316156815" lon="15.0502751246626"><ele>306.0</ele><time>2026-04-04T12:13:05Z</time></trkpt><trkpt lat="36.94090509229657" lon="15.05025075836176"><ele>309.6666666666667</ele><time>2026-04-04T12:13:06Z</time></trkpt><trkpt lat="36.940741600555434" lon="15.050229385084034"><ele>313.33333333333337</ele><time>2026-04-04T12:13:07Z</time></trkpt><trkpt lat="36.94058790252888" lon="15.05021182002736"><ele>317.0</ele><time>2026-04-04T12:13:08Z</time></trkpt><trkpt lat="36.94044849314897" lon="15.05023501907571"><ele>317.0</ele><time>2026-04-04T12:13:09Z</time></trkpt><trkpt lat="36.940332133576234" lon="15.050321040484587"><ele>317.0</ele><time>2026-04-04T12:13:10Z</time></trkpt><trkpt lat="36.940257604352354" lon="15.050451296942569"><ele>317.0</ele><time>2026-04-04T12:13:11Z</time></trkpt><trkpt lat="36.940234798651296" lon="15.050605271435979"><ele>317.0</ele><time>2026-04-04T12:13:12Z</time></trkpt><trkpt lat="36.940250536943054" lon="15.050763784730615"><ele>319.5</ele><time>2026-04-04T12:13:13Z</time></trkpt><trkpt lat="36.94026056781288" lon="15.050933150511066"><ele>322.0</ele><time>2026-04-04T12:13:14Z</time></trkpt><trkpt lat="36.94024919742538" lon="15.051111288371608"><ele>324.5</ele><time>2026-04-04T12:13:15Z</time></trkpt><trkpt lat="36.94025486546174" lon="15.05130224341236"><ele>327.0</ele><time>2026-04-04T12:13:16Z</time></trkpt><trkpt lat="36.940294877244355" lon="15.051496093709266"><ele>328.6666666666667</ele><time>2026-04-04T12:13:17Z</time></trkpt><trkpt lat="36.94036351323829" lon="15.05167231139435"><ele>330.33333333333337</ele><time>2026-04-04T12:13:18Z</time></trkpt><trkpt lat="36.9404570970405" lon="15.051809849081554"><ele>332.0</ele><time>2026-04-04T12:13:19Z</time></trkpt><trkpt lat="36.94052369504454" lon="15.051996179686604"><ele>332.0</ele><time>2026-04-04T12:13:20Z</time></trkpt><trkpt lat="36.94054587769473" lon="15.05207955201821"><ele>332.0</ele><time>2026-04-04T12:13:21Z</time></trkpt><trkpt lat="36.940483501378935" lon="15.052177826897415"><ele>332.0</ele><time>2026-04-04T12:13:22Z</time></trkpt><trkpt lat="36.94038749859542" lon="15.052254272018116"><ele>332.0</ele><time>2026-04-04T12:13:23Z</time></trkpt><trkpt lat="36.94027739661438" lon="15.052320202255002"><ele>332.0</ele><time>2026-04-04T12:13:24Z</time></trkpt><trkpt lat="36.9401682719075" lon="15.052408117226111"><ele>330.33333333333337</ele><time>2026-04-04T12:13:25Z</time></trkpt><trkpt lat="36.94005602886084" lon="15.05252506520418"><ele>328.6666666666667</ele><time>2026-04-04T12:13:26Z</time></trkpt><trkpt lat="36.93994448234864" lon="15.052670175546282"><ele>327.0</ele><time>2026-04-04T12:13:27Z</time></trkpt><trkpt lat="36.93983147015915" lon="15.052823281782219"><ele>327.0</ele><time>2026-04-04T12:13:28Z</time></trkpt><trkpt lat="36.93970876141184" lon="15.052982187116271"><ele>327.0</ele><time>2026-04-04T12:13:29Z</time></trkpt><trkpt lat="36.939580529172495" lon="15.053151516465883"><ele>327.0</ele><time>2026-04-04T12:13:30Z</time></trkpt><trkpt lat="36.9394550412446" lon="15.053326910707908"><ele>326.3333333333333</ele><time>2026-04-04T12:13:31Z</time></trkpt><trkpt lat="36.93933945736486" lon="15.053507943368407"><ele>325.66666666666663</ele><time>2026-04-04T12:13:32Z</time></trkpt><trkpt lat="36.939229970356344" lon="15.05367692887649"><ele>325.0</ele><time>2026-04-04T12:13:33Z</time></trkpt><trkpt lat="36.939121340261515" lon="15.053828521715225"><ele>325.0</ele><time>2026-04-04T12:13:34Z</time></trkpt><trkpt lat="36.93901537593365" lon="15.0539883282595"><ele>325.0</ele><time>2026-04-04T12:13:35Z</time></trkpt><trkpt lat="36.93890144786569" lon="15.054156850575351"><ele>325.0</ele><time>2026-04-04T12:13:36Z</time></trkpt><trkpt lat="36.93877120324953" lon="15.054317560544947"><ele>322.3333333333333</ele><time>2026-04-04T12:13:37Z</time></trkpt><trkpt lat="36.93862203749896" lon="15.054462881479365"><ele>319.6666666666667</ele><time>2026-04-04T12:13:38Z</time></trkpt><trkpt lat="36.938454959592065" lon="15.054593285328043"><ele>317.0</ele><time>2026-04-04T12:13:39Z</time></trkpt><trkpt lat="36.93828837667699" lon="15.054720678237576"><ele>317.0</ele><time>2026-04-04T12:13:40Z</time></trkpt><trkpt lat="36.9381286550969" lon="15.054851559793184"><ele>317.0</ele><time>2026-04-04T12:13:41Z</time></trkpt><trkpt lat="36.937978120927625" lon="15.054980715618973"><ele>317.0</ele><time>2026-04-04T12:13:42Z</time></trkpt><trkpt lat="36.93783598861336" lon="15.055117690606732"><ele>320.33333333333337</ele><time>2026-04-04T12:13:43Z</time></trkpt><trkpt lat="36.93770324657003" lon="15.055283684375674"><ele>323.6666666666667</ele><time>2026-04-04T12:13:44Z</time></trkpt><trkpt lat="36.93758245845335" lon="15.055477408778463"><ele>327.0</ele><time>2026-04-04T12:13:45Z</time></trkpt><trkpt lat="36.93747051399781" lon="15.055685957223815"><ele>328.3333333333333</ele><time>2026-04-04T12:13:46Z</time></trkpt><trkpt lat="36.937356550231975" lon="15.05589905529987"><ele>329.66666666666663</ele><time>2026-04-04T12:13:47Z</time></trkpt><trkpt lat="36.937241686783466" lon="15.056102620370273"><ele>331.0</ele><time>2026-04-04T12:13:48Z</time></trkpt><trkpt lat="36.937123177420254" lon="15.056314860975062"><ele>331.0</ele><time>2026-04-04T12:13:49Z</time></trkpt><trkpt lat="36.93700404295669" lon="15.056520578029552"><ele>331.0</ele><time>2026-04-04T12:13:50Z</time></trkpt><trkpt lat="36.93688223662907" lon="15.056722001890952"><ele>331.0</ele><time>2026-04-04T12:13:51Z</time></trkpt><trkpt lat="36.936765774322176" lon="15.056923008493738"><ele>329.66666666666663</ele><time>2026-04-04T12:13:52Z</time></trkpt><trkpt lat="36.93664831988011" lon="15.057124036835095"><ele>328.3333333333333</ele><time>2026-04-04T12:13:53Z</time></trkpt><trkpt lat="36.93653339553978" lon="15.057322614216304"><ele>327.0</ele><time>2026-04-04T12:13:54Z</time></trkpt><trkpt lat="36.93641931481515" lon="15.057519431120193"><ele>327.0</ele><time>2026-04-04T12:13:55Z</time></trkpt><trkpt lat="36.936309247955954" lon="15.05771861382468"><ele>327.0</ele><time>2026-04-04T12:13:56Z</time></trkpt><trkpt lat="36.93619283708681" lon="15.057913929538078"><ele>327.0</ele><time>2026-04-04T12:13:57Z</time></trkpt><trkpt lat="36.93607431516067" lon="15.058105435473728"><ele>325.6666666666667</ele><time>2026-04-04T12:13:58Z</time></trkpt><trkpt lat="36.9359516038598" lon="15.05829099631514"><ele>324.33333333333337</ele><time>2026-04-04T12:13:59Z</time></trkpt><trkpt lat="36.935821494684994" lon="15.058469741357152"><ele>323.0</ele><time>2026-04-04T12:14:00Z</time></trkpt><trkpt lat="36.935695184045464" lon="15.058656754047382"><ele>323.0</ele><time>2026-04-04T12:14:01Z</time></trkpt><trkpt lat="36.93555795470863" lon="15.058839556963651"><ele>323.0</ele><time>2026-04-04T12:14:02Z</time></trkpt><trkpt lat="36.935434366263486" lon="15.058997818252475"><ele>323.0</ele><time>2026-04-04T12:14:03Z</time></trkpt><trkpt lat="36.935302635667256" lon="15.059167733013233"><ele>324.0</ele><time>2026-04-04T12:14:04Z</time></trkpt><trkpt lat="36.93517250590362" lon="15.059337100648355"><ele>325.0</ele><time>2026-04-04T12:14:05Z</time></trkpt><trkpt lat="36.93504559140464" lon="15.059508913207265"><ele>326.0</ele><time>2026-04-04T12:14:06Z</time></trkpt><trkpt lat="36.9349192143626" lon="15.059685814146565"><ele>324.33333333333337</ele><time>2026-04-04T12:14:07Z</time></trkpt><trkpt lat="36.93479270057356" lon="15.059856860303876"><ele>322.6666666666667</ele><time>2026-04-04T12:14:08Z</time></trkpt><trkpt lat="36.93467181170215" lon="15.060021680823116"><ele>321.0</ele><time>2026-04-04T12:14:09Z</time></trkpt><trkpt lat="36.934556089598516" lon="15.06017583738651"><ele>321.0</ele><time>2026-04-04T12:14:10Z</time></trkpt><trkpt lat="36.934447506535484" lon="15.060330037709667"><ele>321.0</ele><time>2026-04-04T12:14:11Z</time></trkpt><trkpt lat="36.93435076727762" lon="15.060488987206893"><ele>321.0</ele><time>2026-04-04T12:14:12Z</time></trkpt><trkpt lat="36.93427583130268" lon="15.060660630467913"><ele>322.0</ele><time>2026-04-04T12:14:13Z</time></trkpt><trkpt lat="36.93423518787553" lon="15.06084916247785"><ele>323.0</ele><time>2026-04-04T12:14:14Z</time></trkpt><trkpt lat="36.934224679336005" lon="15.061059400239614"><ele>324.0</ele><time>2026-04-04T12:14:15Z</time></trkpt><trkpt lat="36.93421896808495" lon="15.061285654095876"><ele>319.0</ele><time>2026-04-04T12:14:16Z</time></trkpt><trkpt lat="36.93420549273741" lon="15.06151159646008"><ele>314.0</ele><time>2026-04-04T12:14:17Z</time></trkpt><trkpt lat="36.93417962252482" lon="15.061737150993876"><ele>309.0</ele><time>2026-04-04T12:14:18Z</time></trkpt><trkpt lat="36.93411565410714" lon="15.061965955705297"><ele>309.0</ele><time>2026-04-04T12:14:19Z</time></trkpt><trkpt lat="36.93404073763142" lon="15.062191286565477"><ele>309.0</ele><time>2026-04-04T12:14:20Z</time></trkpt><trkpt lat="36.93399979599338" lon="15.062413209451742"><ele>309.0</ele><time>2026-04-04T12:14:21Z</time></trkpt><trkpt lat="36.933976156163325" lon="15.06262287662228"><ele>310.25</ele><time>2026-04-04T12:14:22Z</time></trkpt><trkpt lat="36.93393402430834" lon="15.062809189698308"><ele>311.5</ele><time>2026-04-04T12:14:23Z</time></trkpt><trkpt lat="36.93387160057649" lon="15.062954167600232"><ele>312.75</ele><time>2026-04-04T12:14:24Z</time></trkpt><trkpt lat="36.93380507810984" lon="15.063068529167888"><ele>314.0</ele><time>2026-04-04T12:14:25Z</time></trkpt><trkpt lat="36.93372939958421" lon="15.063145276770886"><ele>314.0</ele><time>2026-04-04T12:14:26Z</time></trkpt><trkpt lat="36.933630585827466" lon="15.063175782684985"><ele>314.0</ele><time>2026-04-04T12:14:27Z</time></trkpt><trkpt lat="36.93353955360018" lon="15.06314995801014"><ele>314.0</ele><time>2026-04-04T12:14:28Z</time></trkpt><trkpt lat="36.93347333004787" lon="15.063060114203699"><ele>314.0</ele><time>2026-04-04T12:14:29Z</time></trkpt><trkpt lat="36.933435672937286" lon="15.062918727140922"><ele>314.0</ele><time>2026-04-04T12:14:30Z</time></trkpt><trkpt lat="36.933438487555236" lon="15.06275506601596"><ele>314.0</ele><time>2026-04-04T12:14:31Z</time></trkpt><trkpt lat="36.933476500633695" lon="15.062590484261607"><ele>314.0</ele><time>2026-04-04T12:14:32Z</time></trkpt><trkpt lat="36.93350341382283" lon="15.062414919545759"><ele>314.0</ele><time>2026-04-04T12:14:33Z</time></trkpt><trkpt lat="36.933504521615916" lon="15.062218205144084"><ele>314.0</ele><time>2026-04-04T12:14:34Z</time></trkpt><trkpt lat="36.933490458608915" lon="15.062015587608999"><ele>312.33333333333337</ele><time>2026-04-04T12:14:35Z</time></trkpt><trkpt lat="36.93347083570785" lon="15.061811182248718"><ele>310.6666666666667</ele><time>2026-04-04T12:14:36Z</time></trkpt><trkpt lat="36.93343053212319" lon="15.06164086813946"><ele>309.0</ele><time>2026-04-04T12:14:37Z</time></trkpt><trkpt lat="36.933336228793316" lon="15.06148549969643"><ele>306.25</ele><time>2026-04-04T12:14:38Z</time></trkpt><trkpt lat="36.933210050592606" lon="15.061368026742903"><ele>303.5</ele><time>2026-04-04T12:14:39Z</time></trkpt><trkpt lat="36.93307672467005" lon="15.061310084899532"><ele>300.75</ele><time>2026-04-04T12:14:40Z</time></trkpt><trkpt lat="36.93294764443273" lon="15.061325389649555"><ele>298.0</ele><time>2026-04-04T12:14:41Z</time></trkpt><trkpt lat="36.93282514170523" lon="15.061401779515913"><ele>298.0</ele><time>2026-04-04T12:14:42Z</time></trkpt><trkpt lat="36.93270454513487" lon="15.061507918852442"><ele>298.0</ele><time>2026-04-04T12:14:43Z</time></trkpt><trkpt lat="36.93256938428345" lon="15.061590552957307"><ele>298.0</ele><time>2026-04-04T12:14:44Z</time></trkpt><trkpt lat="36.93241019317673" lon="15.061632891667701"><ele>303.3333333333333</ele><time>2026-04-04T12:14:45Z</time></trkpt><trkpt lat="36.93224171619779" lon="15.061657774501507"><ele>308.6666666666667</ele><time>2026-04-04T12:14:46Z</time></trkpt><trkpt lat="36.93207800075127" lon="15.061710305559203"><ele>314.0</ele><time>2026-04-04T12:14:47Z</time></trkpt><trkpt lat="36.93190914434296" lon="15.061779962442568"><ele>314.0</ele><time>2026-04-04T12:14:48Z</time></trkpt><trkpt lat="36.931736078128395" lon="15.061852123078156"><ele>314.0</ele><time>2026-04-04T12:14:49Z</time></trkpt><trkpt lat="36.931567939957006" lon="15.06194279935786"><ele>314.0</ele><time>2026-04-04T12:14:50Z</time></trkpt><trkpt lat="36.93140639719219" lon="15.062054954309701"><ele>312.33333333333337</ele><time>2026-04-04T12:14:51Z</time></trkpt><trkpt lat="36.931246884147434" lon="15.062189683541511"><ele>310.6666666666667</ele><time>2026-04-04T12:14:52Z</time></trkpt><trkpt lat="36.931093258389886" lon="15.062334264073055"><ele>309.0</ele><time>2026-04-04T12:14:53Z</time></trkpt><trkpt lat="36.93093995639735" lon="15.062498769650892"><ele>313.3333333333333</ele><time>2026-04-04T12:14:54Z</time></trkpt><trkpt lat="36.93078960993539" lon="15.062670713438678"><ele>317.66666666666663</ele><time>2026-04-04T12:14:55Z</time></trkpt><trkpt lat="36.93064675181825" lon="15.062840426855796"><ele>322.0</ele><time>2026-04-04T12:14:56Z</time></trkpt><trkpt lat="36.930501795819424" lon="15.062999000467704"><ele>322.0</ele><time>2026-04-04T12:14:57Z</time></trkpt><trkpt lat="36.930372408410115" lon="15.063146665211988"><ele>322.0</ele><time>2026-04-04T12:14:58Z</time></trkpt><trkpt lat="36.93025024533847" lon="15.06328359303383"><ele>322.0</ele><time>2026-04-04T12:14:59Z</time></trkpt><trkpt lat="36.93013657310949" lon="15.063412464539699"><ele>322.75</ele><time>2026-04-04T12:15:00Z</time></trkpt><trkpt lat="36.93003340369325" lon="15.063536026001485"><ele>323.5</ele><time>2026-04-04T12:15:01Z</time></trkpt><trkpt lat="36.9299337474446" lon="15.06365022342088"><ele>324.25</ele><time>2026-04-04T12:15:02Z</time></trkpt><trkpt lat="36.929839761366004" lon="15.06375883199079"><ele>325.0</ele><time>2026-04-04T12:15:03Z</time></trkpt><trkpt lat="36.9297402520829" lon="15.063877546532673"><ele>325.0</ele><time>2026-04-04T12:15:04Z</time></trkpt><trkpt lat="36.92964603722621" lon="15.063977581647963"><ele>325.0</ele><time>2026-04-04T12:15:05Z</time></trkpt><trkpt lat="36.92955563663816" lon="15.064073414286808"><ele>325.0</ele><time>2026-04-04T12:15:06Z</time></trkpt><trkpt lat="36.929471520258694" lon="15.064144660820828"><ele>325.0</ele><time>2026-04-04T12:15:07Z</time></trkpt><trkpt lat="36.92937898579822" lon="15.064201091888945"><ele>325.0</ele><time>2026-04-04T12:15:08Z</time></trkpt><trkpt lat="36.92927745407974" lon="15.06423163421604"><ele>325.6</ele><time>2026-04-04T12:15:09Z</time></trkpt><trkpt lat="36.929178214834856" lon="15.064238692701615"><ele>326.2</ele><time>2026-04-04T12:15:10Z</time></trkpt><trkpt lat="36.92908062356455" lon="15.064206465931587"><ele>326.79999999999995</ele><time>2026-04-04T12:15:11Z</time></trkpt><trkpt lat="36.92898134120009" lon="15.06419471349972"><ele>327.4</ele><time>2026-04-04T12:15:12Z</time></trkpt><trkpt lat="36.92888358682183" lon="15.064180783965382"><ele>328.0</ele><time>2026-04-04T12:15:13Z</time></trkpt><trkpt lat="36.928778348555916" lon="15.064181879478495"><ele>328.0</ele><time>2026-04-04T12:15:14Z</time></trkpt><trkpt lat="36.928677111962" lon="15.064214334934148"><ele>328.0</ele><time>2026-04-04T12:15:15Z</time></trkpt><trkpt lat="36.928587086455465" lon="15.06428133054922"><ele>328.0</ele><time>2026-04-04T12:15:16Z</time></trkpt><trkpt lat="36.92850959793674" lon="15.064369933358545"><ele>328.0</ele><time>2026-04-04T12:15:17Z</time></trkpt><trkpt lat="36.92842865500719" lon="15.06446474723077"><ele>328.0</ele><time>2026-04-04T12:15:18Z</time></trkpt><trkpt lat="36.92833908849357" lon="15.064558330382884"><ele>328.5</ele><time>2026-04-04T12:15:19Z</time></trkpt><trkpt lat="36.92824428319426" lon="15.064653843255114"><ele>329.0</ele><time>2026-04-04T12:15:20Z</time></trkpt><trkpt lat="36.92814913556438" lon="15.06475144201911"><ele>329.5</ele><time>2026-04-04T12:15:21Z</time></trkpt><trkpt lat="36.928053181209876" lon="15.064849044085374"><ele>330.0</ele><time>2026-04-04T12:15:22Z</time></trkpt><trkpt lat="36.92796430348426" lon="15.064940914628957"><ele>329.8</ele><time>2026-04-04T12:15:23Z</time></trkpt><trkpt lat="36.92788027805791" lon="15.06502736850984"><ele>329.6</ele><time>2026-04-04T12:15:24Z</time></trkpt><trkpt lat="36.92778933998878" lon="15.065098146571007"><ele>329.4</ele><time>2026-04-04T12:15:25Z</time></trkpt><trkpt lat="36.92769649715286" lon="15.06515124803674"><ele>329.2</ele><time>2026-04-04T12:15:26Z</time></trkpt><trkpt lat="36.92759430717689" lon="15.065140365776111"><ele>329.0</ele><time>2026-04-04T12:15:27Z</time></trkpt><trkpt lat="36.92750096917314" lon="15.06507538825626"><ele>329.0</ele><time>2026-04-04T12:15:28Z</time></trkpt><trkpt lat="36.927425634502605" lon="15.064977390925675"><ele>329.0</ele><time>2026-04-04T12:15:29Z</time></trkpt><trkpt lat="36.927355794485464" lon="15.06487476008647"><ele>329.0</ele><time>2026-04-04T12:15:30Z</time></trkpt><trkpt lat="36.9272848109999" lon="15.064781346630625"><ele>329.0</ele><time>2026-04-04T12:15:31Z</time></trkpt><trkpt lat="36.927207824467345" lon="15.064685726610595"><ele>329.0</ele><time>2026-04-04T12:15:32Z</time></trkpt><trkpt lat="36.92711968959558" lon="15.064594572762125"><ele>327.5</ele><time>2026-04-04T12:15:33Z</time></trkpt><trkpt lat="36.927007131323016" lon="15.064525093166871"><ele>326.0</ele><time>2026-04-04T12:15:34Z</time></trkpt><trkpt lat="36.92687469801797" lon="15.06448402178944"><ele>324.5</ele><time>2026-04-04T12:15:35Z</time></trkpt><trkpt lat="36.92673159838473" lon="15.0644651342538"><ele>323.0</ele><time>2026-04-04T12:15:36Z</time></trkpt><trkpt lat="36.92658417682625" lon="15.064448611806203"><ele>321.0</ele><time>2026-04-04T12:15:37Z</time></trkpt><trkpt lat="36.926441527554864" lon="15.064455175744818"><ele>319.0</ele><time>2026-04-04T12:15:38Z</time></trkpt><trkpt lat="36.92629789833002" lon="15.064502826324222"><ele>317.0</ele><time>2026-04-04T12:15:39Z</time></trkpt><trkpt lat="36.92615889251414" lon="15.064586927121574"><ele>315.0</ele><time>2026-04-04T12:15:40Z</time></trkpt><trkpt lat="36.92603196063386" lon="15.064670736039751"><ele>315.0</ele><time>2026-04-04T12:15:41Z</time></trkpt><trkpt lat="36.92591701707522" lon="15.064735599616155"><ele>315.0</ele><time>2026-04-04T12:15:42Z</time></trkpt><trkpt lat="36.925797638644" lon="15.064776059427176"><ele>315.0</ele><time>2026-04-04T12:15:43Z</time></trkpt><trkpt lat="36.92566982602788" lon="15.064769771895234"><ele>315.0</ele><time>2026-04-04T12:15:44Z</time></trkpt><trkpt lat="36.925538884420426" lon="15.064732001530922"><ele>313.0</ele><time>2026-04-04T12:15:45Z</time></trkpt><trkpt lat="36.92540383059652" lon="15.064692911623698"><ele>311.0</ele><time>2026-04-04T12:15:46Z</time></trkpt><trkpt lat="36.92526862444789" lon="15.064653499398576"><ele>309.0</ele><time>2026-04-04T12:15:47Z</time></trkpt><trkpt lat="36.92513207472646" lon="15.064595003253606"><ele>307.0</ele><time>2026-04-04T12:15:48Z</time></trkpt><trkpt lat="36.924998429682404" lon="15.06451662143449"><ele>306.0</ele><time>2026-04-04T12:15:49Z</time></trkpt><trkpt lat="36.92487176315134" lon="15.064431044325865"><ele>305.0</ele><time>2026-04-04T12:15:50Z</time></trkpt><trkpt lat="36.92473819049426" lon="15.06435636970464"><ele>304.0</ele><time>2026-04-04T12:15:51Z</time></trkpt><trkpt lat="36.92460731620405" lon="15.064300355844052"><ele>303.0</ele><time>2026-04-04T12:15:52Z</time></trkpt><trkpt lat="36.9244691169092" lon="15.06424701843706"><ele>303.0</ele><time>2026-04-04T12:15:53Z</time></trkpt><trkpt lat="36.92433057962724" lon="15.064194470912565"><ele>303.0</ele><time>2026-04-04T12:15:54Z</time></trkpt><trkpt lat="36.924185913873885" lon="15.06414947684424"><ele>303.0</ele><time>2026-04-04T12:15:55Z</time></trkpt><trkpt lat="36.92404049594442" lon="15.064122761335998"><ele>303.0</ele><time>2026-04-04T12:15:56Z</time></trkpt><trkpt lat="36.92389219094716" lon="15.064109647213902"><ele>302.6666666666667</ele><time>2026-04-04T12:15:57Z</time></trkpt><trkpt lat="36.92374388130682" lon="15.064130503292738"><ele>302.33333333333337</ele><time>2026-04-04T12:15:58Z</time></trkpt><trkpt lat="36.92359541030267" lon="15.064178677001637"><ele>302.0</ele><time>2026-04-04T12:15:59Z</time></trkpt><trkpt lat="36.92345915485686" lon="15.064268611773981"><ele>298.75</ele><time>2026-04-04T12:16:00Z</time></trkpt><trkpt lat="36.92333414004511" lon="15.064370813365462"><ele>295.5</ele><time>2026-04-04T12:16:01Z</time></trkpt><trkpt lat="36.92320645159246" lon="15.064475200800258"><ele>292.25</ele><time>2026-04-04T12:16:02Z</time></trkpt><trkpt lat="36.9230735235273" lon="15.064554713447164"><ele>289.0</ele><time>2026-04-04T12:16:03Z</time></trkpt><trkpt lat="36.92294425652349" lon="15.064657781878585"><ele>289.0</ele><time>2026-04-04T12:16:04Z</time></trkpt><trkpt lat="36.92281176561418" lon="15.064756541487355"><ele>289.0</ele><time>2026-04-04T12:16:05Z</time></trkpt><trkpt lat="36.92267934557838" lon="15.064856238815565"><ele>289.0</ele><time>2026-04-04T12:16:06Z</time></trkpt><trkpt lat="36.92255063639699" lon="15.064956705190006"><ele>289.3333333333333</ele><time>2026-04-04T12:16:07Z</time></trkpt><trkpt lat="36.92241536281435" lon="15.065052510069327"><ele>289.6666666666667</ele><time>2026-04-04T12:16:08Z</time></trkpt><trkpt lat="36.92228335350489" lon="15.06514851787465"><ele>290.0</ele><time>2026-04-04T12:16:09Z</time></trkpt><trkpt lat="36.92215605858935" lon="15.065243084760276"><ele>290.0</ele><time>2026-04-04T12:16:10Z</time></trkpt><trkpt lat="36.922040652767386" lon="15.065328524742126"><ele>290.0</ele><time>2026-04-04T12:16:11Z</time></trkpt><trkpt lat="36.921943320248744" lon="15.065409539429277"><ele>290.0</ele><time>2026-04-04T12:16:12Z</time></trkpt><trkpt lat="36.921860775790854" lon="15.06548564518367"><ele>290.0</ele><time>2026-04-04T12:16:13Z</time></trkpt><trkpt lat="36.92179945077295" lon="15.065580446791566"><ele>290.0</ele><time>2026-04-04T12:16:14Z</time></trkpt><trkpt lat="36.921774813680045" lon="15.06569130326418"><ele>290.0</ele><time>2026-04-04T12:16:15Z</time></trkpt><trkpt lat="36.92175497911446" lon="15.065786015930783"><ele>290.0</ele><time>2026-04-04T12:16:16Z</time></trkpt><trkpt lat="36.921685717913455" lon="15.065837205141028"><ele>290.0</ele><time>2026-04-04T12:16:17Z</time></trkpt><trkpt lat="36.921615091240916" lon="15.06582326811728"><ele>290.0</ele><time>2026-04-04T12:16:18Z</time></trkpt><trkpt lat="36.92153372357033" lon="15.065789173187962"><ele>290.0</ele><time>2026-04-04T12:16:19Z</time></trkpt><trkpt lat="36.92144740671688" lon="15.065739058761134"><ele>289.8</ele><time>2026-04-04T12:16:20Z</time></trkpt><trkpt lat="36.92136971382296" lon="15.065689157798163"><ele>289.6</ele><time>2026-04-04T12:16:21Z</time></trkpt><trkpt lat="36.92128196630399" lon="15.065704471603722"><ele>289.4</ele><time>2026-04-04T12:16:22Z</time></trkpt><trkpt lat="36.92118088202187" lon="15.065773964151001"><ele>289.2</ele><time>2026-04-04T12:16:23Z</time></trkpt><trkpt lat="36.92109764981435" lon="15.065815883677367"><ele>289.0</ele><time>2026-04-04T12:16:24Z</time></trkpt><trkpt lat="36.921004425941426" lon="15.065862107802445"><ele>289.0</ele><time>2026-04-04T12:16:25Z</time></trkpt><trkpt lat="36.92090507106072" lon="15.0658914892351"><ele>289.0</ele><time>2026-04-04T12:16:26Z</time></trkpt><trkpt lat="36.920803381575716" lon="15.065894700348089"><ele>289.0</ele><time>2026-04-04T12:16:27Z</time></trkpt><trkpt lat="36.92070393433389" lon="15.065854049014947"><ele>289.0</ele><time>2026-04-04T12:16:28Z</time></trkpt><trkpt lat="36.92061331286485" lon="15.065782506215209"><ele>289.0</ele><time>2026-04-04T12:16:29Z</time></trkpt><trkpt lat="36.920516369723735" lon="15.065725751274968"><ele>286.4</ele><time>2026-04-04T12:16:30Z</time></trkpt><trkpt lat="36.920407738960336" lon="15.065715713887101"><ele>283.79999999999995</ele><time>2026-04-04T12:16:31Z</time></trkpt><trkpt lat="36.92030257656704" lon="15.065735617903556"><ele>281.20000000000005</ele><time>2026-04-04T12:16:32Z</time></trkpt><trkpt lat="36.920198458842044" lon="15.065762427326295"><ele>278.6</ele><time>2026-04-04T12:16:33Z</time></trkpt><trkpt lat="36.92009437750473" lon="15.065786610160115"><ele>276.0</ele><time>2026-04-04T12:16:34Z</time></trkpt><trkpt lat="36.91998970291272" lon="15.065803288887224"><ele>275.0</ele><time>2026-04-04T12:16:35Z</time></trkpt><trkpt lat="36.919882267083345" lon="15.0658181315199"><ele>274.0</ele><time>2026-04-04T12:16:36Z</time></trkpt><trkpt lat="36.91977386225638" lon="15.065843009593168"><ele>273.0</ele><time>2026-04-04T12:16:37Z</time></trkpt><trkpt lat="36.91966722015679" lon="15.065871426864534"><ele>272.0</ele><time>2026-04-04T12:16:38Z</time></trkpt><trkpt lat="36.91955948925437" lon="15.06589067492439"><ele>271.0</ele><time>2026-04-04T12:16:39Z</time></trkpt><trkpt lat="36.919454426073465" lon="15.06587965315109"><ele>271.0</ele><time>2026-04-04T12:16:40Z</time></trkpt><trkpt lat="36.91934809860463" lon="15.065829226788805"><ele>271.0</ele><time>2026-04-04T12:16:41Z</time></trkpt><trkpt lat="36.91925202743157" lon="15.06575936742901"><ele>271.0</ele><time>2026-04-04T12:16:42Z</time></trkpt><trkpt lat="36.91915707972527" lon="15.065686069895285"><ele>271.0</ele><time>2026-04-04T12:16:43Z</time></trkpt><trkpt lat="36.919052982473666" lon="15.065623015446977"><ele>266.0</ele><time>2026-04-04T12:16:44Z</time></trkpt><trkpt lat="36.9189450566005" lon="15.065557906572542"><ele>261.0</ele><time>2026-04-04T12:16:45Z</time></trkpt><trkpt lat="36.918832853678964" lon="15.065493899812163"><ele>256.0</ele><time>2026-04-04T12:16:46Z</time></trkpt><trkpt lat="36.91871645946822" lon="15.065429495910017"><ele>251.0</ele><time>2026-04-04T12:16:47Z</time></trkpt><trkpt lat="36.91859289099886" lon="15.065373363299262"><ele>251.0</ele><time>2026-04-04T12:16:48Z</time></trkpt><trkpt lat="36.91846323662154" lon="15.065346447451725"><ele>251.0</ele><time>2026-04-04T12:16:49Z</time></trkpt><trkpt lat="36.91832600199185" lon="15.065329852049214"><ele>251.0</ele><time>2026-04-04T12:16:50Z</time></trkpt><trkpt lat="36.91818576402165" lon="15.065334467413326"><ele>251.0</ele><time>2026-04-04T12:16:51Z</time></trkpt><trkpt lat="36.91804378958175" lon="15.065346665224107"><ele>251.75</ele><time>2026-04-04T12:16:52Z</time></trkpt><trkpt lat="36.91789662702789" lon="15.065358881069239"><ele>252.5</ele><time>2026-04-04T12:16:53Z</time></trkpt><trkpt lat="36.917749377887894" lon="15.065366880314924"><ele>253.25</ele><time>2026-04-04T12:16:54Z</time></trkpt><trkpt lat="36.917602911143966" lon="15.06537523896496"><ele>254.0</ele><time>2026-04-04T12:16:55Z</time></trkpt><trkpt lat="36.917455278882976" lon="15.06538097688352"><ele>250.33333333333334</ele><time>2026-04-04T12:16:56Z</time></trkpt><trkpt lat="36.91730068211039" lon="15.065376076079549"><ele>246.66666666666669</ele><time>2026-04-04T12:16:57Z</time></trkpt><trkpt lat="36.917146967104564" lon="15.065357761564412"><ele>243.0</ele><time>2026-04-04T12:16:58Z</time></trkpt><trkpt lat="36.916985730207415" lon="15.065309344874361"><ele>243.0</ele><time>2026-04-04T12:16:59Z</time></trkpt><trkpt lat="36.916837435034" lon="15.065240842243165"><ele>243.0</ele><time>2026-04-04T12:17:00Z</time></trkpt><trkpt lat="36.916688702760176" lon="15.065157714487391"><ele>243.0</ele><time>2026-04-04T12:17:01Z</time></trkpt><trkpt lat="36.91654278973396" lon="15.065085669024528"><ele>241.0</ele><time>2026-04-04T12:17:02Z</time></trkpt><trkpt lat="36.916399980097" lon="15.065012126125104"><ele>239.0</ele><time>2026-04-04T12:17:03Z</time></trkpt><trkpt lat="36.9162556206467" lon="15.06494341824839"><ele>237.0</ele><time>2026-04-04T12:17:04Z</time></trkpt><trkpt lat="36.91610349814767" lon="15.064883241943138"><ele>237.0</ele><time>2026-04-04T12:17:05Z</time></trkpt><trkpt lat="36.91594923126481" lon="15.06484627013328"><ele>237.0</ele><time>2026-04-04T12:17:06Z</time></trkpt><trkpt lat="36.91579288593878" lon="15.064825823881275"><ele>237.0</ele><time>2026-04-04T12:17:07Z</time></trkpt><trkpt lat="36.91563396740956" lon="15.064807220534679"><ele>232.66666666666669</ele><time>2026-04-04T12:17:08Z</time></trkpt><trkpt lat="36.91547205577478" lon="15.064806856161919"><ele>228.33333333333334</ele><time>2026-04-04T12:17:09Z</time></trkpt><trkpt lat="36.91531235519589" lon="15.064826972183614"><ele>224.0</ele><time>2026-04-04T12:17:10Z</time></trkpt><trkpt lat="36.915167089476036" lon="15.064867548849426"><ele>222.25</ele><time>2026-04-04T12:17:11Z</time></trkpt><trkpt lat="36.91503147696713" lon="15.064929310278217"><ele>220.5</ele><time>2026-04-04T12:17:12Z</time></trkpt><trkpt lat="36.91489709574704" lon="15.06498120050482"><ele>218.75</ele><time>2026-04-04T12:17:13Z</time></trkpt><trkpt lat="36.914757273546485" lon="15.065023178973927"><ele>217.0</ele><time>2026-04-04T12:17:14Z</time></trkpt><trkpt lat="36.914614870549386" lon="15.065035203908236"><ele>222.0</ele><time>2026-04-04T12:17:15Z</time></trkpt><trkpt lat="36.914471553317796" lon="15.065033790639967"><ele>227.0</ele><time>2026-04-04T12:17:16Z</time></trkpt><trkpt lat="36.91432665695627" lon="15.065037692744156"><ele>232.0</ele><time>2026-04-04T12:17:17Z</time></trkpt><trkpt lat="36.91419258306118" lon="15.06503392158658"><ele>237.0</ele><time>2026-04-04T12:17:18Z</time></trkpt><trkpt lat="36.91404971241849" lon="15.064995789190588"><ele>231.0</ele><time>2026-04-04T12:17:19Z</time></trkpt><trkpt lat="36.91391726246113" lon="15.064920187357767"><ele>225.0</ele><time>2026-04-04T12:17:20Z</time></trkpt><trkpt lat="36.91379831621016" lon="15.06483258605741"><ele>219.0</ele><time>2026-04-04T12:17:21Z</time></trkpt><trkpt lat="36.913676524931546" lon="15.064754899230387"><ele>213.0</ele><time>2026-04-04T12:17:22Z</time></trkpt><trkpt lat="36.913542853914436" lon="15.064699013221214"><ele>213.5</ele><time>2026-04-04T12:17:23Z</time></trkpt><trkpt lat="36.913401461330366" lon="15.064676975760687"><ele>214.0</ele><time>2026-04-04T12:17:24Z</time></trkpt><trkpt lat="36.91325479216278" lon="15.064678748009259"><ele>214.5</ele><time>2026-04-04T12:17:25Z</time></trkpt><trkpt lat="36.91310819079579" lon="15.064704628946604"><ele>215.0</ele><time>2026-04-04T12:17:26Z</time></trkpt><trkpt lat="36.91296224968204" lon="15.064750835235817"><ele>215.0</ele><time>2026-04-04T12:17:27Z</time></trkpt><trkpt lat="36.912814619352694" lon="15.064815351020977"><ele>215.0</ele><time>2026-04-04T12:17:28Z</time></trkpt><trkpt lat="36.91267298536157" lon="15.064886203674636"><ele>215.0</ele><time>2026-04-04T12:17:29Z</time></trkpt><trkpt lat="36.91253881048167" lon="15.064985992054647"><ele>217.33333333333334</ele><time>2026-04-04T12:17:30Z</time></trkpt><trkpt lat="36.912418241800424" lon="15.065106167149695"><ele>219.66666666666669</ele><time>2026-04-04T12:17:31Z</time></trkpt><trkpt lat="36.912306433060564" lon="15.065243532679647"><ele>222.0</ele><time>2026-04-04T12:17:32Z</time></trkpt><trkpt lat="36.91220647652004" lon="15.065391791420685"><ele>222.0</ele><time>2026-04-04T12:17:33Z</time></trkpt><trkpt lat="36.912110157941264" lon="15.065541551137724"><ele>222.0</ele><time>2026-04-04T12:17:34Z</time></trkpt><trkpt lat="36.912014596284564" lon="15.065688125553038"><ele>222.0</ele><time>2026-04-04T12:17:35Z</time></trkpt><trkpt lat="36.91191122874559" lon="15.065827068078175"><ele>219.33333333333331</ele><time>2026-04-04T12:17:36Z</time></trkpt><trkpt lat="36.9117921275271" lon="15.065946171705999"><ele>216.66666666666666</ele><time>2026-04-04T12:17:37Z</time></trkpt><trkpt lat="36.91166475385697" lon="15.066049908584306"><ele>214.0</ele><time>2026-04-04T12:17:38Z</time></trkpt><trkpt lat="36.911531324006084" lon="15.06614363006336"><ele>214.0</ele><time>2026-04-04T12:17:39Z</time></trkpt><trkpt lat="36.911395230539846" lon="15.066236774632808"><ele>214.0</ele><time>2026-04-04T12:17:40Z</time></trkpt><trkpt lat="36.9112557399352" lon="15.066324505099958"><ele>214.0</ele><time>2026-04-04T12:17:41Z</time></trkpt><trkpt lat="36.91111621448891" lon="15.066417997394513"><ele>214.0</ele><time>2026-04-04T12:17:42Z</time></trkpt><trkpt lat="36.91097958642232" lon="15.066511470119831"><ele>214.0</ele><time>2026-04-04T12:17:43Z</time></trkpt><trkpt lat="36.91084782891882" lon="15.066604491481572"><ele>214.0</ele><time>2026-04-04T12:17:44Z</time></trkpt><trkpt lat="36.91071905697078" lon="15.06669552433444"><ele>213.66666666666666</ele><time>2026-04-04T12:17:45Z</time></trkpt><trkpt lat="36.910606563905006" lon="15.066812918313794"><ele>213.33333333333331</ele><time>2026-04-04T12:17:46Z</time></trkpt><trkpt lat="36.910511985154805" lon="15.066961360492837"><ele>213.0</ele><time>2026-04-04T12:17:47Z</time></trkpt><trkpt lat="36.91042312089595" lon="15.067123907220113"><ele>213.0</ele><time>2026-04-04T12:17:48Z</time></trkpt><trkpt lat="36.91033640304726" lon="15.067288262016664"><ele>213.0</ele><time>2026-04-04T12:17:49Z</time></trkpt><trkpt lat="36.91024734400604" lon="15.06745390346048"><ele>213.0</ele><time>2026-04-04T12:17:50Z</time></trkpt><trkpt lat="36.91016050953318" lon="15.067617317009562"><ele>214.0</ele><time>2026-04-04T12:17:51Z</time></trkpt><trkpt lat="36.91007633876896" lon="15.067770276336534"><ele>215.0</ele><time>2026-04-04T12:17:52Z</time></trkpt><trkpt lat="36.90997255483648" lon="15.067880293906368"><ele>216.0</ele><time>2026-04-04T12:17:53Z</time></trkpt><trkpt lat="36.90984502842992" lon="15.067968217767412"><ele>217.0</ele><time>2026-04-04T12:17:54Z</time></trkpt><trkpt lat="36.909713211439225" lon="15.068042495285479"><ele>214.5</ele><time>2026-04-04T12:17:55Z</time></trkpt><trkpt lat="36.90957881097802" lon="15.068118350591009"><ele>212.0</ele><time>2026-04-04T12:17:56Z</time></trkpt><trkpt lat="36.90944176652383" lon="15.068196468023762"><ele>209.5</ele><time>2026-04-04T12:17:57Z</time></trkpt><trkpt lat="36.90930534160628" lon="15.068272643436202"><ele>207.0</ele><time>2026-04-04T12:17:58Z</time></trkpt><trkpt lat="36.9091687859031" lon="15.068349046967674"><ele>206.33333333333331</ele><time>2026-04-04T12:17:59Z</time></trkpt><trkpt lat="36.90902945119773" lon="15.068429769737381"><ele>205.66666666666666</ele><time>2026-04-04T12:18:00Z</time></trkpt><trkpt lat="36.90889270881462" lon="15.06850688038951"><ele>205.0</ele><time>2026-04-04T12:18:01Z</time></trkpt><trkpt lat="36.908750638508174" lon="15.068585273726374"><ele>205.0</ele><time>2026-04-04T12:18:02Z</time></trkpt><trkpt lat="36.90860504466488" lon="15.068658739069095"><ele>205.0</ele><time>2026-04-04T12:18:03Z</time></trkpt><trkpt lat="36.90845888395816" lon="15.06872292527198"><ele>205.0</ele><time>2026-04-04T12:18:04Z</time></trkpt><trkpt lat="36.90830545791153" lon="15.068770069084568"><ele>202.0</ele><time>2026-04-04T12:18:05Z</time></trkpt><trkpt lat="36.90814949389848" lon="15.068805173725446"><ele>199.0</ele><time>2026-04-04T12:18:06Z</time></trkpt><trkpt lat="36.90799432826762" lon="15.068833796550129"><ele>196.0</ele><time>2026-04-04T12:18:07Z</time></trkpt><trkpt lat="36.90784154484089" lon="15.068863485544533"><ele>196.0</ele><time>2026-04-04T12:18:08Z</time></trkpt><trkpt lat="36.90768843559222" lon="15.068890459444916"><ele>196.0</ele><time>2026-04-04T12:18:09Z</time></trkpt><trkpt lat="36.9075318327504" lon="15.068922814066157"><ele>196.0</ele><time>2026-04-04T12:18:10Z</time></trkpt><trkpt lat="36.90737191121912" lon="15.068954464208119"><ele>192.66666666666666</ele><time>2026-04-04T12:18:11Z</time></trkpt><trkpt lat="36.907207040123325" lon="15.068978260323002"><ele>189.33333333333331</ele><time>2026-04-04T12:18:12Z</time></trkpt><trkpt lat="36.907042862173604" lon="15.068987378703712"><ele>186.0</ele><time>2026-04-04T12:18:13Z</time></trkpt><trkpt lat="36.90688292881679" lon="15.068999298342431"><ele>186.0</ele><time>2026-04-04T12:18:14Z</time></trkpt><trkpt lat="36.90674739811564" lon="15.068991548532566"><ele>186.0</ele><time>2026-04-04T12:18:15Z</time></trkpt><trkpt lat="36.906595247077384" lon="15.06900187116762"><ele>186.0</ele><time>2026-04-04T12:18:16Z</time></trkpt><trkpt lat="36.90645951994342" lon="15.069025204845262"><ele>186.0</ele><time>2026-04-04T12:18:17Z</time></trkpt><trkpt lat="36.906319320591194" lon="15.069019291699133"><ele>185.5</ele><time>2026-04-04T12:18:18Z</time></trkpt><trkpt lat="36.90618351824414" lon="15.069021780545611"><ele>185.0</ele><time>2026-04-04T12:18:19Z</time></trkpt><trkpt lat="36.906052572297575" lon="15.069028230069017"><ele>184.5</ele><time>2026-04-04T12:18:20Z</time></trkpt><trkpt lat="36.90591626607624" lon="15.069037298501513"><ele>184.0</ele><time>2026-04-04T12:18:21Z</time></trkpt><trkpt lat="36.905793402639446" lon="15.06903180827492"><ele>184.0</ele><time>2026-04-04T12:18:22Z</time></trkpt><trkpt lat="36.90565970896652" lon="15.06901420460409"><ele>184.0</ele><time>2026-04-04T12:18:23Z</time></trkpt><trkpt lat="36.905587190776615" lon="15.06893220041436"><ele>184.0</ele><time>2026-04-04T12:18:24Z</time></trkpt><trkpt lat="36.905382979411975" lon="15.068972547475536"><ele>184.0</ele><time>2026-04-04T12:18:25Z</time></trkpt><trkpt lat="36.90522255410289" lon="15.068936794069389"><ele>184.0</ele><time>2026-04-04T12:18:26Z</time></trkpt><trkpt lat="36.90509305307795" lon="15.068954169349963"><ele>184.0</ele><time>2026-04-04T12:18:27Z</time></trkpt><trkpt lat="36.90495428854018" lon="15.068945859608032"><ele>184.0</ele><time>2026-04-04T12:18:28Z</time></trkpt><trkpt lat="36.904815552997285" lon="15.068938871682265"><ele>184.0</ele><time>2026-04-04T12:18:29Z</time></trkpt><trkpt lat="36.90467813563661" lon="15.068932937581359"><ele>182.75</ele><time>2026-04-04T12:18:30Z</time></trkpt><trkpt lat="36.904547973480184" lon="15.06891519407297"><ele>181.5</ele><time>2026-04-04T12:18:31Z</time></trkpt><trkpt lat="36.904421237103314" lon="15.068877915097415"><ele>180.25</ele><time>2026-04-04T12:18:32Z</time></trkpt><trkpt lat="36.90429610025501" lon="15.068820736737688"><ele>179.0</ele><time>2026-04-04T12:18:33Z</time></trkpt><trkpt lat="36.90417676872442" lon="15.068758770028701"><ele>178.5</ele><time>2026-04-04T12:18:34Z</time></trkpt><trkpt lat="36.90405513341005" lon="15.068690628187015"><ele>178.0</ele><time>2026-04-04T12:18:35Z</time></trkpt><trkpt lat="36.90393313617947" lon="15.068632777036498"><ele>177.5</ele><time>2026-04-04T12:18:36Z</time></trkpt><trkpt lat="36.90381720961377" lon="15.06856949327129"><ele>177.0</ele><time>2026-04-04T12:18:37Z</time></trkpt><trkpt lat="36.903699527038476" lon="15.068510998213632"><ele>177.0</ele><time>2026-04-04T12:18:38Z</time></trkpt><trkpt lat="36.90357645881357" lon="15.06845235884082"><ele>177.0</ele><time>2026-04-04T12:18:39Z</time></trkpt><trkpt lat="36.903454798007935" lon="15.068389353860558"><ele>177.0</ele><time>2026-04-04T12:18:40Z</time></trkpt><trkpt lat="36.90333384454281" lon="15.068327960985414"><ele>177.0</ele><time>2026-04-04T12:18:41Z</time></trkpt><trkpt lat="36.90321136218555" lon="15.06826952499551"><ele>177.25</ele><time>2026-04-04T12:18:42Z</time></trkpt><trkpt lat="36.903089006466274" lon="15.068209667187674"><ele>177.5</ele><time>2026-04-04T12:18:43Z</time></trkpt><trkpt lat="36.90296768330693" lon="15.068149672662354"><ele>177.75</ele><time>2026-04-04T12:18:44Z</time></trkpt><trkpt lat="36.90285012786959" lon="15.068090363104075"><ele>178.0</ele><time>2026-04-04T12:18:45Z</time></trkpt><trkpt lat="36.902732046925415" lon="15.068030429490804"><ele>178.0</ele><time>2026-04-04T12:18:46Z</time></trkpt><trkpt lat="36.90261759866494" lon="15.067982259511744"><ele>178.0</ele><time>2026-04-04T12:18:47Z</time></trkpt><trkpt lat="36.90251079937565" lon="15.067929789716816"><ele>178.0</ele><time>2026-04-04T12:18:48Z</time></trkpt><trkpt lat="36.90240017187842" lon="15.067891183596238"><ele>178.0</ele><time>2026-04-04T12:18:49Z</time></trkpt><trkpt lat="36.902279731574694" lon="15.067872727097944"><ele>178.25</ele><time>2026-04-04T12:18:50Z</time></trkpt><trkpt lat="36.90215789190723" lon="15.067883920458131"><ele>178.5</ele><time>2026-04-04T12:18:51Z</time></trkpt><trkpt lat="36.90203027951144" lon="15.067901053456014"><ele>178.75</ele><time>2026-04-04T12:18:52Z</time></trkpt><trkpt lat="36.901897693741546" lon="15.067928018622423"><ele>179.0</ele><time>2026-04-04T12:18:53Z</time></trkpt><trkpt lat="36.90177303924629" lon="15.067964655413249"><ele>178.79999999999998</ele><time>2026-04-04T12:18:54Z</time></trkpt><trkpt lat="36.90164836447908" lon="15.067997077283614"><ele>178.6</ele><time>2026-04-04T12:18:55Z</time></trkpt><trkpt lat="36.90153124671679" lon="15.068021062157145"><ele>178.4</ele><time>2026-04-04T12:18:56Z</time></trkpt><trkpt lat="36.90142662293271" lon="15.06804616310957"><ele>178.2</ele><time>2026-04-04T12:18:57Z</time></trkpt><trkpt lat="36.901333135501524" lon="15.068069235870619"><ele>178.0</ele><time>2026-04-04T12:18:58Z</time></trkpt><trkpt lat="36.90124767435587" lon="15.068079856658766"><ele>178.0</ele><time>2026-04-04T12:18:59Z</time></trkpt><trkpt lat="36.90116006374666" lon="15.068108127816739"><ele>178.0</ele><time>2026-04-04T12:19:00Z</time></trkpt><trkpt lat="36.90108078730474" lon="15.0681260532477"><ele>178.0</ele><time>2026-04-04T12:19:01Z</time></trkpt><trkpt lat="36.901010365660945" lon="15.068134562885257"><ele>178.0</ele><time>2026-04-04T12:19:02Z</time></trkpt><trkpt lat="36.90094212120336" lon="15.068130979523401"><ele>178.0</ele><time>2026-04-04T12:19:03Z</time></trkpt><trkpt lat="36.90087353827442" lon="15.068181849888964"><ele>178.0</ele><time>2026-04-04T12:19:04Z</time></trkpt><trkpt lat="36.90080011650373" lon="15.06825934510578"><ele>177.75</ele><time>2026-04-04T12:19:05Z</time></trkpt><trkpt lat="36.900689854379856" lon="15.068301007356986"><ele>177.5</ele><time>2026-04-04T12:19:06Z</time></trkpt><trkpt lat="36.90057524148214" lon="15.068340964365825"><ele>177.25</ele><time>2026-04-04T12:19:07Z</time></trkpt><trkpt lat="36.90046313042104" lon="15.068409659386434"><ele>177.0</ele><time>2026-04-04T12:19:08Z</time></trkpt><trkpt lat="36.90037656613122" lon="15.068591274745328"><ele>177.0</ele><time>2026-04-04T12:19:09Z</time></trkpt><trkpt lat="36.90023619521721" lon="15.068747969303564"><ele>177.0</ele><time>2026-04-04T12:19:10Z</time></trkpt><trkpt lat="36.90012769173321" lon="15.06890860610326"><ele>177.0</ele><time>2026-04-04T12:19:11Z</time></trkpt><trkpt lat="36.900005787687476" lon="15.06902506197692"><ele>177.5</ele><time>2026-04-04T12:19:12Z</time></trkpt><trkpt lat="36.899888272334366" lon="15.069160528178699"><ele>178.0</ele><time>2026-04-04T12:19:13Z</time></trkpt><trkpt lat="36.899808392316906" lon="15.069292520547855"><ele>178.5</ele><time>2026-04-04T12:19:14Z</time></trkpt><trkpt lat="36.89971589385577" lon="15.069417351681315"><ele>179.0</ele><time>2026-04-04T12:19:15Z</time></trkpt><trkpt lat="36.89960899636192" lon="15.069522443740267"><ele>179.0</ele><time>2026-04-04T12:19:16Z</time></trkpt><trkpt lat="36.89951585416469" lon="15.069626720121638"><ele>179.0</ele><time>2026-04-04T12:19:17Z</time></trkpt><trkpt lat="36.899429349967114" lon="15.069741759394109"><ele>179.0</ele><time>2026-04-04T12:19:18Z</time></trkpt><trkpt lat="36.89933433063423" lon="15.069849077769426"><ele>179.0</ele><time>2026-04-04T12:19:19Z</time></trkpt><trkpt lat="36.89923748585123" lon="15.06995205847505"><ele>178.75</ele><time>2026-04-04T12:19:20Z</time></trkpt><trkpt lat="36.89914300894188" lon="15.07006487649409"><ele>178.5</ele><time>2026-04-04T12:19:21Z</time></trkpt><trkpt lat="36.89904473298275" lon="15.07017415978915"><ele>178.25</ele><time>2026-04-04T12:19:22Z</time></trkpt><trkpt lat="36.89894786845125" lon="15.070283035756136"><ele>178.0</ele><time>2026-04-04T12:19:23Z</time></trkpt><trkpt lat="36.89885458637822" lon="15.070395751980243"><ele>178.0</ele><time>2026-04-04T12:19:24Z</time></trkpt><trkpt lat="36.89875574061473" lon="15.070505770243846"><ele>178.0</ele><time>2026-04-04T12:19:25Z</time></trkpt><trkpt lat="36.89865921963887" lon="15.070621600189352"><ele>178.0</ele><time>2026-04-04T12:19:26Z</time></trkpt><trkpt lat="36.89855597201624" lon="15.070736372389552"><ele>178.0</ele><time>2026-04-04T12:19:27Z</time></trkpt><trkpt lat="36.89845984446669" lon="15.070857341786787"><ele>177.75</ele><time>2026-04-04T12:19:28Z</time></trkpt><trkpt lat="36.89835857767894" lon="15.07097908594474"><ele>177.5</ele><time>2026-04-04T12:19:29Z</time></trkpt><trkpt lat="36.89825292063565" lon="15.071103836845124"><ele>177.25</ele><time>2026-04-04T12:19:30Z</time></trkpt><trkpt lat="36.89815199842362" lon="15.071220113158521"><ele>177.0</ele><time>2026-04-04T12:19:31Z</time></trkpt><trkpt lat="36.89805968564299" lon="15.071323478412369"><ele>177.0</ele><time>2026-04-04T12:19:32Z</time></trkpt><trkpt lat="36.8979759480163" lon="15.071414232607475"><ele>177.0</ele><time>2026-04-04T12:19:33Z</time></trkpt><trkpt lat="36.8978980078482" lon="15.071495052251755"><ele>177.0</ele><time>2026-04-04T12:19:34Z</time></trkpt><trkpt lat="36.897835028668595" lon="15.071572312759729"><ele>177.0</ele><time>2026-04-04T12:19:35Z</time></trkpt><trkpt lat="36.89777930446171" lon="15.071631900272633"><ele>177.0</ele><time>2026-04-04T12:19:36Z</time></trkpt><trkpt lat="36.8977301249295" lon="15.071688688145592"><ele>177.0</ele><time>2026-04-04T12:19:37Z</time></trkpt><trkpt lat="36.897691737629295" lon="15.071756403871927"><ele>177.0</ele><time>2026-04-04T12:19:38Z</time></trkpt><trkpt lat="36.89762029641545" lon="15.071809540109914"><ele>177.0</ele><time>2026-04-04T12:19:40Z</time></trkpt><trkpt lat="36.89755571410329" lon="15.07187918494825"><ele>177.0</ele><time>2026-04-04T12:19:43Z</time></trkpt><trkpt lat="36.89749333087517" lon="15.071943039038036"><ele>177.0</ele><time>2026-04-04T12:19:46Z</time></trkpt><trkpt lat="36.89743754974845" lon="15.072013676095766"><ele>177.0</ele><time>2026-04-04T12:19:49Z</time></trkpt><trkpt lat="36.89736532908803" lon="15.072101170177513"><ele>177.0</ele><time>2026-04-04T12:19:52Z</time></trkpt><trkpt lat="36.89730031697898" lon="15.072166490076004"><ele>176.5</ele><time>2026-04-04T12:19:54Z</time></trkpt><trkpt lat="36.89723702066398" lon="15.072220938106788"><ele>176.0</ele><time>2026-04-04T12:19:56Z</time></trkpt><trkpt lat="36.89718403592043" lon="15.072308233498042"><ele>175.5</ele><time>2026-04-04T12:19:58Z</time></trkpt><trkpt lat="36.89709412989525" lon="15.072418427954819"><ele>175.0</ele><time>2026-04-04T12:20:00Z</time></trkpt><trkpt lat="36.89704614872576" lon="15.072493488564888"><ele>174.5</ele><time>2026-04-04T12:20:01Z</time></trkpt><trkpt lat="36.897018809186406" lon="15.072582658872461"><ele>174.0</ele><time>2026-04-04T12:20:02Z</time></trkpt><trkpt lat="36.89698636664111" lon="15.072680502236071"><ele>173.39999999999998</ele><time>2026-04-04T12:20:03Z</time></trkpt><trkpt lat="36.89695532663858" lon="15.072792482340297"><ele>172.8</ele><time>2026-04-04T12:20:04Z</time></trkpt><trkpt lat="36.89691105765676" lon="15.07288201766217"><ele>172.2</ele><time>2026-04-04T12:20:05Z</time></trkpt><trkpt lat="36.8968695392136" lon="15.073032753347281"><ele>171.60000000000002</ele><time>2026-04-04T12:20:06Z</time></trkpt><trkpt lat="36.89682789063335" lon="15.073163842558328"><ele>171.0</ele><time>2026-04-04T12:20:07Z</time></trkpt><trkpt lat="36.89678687759439" lon="15.07328250406625"><ele>171.4</ele><time>2026-04-04T12:20:08Z</time></trkpt><trkpt lat="36.89673270938214" lon="15.073399761103802"><ele>171.8</ele><time>2026-04-04T12:20:09Z</time></trkpt><trkpt lat="36.896672223245176" lon="15.073508454545399"><ele>172.20000000000002</ele><time>2026-04-04T12:20:10Z</time></trkpt><trkpt lat="36.89661372764929" lon="15.0736292976802"><ele>172.60000000000002</ele><time>2026-04-04T12:20:11Z</time></trkpt><trkpt lat="36.89658647616696" lon="15.073726900304761"><ele>173.0</ele><time>2026-04-04T12:20:12Z</time></trkpt><trkpt lat="36.896531357489536" lon="15.073880772327735"><ele>173.0</ele><time>2026-04-04T12:20:13Z</time></trkpt><trkpt lat="36.896452230549" lon="15.073986779437606"><ele>173.0</ele><time>2026-04-04T12:20:14Z</time></trkpt><trkpt lat="36.896370972713505" lon="15.074081542364938"><ele>173.0</ele><time>2026-04-04T12:20:15Z</time></trkpt><trkpt lat="36.89631271948551" lon="15.074201066336308"><ele>173.0</ele><time>2026-04-04T12:20:16Z</time></trkpt><trkpt lat="36.89625214122574" lon="15.074319681147239"><ele>171.60000000000002</ele><time>2026-04-04T12:20:17Z</time></trkpt><trkpt lat="36.89618472763144" lon="15.074425594682953"><ele>170.20000000000002</ele><time>2026-04-04T12:20:18Z</time></trkpt><trkpt lat="36.89611643703041" lon="15.0745329715854"><ele>168.8</ele><time>2026-04-04T12:20:19Z</time></trkpt><trkpt lat="36.89606460901574" lon="15.074635249958238"><ele>167.4</ele><time>2026-04-04T12:20:20Z</time></trkpt><trkpt lat="36.896020547086366" lon="15.074732793404813"><ele>166.0</ele><time>2026-04-04T12:20:21Z</time></trkpt><trkpt lat="36.89598629970668" lon="15.07483274681313"><ele>166.0</ele><time>2026-04-04T12:20:22Z</time></trkpt><trkpt lat="36.89596031274868" lon="15.0749181447865"><ele>166.0</ele><time>2026-04-04T12:20:23Z</time></trkpt><trkpt lat="36.89588985432778" lon="15.07502991333748"><ele>166.0</ele><time>2026-04-04T12:20:25Z</time></trkpt><trkpt lat="36.89581272637493" lon="15.075009910446362"><ele>166.0</ele><time>2026-04-04T12:20:26Z</time></trkpt><trkpt lat="36.89573990888528" lon="15.074954887205275"><ele>166.0</ele><time>2026-04-04T12:20:27Z</time></trkpt><trkpt lat="36.89564552247301" lon="15.07490937579968"><ele>166.83333333333334</ele><time>2026-04-04T12:20:28Z</time></trkpt><trkpt lat="36.89555906959386" lon="15.074874867627232"><ele>167.66666666666669</ele><time>2026-04-04T12:20:29Z</time></trkpt><trkpt lat="36.89546544817032" lon="15.074858639222978"><ele>168.5</ele><time>2026-04-04T12:20:30Z</time></trkpt><trkpt lat="36.89538788060685" lon="15.074833417710645"><ele>169.33333333333334</ele><time>2026-04-04T12:20:31Z</time></trkpt><trkpt lat="36.8953055591477" lon="15.074805895777438"><ele>170.16666666666666</ele><time>2026-04-04T12:20:32Z</time></trkpt><trkpt lat="36.89523401830716" lon="15.074784843944771"><ele>171.0</ele><time>2026-04-04T12:20:33Z</time></trkpt><trkpt lat="36.89516385725933" lon="15.074770951796879"><ele>171.0</ele><time>2026-04-04T12:20:34Z</time></trkpt><trkpt lat="36.89509244949513" lon="15.074759277422398"><ele>171.0</ele><time>2026-04-04T12:20:35Z</time></trkpt><trkpt lat="36.89496768244974" lon="15.074703727129105"><ele>171.0</ele><time>2026-04-04T12:20:37Z</time></trkpt><trkpt lat="36.894901982584905" lon="15.074681679950304"><ele>171.0</ele><time>2026-04-04T12:20:38Z</time></trkpt><trkpt lat="36.894769777964605" lon="15.074661416169173"><ele>171.0</ele><time>2026-04-04T12:20:40Z</time></trkpt><trkpt lat="36.894698311145575" lon="15.074665858551134"><ele>170.66666666666666</ele><time>2026-04-04T12:20:41Z</time></trkpt><trkpt lat="36.89462903080861" lon="15.074668752169524"><ele>170.33333333333334</ele><time>2026-04-04T12:20:42Z</time></trkpt><trkpt lat="36.89452846560649" lon="15.074647329780403"><ele>170.0</ele><time>2026-04-04T12:20:44Z</time></trkpt><trkpt lat="36.894454270783" lon="15.074656124472517"><ele>169.66666666666669</ele><time>2026-04-04T12:20:46Z</time></trkpt><trkpt lat="36.89444709328772" lon="15.074781887797165"><ele>169.33333333333334</ele><time>2026-04-04T12:20:48Z</time></trkpt><trkpt lat="36.89442880837111" lon="15.074860329412402"><ele>169.0</ele><time>2026-04-04T12:20:50Z</time></trkpt><trkpt lat="36.89430184940487" lon="15.074816404440597"><ele>168.16666666666669</ele><time>2026-04-04T12:20:53Z</time></trkpt><trkpt lat="36.894218374139484" lon="15.074778289654562"><ele>167.33333333333334</ele><time>2026-04-04T12:20:54Z</time></trkpt><trkpt lat="36.8941320089568" lon="15.07475634378184"><ele>166.5</ele><time>2026-04-04T12:20:55Z</time></trkpt><trkpt lat="36.89404981619453" lon="15.074728693854928"><ele>165.66666666666666</ele><time>2026-04-04T12:20:56Z</time></trkpt><trkpt lat="36.89396810980909" lon="15.07470826833558"><ele>164.83333333333331</ele><time>2026-04-04T12:20:57Z</time></trkpt><trkpt lat="36.89388643668212" lon="15.074682644554406"><ele>164.0</ele><time>2026-04-04T12:20:58Z</time></trkpt><trkpt lat="36.89379132871241" lon="15.074655036161326"><ele>164.0</ele><time>2026-04-04T12:20:59Z</time></trkpt><trkpt lat="36.89369018157036" lon="15.074629468303396"><ele>164.0</ele><time>2026-04-04T12:21:00Z</time></trkpt><trkpt lat="36.89358710712973" lon="15.074600574919844"><ele>164.0</ele><time>2026-04-04T12:21:01Z</time></trkpt><trkpt lat="36.893487047524" lon="15.074575342943772"><ele>164.0</ele><time>2026-04-04T12:21:02Z</time></trkpt><trkpt lat="36.89339372007287" lon="15.074539440626578"><ele>164.0</ele><time>2026-04-04T12:21:03Z</time></trkpt><trkpt lat="36.89330639150295" lon="15.074519976642565"><ele>162.16666666666666</ele><time>2026-04-04T12:21:04Z</time></trkpt><trkpt lat="36.89323162715009" lon="15.074541768810992"><ele>160.33333333333331</ele><time>2026-04-04T12:21:05Z</time></trkpt><trkpt lat="36.8931712224259" lon="15.07458460809831"><ele>158.5</ele><time>2026-04-04T12:21:06Z</time></trkpt><trkpt lat="36.89319021741723" lon="15.074705459283551"><ele>156.66666666666666</ele><time>2026-04-04T12:21:07Z</time></trkpt><trkpt lat="36.893232863819016" lon="15.074799852543784"><ele>154.83333333333334</ele><time>2026-04-04T12:21:08Z</time></trkpt><trkpt lat="36.89331668546462" lon="15.074868928432002"><ele>153.0</ele><time>2026-04-04T12:21:09Z</time></trkpt><trkpt lat="36.89340599792934" lon="15.07491749493494"><ele>152.8</ele><time>2026-04-04T12:21:10Z</time></trkpt><trkpt lat="36.89349778202539" lon="15.074983866371012"><ele>152.60000000000002</ele><time>2026-04-04T12:21:11Z</time></trkpt><trkpt lat="36.89358037618898" lon="15.075063014823556"><ele>152.39999999999998</ele><time>2026-04-04T12:21:12Z</time></trkpt><trkpt lat="36.893666301025725" lon="15.075145556671133"><ele>152.2</ele><time>2026-04-04T12:21:13Z</time></trkpt><trkpt lat="36.8937689624446" lon="15.075183798887776"><ele>152.0</ele><time>2026-04-04T12:21:14Z</time></trkpt><trkpt lat="36.89389084936087" lon="15.07517881998529"><ele>152.0</ele><time>2026-04-04T12:21:15Z</time></trkpt><trkpt lat="36.89402128400613" lon="15.075167413054457"><ele>152.0</ele><time>2026-04-04T12:21:16Z</time></trkpt><trkpt lat="36.89414482420803" lon="15.075163349643162"><ele>152.0</ele><time>2026-04-04T12:21:17Z</time></trkpt><trkpt lat="36.894245821094124" lon="15.075188314567525"><ele>152.0</ele><time>2026-04-04T12:21:18Z</time></trkpt><trkpt lat="36.89431823779569" lon="15.075231685712781"><ele>152.0</ele><time>2026-04-04T12:21:19Z</time></trkpt><trkpt lat="36.89437334561699" lon="15.075295741876714"><ele>152.0</ele><time>2026-04-04T12:21:20Z</time></trkpt><trkpt lat="36.89435629458684" lon="15.075440532177534"><ele>152.0</ele><time>2026-04-04T12:21:22Z</time></trkpt><trkpt lat="36.89428618084843" lon="15.075469067774211"><ele>152.0</ele><time>2026-04-04T12:21:23Z</time></trkpt><trkpt lat="36.89420615120997" lon="15.075438591250089"><ele>152.0</ele><time>2026-04-04T12:21:24Z</time></trkpt><trkpt lat="36.894128551737815" lon="15.075375148597393"><ele>152.0</ele><time>2026-04-04T12:21:25Z</time></trkpt><trkpt lat="36.894038515380494" lon="15.075321704911369"><ele>152.0</ele><time>2026-04-04T12:21:26Z</time></trkpt><trkpt lat="36.89393197683541" lon="15.075315770976687"><ele>152.0</ele><time>2026-04-04T12:21:27Z</time></trkpt><trkpt lat="36.89384767046989" lon="15.075326893858211"><ele>152.0</ele><time>2026-04-04T12:21:28Z</time></trkpt><trkpt lat="36.893744064277904" lon="15.075331634159134"><ele>152.0</ele><time>2026-04-04T12:21:30Z</time></trkpt><trkpt lat="36.893658875869725" lon="15.075322297934973"><ele>152.0</ele><time>2026-04-04T12:21:32Z</time></trkpt><trkpt lat="36.89358367867703" lon="15.075301893049328"><ele>152.0</ele><time>2026-04-04T12:21:34Z</time></trkpt><trkpt lat="36.8934805945726" lon="15.07529996337029"><ele>152.0</ele><time>2026-04-04T12:21:36Z</time></trkpt><trkpt lat="36.89341060634428" lon="15.075291442476807"><ele>152.0</ele><time>2026-04-04T12:21:37Z</time></trkpt><trkpt lat="36.89333277524767" lon="15.07530643382287"><ele>152.0</ele><time>2026-04-04T12:21:38Z</time></trkpt><trkpt lat="36.89324988976861" lon="15.075337797045842"><ele>152.0</ele><time>2026-04-04T12:21:39Z</time></trkpt><trkpt lat="36.89316240218303" lon="15.075369307382624"><ele>152.0</ele><time>2026-04-04T12:21:40Z</time></trkpt><trkpt lat="36.893070236164824" lon="15.075392596712891"><ele>150.4</ele><time>2026-04-04T12:21:41Z</time></trkpt><trkpt lat="36.892972896483876" lon="15.075411569350846"><ele>148.79999999999998</ele><time>2026-04-04T12:21:42Z</time></trkpt><trkpt lat="36.892876625128636" lon="15.075430988068753"><ele>147.2</ele><time>2026-04-04T12:21:43Z</time></trkpt><trkpt lat="36.892776092760414" lon="15.075460932858135"><ele>145.6</ele><time>2026-04-04T12:21:44Z</time></trkpt><trkpt lat="36.892679406862" lon="15.075476666134923"><ele>144.0</ele><time>2026-04-04T12:21:45Z</time></trkpt><trkpt lat="36.89258530069076" lon="15.075483706757842"><ele>142.0</ele><time>2026-04-04T12:21:46Z</time></trkpt><trkpt lat="36.892496794299" lon="15.075459758376553"><ele>140.0</ele><time>2026-04-04T12:21:47Z</time></trkpt><trkpt lat="36.892407207999135" lon="15.075386539604763"><ele>138.0</ele><time>2026-04-04T12:21:48Z</time></trkpt><trkpt lat="36.89232860136883" lon="15.0753111169114"><ele>136.0</ele><time>2026-04-04T12:21:49Z</time></trkpt><trkpt lat="36.892246689128335" lon="15.075246520756057"><ele>134.0</ele><time>2026-04-04T12:21:50Z</time></trkpt><trkpt lat="36.892167071318696" lon="15.075163165617926"><ele>134.0</ele><time>2026-04-04T12:21:51Z</time></trkpt><trkpt lat="36.89209760801863" lon="15.075097749278118"><ele>134.0</ele><time>2026-04-04T12:21:52Z</time></trkpt><trkpt lat="36.89203588632071" lon="15.07500142933591"><ele>134.0</ele><time>2026-04-04T12:21:53Z</time></trkpt><trkpt lat="36.891982724480755" lon="15.074894129928609"><ele>134.0</ele><time>2026-04-04T12:21:54Z</time></trkpt><trkpt lat="36.891984391346924" lon="15.074773362662093"><ele>134.0</ele><time>2026-04-04T12:21:55Z</time></trkpt><trkpt lat="36.891973760423284" lon="15.074665776179387"><ele>134.5</ele><time>2026-04-04T12:21:56Z</time></trkpt><trkpt lat="36.89189816935497" lon="15.074568232030494"><ele>135.0</ele><time>2026-04-04T12:21:58Z</time></trkpt><trkpt lat="36.891831968175694" lon="15.074553153897734"><ele>135.5</ele><time>2026-04-04T12:21:59Z</time></trkpt><trkpt lat="36.89176926682093" lon="15.074575964613407"><ele>136.0</ele><time>2026-04-04T12:22:00Z</time></trkpt><trkpt lat="36.89171212778275" lon="15.074636884107527"><ele>136.5</ele><time>2026-04-04T12:22:01Z</time></trkpt><trkpt lat="36.891666939839915" lon="15.074714773112046"><ele>137.0</ele><time>2026-04-04T12:22:02Z</time></trkpt><trkpt lat="36.89162989438496" lon="15.074799193513275"><ele>135.5</ele><time>2026-04-04T12:22:03Z</time></trkpt><trkpt lat="36.89158639072983" lon="15.074875154405806"><ele>134.0</ele><time>2026-04-04T12:22:04Z</time></trkpt><trkpt lat="36.891539575629075" lon="15.074936359839192"><ele>132.5</ele><time>2026-04-04T12:22:05Z</time></trkpt><trkpt lat="36.891492657790735" lon="15.07500279396811"><ele>131.0</ele><time>2026-04-04T12:22:06Z</time></trkpt><trkpt lat="36.8914523681229" lon="15.075090013231764"><ele>129.5</ele><time>2026-04-04T12:22:07Z</time></trkpt><trkpt lat="36.89141624303664" lon="15.075182835620826"><ele>128.0</ele><time>2026-04-04T12:22:08Z</time></trkpt><trkpt lat="36.89137698079422" lon="15.075277462553919"><ele>127.66666666666666</ele><time>2026-04-04T12:22:09Z</time></trkpt><trkpt lat="36.89135113998986" lon="15.075359253122354"><ele>127.33333333333333</ele><time>2026-04-04T12:22:10Z</time></trkpt><trkpt lat="36.891315301762425" lon="15.07545455043391"><ele>127.0</ele><time>2026-04-04T12:22:11Z</time></trkpt><trkpt lat="36.891295090365254" lon="15.075542060887932"><ele>126.66666666666666</ele><time>2026-04-04T12:22:12Z</time></trkpt><trkpt lat="36.8912530795748" lon="15.075626520840718"><ele>126.33333333333333</ele><time>2026-04-04T12:22:13Z</time></trkpt><trkpt lat="36.89122063455651" lon="15.07570453011413"><ele>126.0</ele><time>2026-04-04T12:22:14Z</time></trkpt><trkpt lat="36.89116401772181" lon="15.075795935495888"><ele>124.19999999999999</ele><time>2026-04-04T12:22:15Z</time></trkpt><trkpt lat="36.89108687673229" lon="15.075861532286122"><ele>122.39999999999999</ele><time>2026-04-04T12:22:16Z</time></trkpt><trkpt lat="36.89101577154501" lon="15.075920389809843"><ele>120.6</ele><time>2026-04-04T12:22:17Z</time></trkpt><trkpt lat="36.8908988866405" lon="15.075937065210029"><ele>118.8</ele><time>2026-04-04T12:22:18Z</time></trkpt><trkpt lat="36.890796820198645" lon="15.075964203190068"><ele>117.0</ele><time>2026-04-04T12:22:19Z</time></trkpt><trkpt lat="36.8906857830817" lon="15.075985579770167"><ele>116.39999999999999</ele><time>2026-04-04T12:22:20Z</time></trkpt><trkpt lat="36.89057461929867" lon="15.076006160178935"><ele>115.79999999999998</ele><time>2026-04-04T12:22:21Z</time></trkpt><trkpt lat="36.890462578173754" lon="15.076037399336986"><ele>115.2</ele><time>2026-04-04T12:22:22Z</time></trkpt><trkpt lat="36.89034722610463" lon="15.076052005553464"><ele>114.6</ele><time>2026-04-04T12:22:23Z</time></trkpt><trkpt lat="36.89024906303511" lon="15.076080754139785"><ele>114.0</ele><time>2026-04-04T12:22:24Z</time></trkpt><trkpt lat="36.89015277757667" lon="15.076111406602775"><ele>113.2</ele><time>2026-04-04T12:22:25Z</time></trkpt><trkpt lat="36.89005997456579" lon="15.076139335625406"><ele>112.4</ele><time>2026-04-04T12:22:26Z</time></trkpt><trkpt lat="36.889954591663155" lon="15.07616602302016"><ele>111.6</ele><time>2026-04-04T12:22:27Z</time></trkpt><trkpt lat="36.88983983040446" lon="15.076194434938056"><ele>110.8</ele><time>2026-04-04T12:22:28Z</time></trkpt><trkpt lat="36.88972834126548" lon="15.0762202476324"><ele>110.0</ele><time>2026-04-04T12:22:29Z</time></trkpt><trkpt lat="36.88961860959509" lon="15.076253876127529"><ele>110.0</ele><time>2026-04-04T12:22:30Z</time></trkpt><trkpt lat="36.889522764702974" lon="15.07629074953982"><ele>110.0</ele><time>2026-04-04T12:22:31Z</time></trkpt><trkpt lat="36.889427013112986" lon="15.076320067139049"><ele>110.0</ele><time>2026-04-04T12:22:32Z</time></trkpt><trkpt lat="36.889333075092814" lon="15.07632480680135"><ele>110.0</ele><time>2026-04-04T12:22:33Z</time></trkpt><trkpt lat="36.88924818854894" lon="15.076328480696379"><ele>110.0</ele><time>2026-04-04T12:22:34Z</time></trkpt><trkpt lat="36.88915304480556" lon="15.076330654323018"><ele>109.2</ele><time>2026-04-04T12:22:35Z</time></trkpt><trkpt lat="36.88905551505603" lon="15.076312561651054"><ele>108.4</ele><time>2026-04-04T12:22:36Z</time></trkpt><trkpt lat="36.88895775578954" lon="15.0762810104448"><ele>107.6</ele><time>2026-04-04T12:22:37Z</time></trkpt><trkpt lat="36.88886292753462" lon="15.07623423967554"><ele>106.8</ele><time>2026-04-04T12:22:38Z</time></trkpt><trkpt lat="36.88878687459165" lon="15.07617305436486"><ele>106.0</ele><time>2026-04-04T12:22:39Z</time></trkpt><trkpt lat="36.88874071431838" lon="15.07606826270288"><ele>106.0</ele><time>2026-04-04T12:22:40Z</time></trkpt><trkpt lat="36.88873406335362" lon="15.075946713208"><ele>106.0</ele><time>2026-04-04T12:22:41Z</time></trkpt><trkpt lat="36.888751314538986" lon="15.075823376282637"><ele>106.0</ele><time>2026-04-04T12:22:42Z</time></trkpt><trkpt lat="36.88878436964258" lon="15.075695184705399"><ele>106.0</ele><time>2026-04-04T12:22:43Z</time></trkpt><trkpt lat="36.88882621595543" lon="15.075575332569025"><ele>106.0</ele><time>2026-04-04T12:22:44Z</time></trkpt><trkpt lat="36.88886653567026" lon="15.075453410728777"><ele>106.19999999999999</ele><time>2026-04-04T12:22:45Z</time></trkpt><trkpt lat="36.8889114910468" lon="15.075328252480057"><ele>106.39999999999999</ele><time>2026-04-04T12:22:46Z</time></trkpt><trkpt lat="36.88894503484539" lon="15.075207068911837"><ele>106.6</ele><time>2026-04-04T12:22:47Z</time></trkpt><trkpt lat="36.88898307188805" lon="15.075086957666969"><ele>106.8</ele><time>2026-04-04T12:22:48Z</time></trkpt><trkpt lat="36.889015680096186" lon="15.074964591438333"><ele>107.0</ele><time>2026-04-04T12:22:49Z</time></trkpt><trkpt lat="36.889019885084394" lon="15.074849935476887"><ele>106.6</ele><time>2026-04-04T12:22:50Z</time></trkpt><trkpt lat="36.888980475539384" lon="15.074748070115751"><ele>106.19999999999999</ele><time>2026-04-04T12:22:51Z</time></trkpt><trkpt lat="36.88890784412837" lon="15.07468340276585"><ele>105.8</ele><time>2026-04-04T12:22:52Z</time></trkpt><trkpt lat="36.88881928291781" lon="15.074653146271851"><ele>105.4</ele><time>2026-04-04T12:22:53Z</time></trkpt><trkpt lat="36.88872209434466" lon="15.074626395020367"><ele>105.0</ele><time>2026-04-04T12:22:54Z</time></trkpt><trkpt lat="36.888623408505616" lon="15.074591766427426"><ele>105.0</ele><time>2026-04-04T12:22:55Z</time></trkpt><trkpt lat="36.88852934112296" lon="15.0745472786839"><ele>105.0</ele><time>2026-04-04T12:22:56Z</time></trkpt><trkpt lat="36.88844129302831" lon="15.07450383897681"><ele>105.0</ele><time>2026-04-04T12:22:57Z</time></trkpt><trkpt lat="36.888347801447054" lon="15.074471303251073"><ele>105.0</ele><time>2026-04-04T12:22:58Z</time></trkpt><trkpt lat="36.88826338509419" lon="15.074434902361205"><ele>105.0</ele><time>2026-04-04T12:22:59Z</time></trkpt><trkpt lat="36.88818108150659" lon="15.074395838570144"><ele>105.0</ele><time>2026-04-04T12:23:00Z</time></trkpt><trkpt lat="36.888101355270024" lon="15.074357601892308"><ele>105.0</ele><time>2026-04-04T12:23:01Z</time></trkpt><trkpt lat="36.888010098721345" lon="15.0743116887728"><ele>105.0</ele><time>2026-04-04T12:23:02Z</time></trkpt><trkpt lat="36.88791315895892" lon="15.074270881067044"><ele>105.0</ele><time>2026-04-04T12:23:03Z</time></trkpt><trkpt lat="36.8878168759849" lon="15.07422671314656"><ele>105.0</ele><time>2026-04-04T12:23:04Z</time></trkpt><trkpt lat="36.88771801941586" lon="15.07418209707061"><ele>105.0</ele><time>2026-04-04T12:23:05Z</time></trkpt><trkpt lat="36.887623174985926" lon="15.074140130372578"><ele>105.0</ele><time>2026-04-04T12:23:06Z</time></trkpt><trkpt lat="36.88753052780364" lon="15.074108879710847"><ele>105.0</ele><time>2026-04-04T12:23:07Z</time></trkpt><trkpt lat="36.88743948946382" lon="15.074085398980689"><ele>105.0</ele><time>2026-04-04T12:23:08Z</time></trkpt><trkpt lat="36.887346685096645" lon="15.074101242696036"><ele>105.0</ele><time>2026-04-04T12:23:09Z</time></trkpt><trkpt lat="36.88725923984015" lon="15.074150778438744"><ele>103.8</ele><time>2026-04-04T12:23:10Z</time></trkpt><trkpt lat="36.88718493854897" lon="15.074229736019769"><ele>102.6</ele><time>2026-04-04T12:23:11Z</time></trkpt><trkpt lat="36.887116610155026" lon="15.07432929811374"><ele>101.4</ele><time>2026-04-04T12:23:12Z</time></trkpt><trkpt lat="36.887044330778025" lon="15.074422055241818"><ele>100.2</ele><time>2026-04-04T12:23:13Z</time></trkpt><trkpt lat="36.88696817063562" lon="15.074501954323841"><ele>99.0</ele><time>2026-04-04T12:23:14Z</time></trkpt><trkpt lat="36.886884832955296" lon="15.074583197344193"><ele>99.0</ele><time>2026-04-04T12:23:15Z</time></trkpt><trkpt lat="36.88680604986674" lon="15.074661332775927"><ele>99.0</ele><time>2026-04-04T12:23:16Z</time></trkpt><trkpt lat="36.88673155327958" lon="15.074743276389396"><ele>99.0</ele><time>2026-04-04T12:23:17Z</time></trkpt><trkpt lat="36.88665794345568" lon="15.07481504526819"><ele>99.0</ele><time>2026-04-04T12:23:18Z</time></trkpt><trkpt lat="36.886578457890806" lon="15.074876479541917"><ele>99.0</ele><time>2026-04-04T12:23:19Z</time></trkpt><trkpt lat="36.88648374721526" lon="15.074928024368859"><ele>99.2</ele><time>2026-04-04T12:23:20Z</time></trkpt><trkpt lat="36.8863794836575" lon="15.074938739499322"><ele>99.4</ele><time>2026-04-04T12:23:21Z</time></trkpt><trkpt lat="36.886268632923134" lon="15.074957077584278"><ele>99.6</ele><time>2026-04-04T12:23:22Z</time></trkpt><trkpt lat="36.88616904791634" lon="15.074972098696904"><ele>99.8</ele><time>2026-04-04T12:23:23Z</time></trkpt><trkpt lat="36.886070568307076" lon="15.074994143132527"><ele>100.0</ele><time>2026-04-04T12:23:24Z</time></trkpt><trkpt lat="36.885981247736666" lon="15.075015191055213"><ele>98.50000000000001</ele><time>2026-04-04T12:23:25Z</time></trkpt><trkpt lat="36.885894945536876" lon="15.075033375989165"><ele>97.0</ele><time>2026-04-04T12:23:26Z</time></trkpt><trkpt lat="36.885809853015196" lon="15.07504946816504"><ele>95.5</ele><time>2026-04-04T12:23:27Z</time></trkpt><trkpt lat="36.88573004433657" lon="15.075070279590479"><ele>94.0</ele><time>2026-04-04T12:23:28Z</time></trkpt><trkpt lat="36.88565563549661" lon="15.07509544692593"><ele>92.5</ele><time>2026-04-04T12:23:29Z</time></trkpt><trkpt lat="36.88557707379189" lon="15.075117950332547"><ele>91.0</ele><time>2026-04-04T12:23:30Z</time></trkpt><trkpt lat="36.88549994102034" lon="15.075134735730316"><ele>91.0</ele><time>2026-04-04T12:23:31Z</time></trkpt><trkpt lat="36.88543110938168" lon="15.07515940826321"><ele>91.0</ele><time>2026-04-04T12:23:32Z</time></trkpt><trkpt lat="36.88536036659699" lon="15.075172695534203"><ele>91.0</ele><time>2026-04-04T12:23:33Z</time></trkpt><trkpt lat="36.88523887070661" lon="15.07519512775782"><ele>91.0</ele><time>2026-04-04T12:23:35Z</time></trkpt><trkpt lat="36.885166561257" lon="15.075210684973586"><ele>91.0</ele><time>2026-04-04T12:23:36Z</time></trkpt><trkpt lat="36.88508395622812" lon="15.075252007090349"><ele>91.0</ele><time>2026-04-04T12:23:38Z</time></trkpt><trkpt lat="36.88500347917458" lon="15.07536993263672"><ele>90.71428571428571</ele><time>2026-04-04T12:23:40Z</time></trkpt><trkpt lat="36.88497358447397" lon="15.075448176749095"><ele>90.42857142857143</ele><time>2026-04-04T12:23:41Z</time></trkpt><trkpt lat="36.88494676292212" lon="15.075531312149494"><ele>90.14285714285714</ele><time>2026-04-04T12:23:42Z</time></trkpt><trkpt lat="36.88491740980605" lon="15.075611762017385"><ele>89.85714285714286</ele><time>2026-04-04T12:23:43Z</time></trkpt><trkpt lat="36.884884602884256" lon="15.075699736152492"><ele>89.57142857142857</ele><time>2026-04-04T12:23:44Z</time></trkpt><trkpt lat="36.884848815985166" lon="15.075788945474294"><ele>89.28571428571428</ele><time>2026-04-04T12:23:45Z</time></trkpt><trkpt lat="36.88481023722756" lon="15.075866496745181"><ele>89.0</ele><time>2026-04-04T12:23:46Z</time></trkpt><trkpt lat="36.88477368401651" lon="15.075956084023613"><ele>88.99999999999999</ele><time>2026-04-04T12:23:47Z</time></trkpt><trkpt lat="36.88474237844143" lon="15.076049223170646"><ele>89.0</ele><time>2026-04-04T12:23:48Z</time></trkpt><trkpt lat="36.8847094558201" lon="15.076135168297906"><ele>89.0</ele><time>2026-04-04T12:23:49Z</time></trkpt><trkpt lat="36.88467701871584" lon="15.076220720097242"><ele>89.0</ele><time>2026-04-04T12:23:50Z</time></trkpt><trkpt lat="36.88464430340861" lon="15.076297062138684"><ele>89.0</ele><time>2026-04-04T12:23:51Z</time></trkpt><trkpt lat="36.88461477189" lon="15.076375509582729"><ele>88.99999999999999</ele><time>2026-04-04T12:23:52Z</time></trkpt><trkpt lat="36.88458755013175" lon="15.076463592646716"><ele>89.0</ele><time>2026-04-04T12:23:53Z</time></trkpt><trkpt lat="36.88454057195489" lon="15.076530328934487"><ele>89.80000000000001</ele><time>2026-04-04T12:23:54Z</time></trkpt><trkpt lat="36.88450665961621" lon="15.07670078501739"><ele>90.60000000000001</ele><time>2026-04-04T12:23:56Z</time></trkpt><trkpt lat="36.88447282868776" lon="15.076780267488902"><ele>91.4</ele><time>2026-04-04T12:23:57Z</time></trkpt><trkpt lat="36.88443521260463" lon="15.076852681067798"><ele>92.2</ele><time>2026-04-04T12:23:58Z</time></trkpt><trkpt lat="36.884406548577864" lon="15.076925289688642"><ele>93.0</ele><time>2026-04-04T12:23:59Z</time></trkpt><trkpt lat="36.884356453346484" lon="15.077069168078092"><ele>93.0</ele><time>2026-04-04T12:24:01Z</time></trkpt><trkpt lat="36.884291773900664" lon="15.077184217036201"><ele>93.0</ele><time>2026-04-04T12:24:03Z</time></trkpt><trkpt lat="36.88424126804457" lon="15.077300852992401"><ele>93.0</ele><time>2026-04-04T12:24:05Z</time></trkpt><trkpt lat="36.884293515783156" lon="15.077405277485324"><ele>93.0</ele><time>2026-04-04T12:24:07Z</time></trkpt><trkpt lat="36.884312720225715" lon="15.077507915346676"><ele>93.0</ele><time>2026-04-04T12:24:09Z</time></trkpt><trkpt lat="36.88429843616928" lon="15.077587368252233"><ele>92.85714285714286</ele><time>2026-04-04T12:24:10Z</time></trkpt><trkpt lat="36.8842759579336" lon="15.077668020475127"><ele>92.71428571428572</ele><time>2026-04-04T12:24:11Z</time></trkpt><trkpt lat="36.88425429437412" lon="15.07775704238559"><ele>92.57142857142858</ele><time>2026-04-04T12:24:12Z</time></trkpt><trkpt lat="36.8842319129937" lon="15.077831991150818"><ele>92.42857142857143</ele><time>2026-04-04T12:24:13Z</time></trkpt><trkpt lat="36.88421699325497" lon="15.07792526568314"><ele>92.28571428571428</ele><time>2026-04-04T12:24:14Z</time></trkpt><trkpt lat="36.884200469480525" lon="15.078015184609734"><ele>92.14285714285715</ele><time>2026-04-04T12:24:15Z</time></trkpt><trkpt lat="36.88418005585841" lon="15.078096133720875"><ele>92.0</ele><time>2026-04-04T12:24:16Z</time></trkpt><trkpt lat="36.884212028557705" lon="15.078246640381971"><ele>93.0</ele><time>2026-04-04T12:24:18Z</time></trkpt><trkpt lat="36.88427497577664" lon="15.078307304179342"><ele>94.0</ele><time>2026-04-04T12:24:19Z</time></trkpt><trkpt lat="36.88433876838834" lon="15.078355198403056"><ele>95.0</ele><time>2026-04-04T12:24:20Z</time></trkpt><trkpt lat="36.88440325816599" lon="15.07840856226468"><ele>96.0</ele><time>2026-04-04T12:24:21Z</time></trkpt><trkpt lat="36.88445718913465" lon="15.078473218949702"><ele>96.99999999999999</ele><time>2026-04-04T12:24:22Z</time></trkpt><trkpt lat="36.884510641473355" lon="15.078544267092147"><ele>98.0</ele><time>2026-04-04T12:24:23Z</time></trkpt><trkpt lat="36.8845740766903" lon="15.078596382928675"><ele>97.99999999999999</ele><time>2026-04-04T12:24:24Z</time></trkpt><trkpt lat="36.88462500024346" lon="15.078666497592646"><ele>98.0</ele><time>2026-04-04T12:24:25Z</time></trkpt><trkpt lat="36.88467447559429" lon="15.078749291958397"><ele>98.0</ele><time>2026-04-04T12:24:26Z</time></trkpt><trkpt lat="36.88471900998497" lon="15.078812765456538"><ele>98.0</ele><time>2026-04-04T12:24:27Z</time></trkpt><trkpt lat="36.88480291166384" lon="15.078851958367371"><ele>97.99999999999999</ele><time>2026-04-04T12:24:29Z</time></trkpt><trkpt lat="36.884865279094655" lon="15.078928804769989"><ele>98.0</ele><time>2026-04-04T12:24:32Z</time></trkpt><trkpt lat="36.884875736252305" lon="15.078836582408648"><ele>98.0</ele><time>2026-04-04T12:24:55Z</time></trkpt><trkpt lat="36.884937676124885" lon="15.078655588662762"><ele>98.0</ele><time>2026-04-04T12:25:15Z</time></trkpt><trkpt lat="36.884882028651575" lon="15.07872737771865"><ele>98.0</ele><time>2026-04-04T12:25:17Z</time></trkpt><trkpt lat="36.8849370215073" lon="15.078883045949148"><ele>98.0</ele><time>2026-04-04T12:26:07Z</time></trkpt></trkseg></trk></gpx>